<?xml version="1.0" encoding="UTF-8" standalone="no" ?>
<gpx xmlns="http://www.topografix.com/GPX/1/1" xmlns:xsi="http://www.w3.org/2001/XMLSchema-instance" xsi:schemaLocation="http://www.topografix.com/GPX/1/1 http://www.topografix.com/GPX/1/1/gpx.xsd" version="1.1" creator="VisuGPX - https://www.visugpx.com">
  <metadata>
    <name>StCass Vourey Rives 36km 600m</name>
  </metadata>
  <trk>
    <name><![CDATA[StCass Vourey Rives 36km 600m_2]]></name>
    <trkseg>
      <trkpt lat="45.36024" lon="5.55339">
        <ele>361.11</ele>
        <time>2021-04-25T08:15:19Z</time>
      </trkpt>
      <trkpt lat="45.36032" lon="5.55396">
        <ele>360.15</ele>
        <time>2021-04-25T08:15:29Z</time>
      </trkpt>
      <trkpt lat="45.36046" lon="5.55455">
        <ele>359.67</ele>
        <time>2021-04-25T08:15:39Z</time>
      </trkpt>
      <trkpt lat="45.3606" lon="5.55506">
        <ele>359.67</ele>
        <time>2021-04-25T08:15:49Z</time>
      </trkpt>
      <trkpt lat="45.36068" lon="5.55555">
        <ele>359.19</ele>
        <time>2021-04-25T08:15:59Z</time>
      </trkpt>
      <trkpt lat="45.36053" lon="5.55617">
        <ele>357.27</ele>
        <time>2021-04-25T08:16:09Z</time>
      </trkpt>
      <trkpt lat="45.36023" lon="5.5567">
        <ele>356.79</ele>
        <time>2021-04-25T08:16:19Z</time>
      </trkpt>
      <trkpt lat="45.35986" lon="5.55694">
        <ele>358.23</ele>
        <time>2021-04-25T08:16:29Z</time>
      </trkpt>
      <trkpt lat="45.35952" lon="5.55715">
        <ele>359.19</ele>
        <time>2021-04-25T08:16:39Z</time>
      </trkpt>
      <trkpt lat="45.35918" lon="5.5575">
        <ele>358.23</ele>
        <time>2021-04-25T08:16:49Z</time>
      </trkpt>
      <trkpt lat="45.35886" lon="5.55797">
        <ele>357.75</ele>
        <time>2021-04-25T08:16:59Z</time>
      </trkpt>
      <trkpt lat="45.3587" lon="5.55857">
        <ele>357.27</ele>
        <time>2021-04-25T08:17:09Z</time>
      </trkpt>
      <trkpt lat="45.3585" lon="5.5591">
        <ele>357.75</ele>
        <time>2021-04-25T08:17:19Z</time>
      </trkpt>
      <trkpt lat="45.35821" lon="5.55954">
        <ele>358.23</ele>
        <time>2021-04-25T08:17:29Z</time>
      </trkpt>
      <trkpt lat="45.35795" lon="5.55987">
        <ele>358.71</ele>
        <time>2021-04-25T08:17:39Z</time>
      </trkpt>
      <trkpt lat="45.3575" lon="5.56017">
        <ele>354.38</ele>
        <time>2021-04-25T08:17:49Z</time>
      </trkpt>
      <trkpt lat="45.35675" lon="5.56048">
        <ele>349.58</ele>
        <time>2021-04-25T08:17:59Z</time>
      </trkpt>
      <trkpt lat="45.3559" lon="5.56046">
        <ele>341.41</ele>
        <time>2021-04-25T08:18:09Z</time>
      </trkpt>
      <trkpt lat="45.35519" lon="5.56055">
        <ele>335.16</ele>
        <time>2021-04-25T08:18:19Z</time>
      </trkpt>
      <trkpt lat="45.35497" lon="5.56136">
        <ele>330.35</ele>
        <time>2021-04-25T08:18:29Z</time>
      </trkpt>
      <trkpt lat="45.35472" lon="5.56173">
        <ele>328.43</ele>
        <time>2021-04-25T08:18:39Z</time>
      </trkpt>
      <trkpt lat="45.35469" lon="5.56121">
        <ele>328.43</ele>
        <time>2021-04-25T08:18:49Z</time>
      </trkpt>
      <trkpt lat="45.35463" lon="5.56068">
        <ele>329.87</ele>
        <time>2021-04-25T08:18:59Z</time>
      </trkpt>
      <trkpt lat="45.35428" lon="5.56053">
        <ele>330.35</ele>
        <time>2021-04-25T08:19:09Z</time>
      </trkpt>
      <trkpt lat="45.3539" lon="5.5606">
        <ele>331.31</ele>
        <time>2021-04-25T08:19:19Z</time>
      </trkpt>
      <trkpt lat="45.35354" lon="5.56044">
        <ele>329.87</ele>
        <time>2021-04-25T08:19:29Z</time>
      </trkpt>
      <trkpt lat="45.3535" lon="5.55986">
        <ele>328.43</ele>
        <time>2021-04-25T08:19:39Z</time>
      </trkpt>
      <trkpt lat="45.35381" lon="5.55972">
        <ele>328.91</ele>
        <time>2021-04-25T08:19:49Z</time>
      </trkpt>
      <trkpt lat="45.35409" lon="5.5596">
        <ele>329.39</ele>
        <time>2021-04-25T08:19:59Z</time>
      </trkpt>
      <trkpt lat="45.35434" lon="5.55962">
        <ele>330.35</ele>
        <time>2021-04-25T08:20:09Z</time>
      </trkpt>
      <trkpt lat="45.35458" lon="5.55949">
        <ele>331.31</ele>
        <time>2021-04-25T08:20:19Z</time>
      </trkpt>
      <trkpt lat="45.35477" lon="5.55925">
        <ele>332.27</ele>
        <time>2021-04-25T08:20:29Z</time>
      </trkpt>
      <trkpt lat="45.35494" lon="5.55909">
        <ele>333.71</ele>
        <time>2021-04-25T08:20:39Z</time>
      </trkpt>
      <trkpt lat="45.35512" lon="5.55899">
        <ele>334.68</ele>
        <time>2021-04-25T08:20:49Z</time>
      </trkpt>
      <trkpt lat="45.35535" lon="5.55885">
        <ele>335.16</ele>
        <time>2021-04-25T08:20:59Z</time>
      </trkpt>
      <trkpt lat="45.3556" lon="5.55864">
        <ele>336.12</ele>
        <time>2021-04-25T08:21:09Z</time>
      </trkpt>
      <trkpt lat="45.35576" lon="5.55849">
        <ele>337.08</ele>
        <time>2021-04-25T08:21:19Z</time>
      </trkpt>
      <trkpt lat="45.35582" lon="5.55822">
        <ele>338.52</ele>
        <time>2021-04-25T08:21:29Z</time>
      </trkpt>
      <trkpt lat="45.35596" lon="5.55795">
        <ele>339.96</ele>
        <time>2021-04-25T08:21:39Z</time>
      </trkpt>
      <trkpt lat="45.35607" lon="5.55771">
        <ele>341.41</ele>
        <time>2021-04-25T08:21:49Z</time>
      </trkpt>
      <trkpt lat="45.35623" lon="5.55742">
        <ele>342.37</ele>
        <time>2021-04-25T08:21:59Z</time>
      </trkpt>
      <trkpt lat="45.35636" lon="5.55717">
        <ele>344.29</ele>
        <time>2021-04-25T08:22:09Z</time>
      </trkpt>
      <trkpt lat="45.35645" lon="5.55699">
        <ele>345.73</ele>
        <time>2021-04-25T08:22:19Z</time>
      </trkpt>
      <trkpt lat="45.35655" lon="5.55683">
        <ele>348.62</ele>
        <time>2021-04-25T08:22:29Z</time>
      </trkpt>
      <trkpt lat="45.35662" lon="5.55667">
        <ele>351.02</ele>
        <time>2021-04-25T08:22:39Z</time>
      </trkpt>
      <trkpt lat="45.35665" lon="5.55647">
        <ele>352.46</ele>
        <time>2021-04-25T08:22:49Z</time>
      </trkpt>
      <trkpt lat="45.35672" lon="5.55632">
        <ele>353.9</ele>
        <time>2021-04-25T08:22:59Z</time>
      </trkpt>
      <trkpt lat="45.35676" lon="5.55613">
        <ele>355.34</ele>
        <time>2021-04-25T08:23:09Z</time>
      </trkpt>
      <trkpt lat="45.35676" lon="5.55593">
        <ele>357.27</ele>
        <time>2021-04-25T08:23:19Z</time>
      </trkpt>
      <trkpt lat="45.35673" lon="5.55575">
        <ele>359.19</ele>
        <time>2021-04-25T08:23:29Z</time>
      </trkpt>
      <trkpt lat="45.35666" lon="5.55559">
        <ele>360.63</ele>
        <time>2021-04-25T08:23:39Z</time>
      </trkpt>
      <trkpt lat="45.3566" lon="5.55545">
        <ele>361.59</ele>
        <time>2021-04-25T08:23:49Z</time>
      </trkpt>
      <trkpt lat="45.35653" lon="5.55531">
        <ele>363.04</ele>
        <time>2021-04-25T08:23:59Z</time>
      </trkpt>
      <trkpt lat="45.35644" lon="5.55512">
        <ele>363.52</ele>
        <time>2021-04-25T08:24:09Z</time>
      </trkpt>
      <trkpt lat="45.35629" lon="5.55488">
        <ele>364</ele>
        <time>2021-04-25T08:24:19Z</time>
      </trkpt>
      <trkpt lat="45.35622" lon="5.55464">
        <ele>364</ele>
        <time>2021-04-25T08:24:29Z</time>
      </trkpt>
      <trkpt lat="45.35613" lon="5.55435">
        <ele>363.52</ele>
        <time>2021-04-25T08:24:39Z</time>
      </trkpt>
      <trkpt lat="45.35603" lon="5.554">
        <ele>363.52</ele>
        <time>2021-04-25T08:24:49Z</time>
      </trkpt>
      <trkpt lat="45.35598" lon="5.55375">
        <ele>363.52</ele>
        <time>2021-04-25T08:24:59Z</time>
      </trkpt>
      <trkpt lat="45.35595" lon="5.55358">
        <ele>363.52</ele>
        <time>2021-04-25T08:25:09Z</time>
      </trkpt>
      <trkpt lat="45.35596" lon="5.55359">
        <ele>363.52</ele>
        <time>2021-04-25T08:25:19Z</time>
      </trkpt>
      <trkpt lat="45.35596" lon="5.55359">
        <ele>363.52</ele>
        <time>2021-04-25T08:25:29Z</time>
      </trkpt>
      <trkpt lat="45.35595" lon="5.55358">
        <ele>363.52</ele>
        <time>2021-04-25T08:25:39Z</time>
      </trkpt>
      <trkpt lat="45.35595" lon="5.55358">
        <ele>363.52</ele>
        <time>2021-04-25T08:25:49Z</time>
      </trkpt>
      <trkpt lat="45.35595" lon="5.55358">
        <ele>363.52</ele>
        <time>2021-04-25T08:25:59Z</time>
      </trkpt>
      <trkpt lat="45.35596" lon="5.55358">
        <ele>363.52</ele>
        <time>2021-04-25T08:26:09Z</time>
      </trkpt>
      <trkpt lat="45.35596" lon="5.55356">
        <ele>363.52</ele>
        <time>2021-04-25T08:26:19Z</time>
      </trkpt>
      <trkpt lat="45.35592" lon="5.55327">
        <ele>363.04</ele>
        <time>2021-04-25T08:26:29Z</time>
      </trkpt>
      <trkpt lat="45.35586" lon="5.55296">
        <ele>363.52</ele>
        <time>2021-04-25T08:26:39Z</time>
      </trkpt>
      <trkpt lat="45.35581" lon="5.55252">
        <ele>363.52</ele>
        <time>2021-04-25T08:26:49Z</time>
      </trkpt>
      <trkpt lat="45.35571" lon="5.55209">
        <ele>364</ele>
        <time>2021-04-25T08:26:59Z</time>
      </trkpt>
      <trkpt lat="45.35561" lon="5.55165">
        <ele>364</ele>
        <time>2021-04-25T08:27:09Z</time>
      </trkpt>
      <trkpt lat="45.35557" lon="5.55126">
        <ele>365.92</ele>
        <time>2021-04-25T08:27:19Z</time>
      </trkpt>
      <trkpt lat="45.35522" lon="5.55116">
        <ele>363.52</ele>
        <time>2021-04-25T08:27:29Z</time>
      </trkpt>
      <trkpt lat="45.35463" lon="5.55088">
        <ele>359.19</ele>
        <time>2021-04-25T08:27:39Z</time>
      </trkpt>
      <trkpt lat="45.35397" lon="5.5505">
        <ele>356.79</ele>
        <time>2021-04-25T08:27:49Z</time>
      </trkpt>
      <trkpt lat="45.35332" lon="5.55026">
        <ele>354.86</ele>
        <time>2021-04-25T08:27:59Z</time>
      </trkpt>
      <trkpt lat="45.35278" lon="5.55011">
        <ele>354.86</ele>
        <time>2021-04-25T08:28:09Z</time>
      </trkpt>
      <trkpt lat="45.35229" lon="5.55011">
        <ele>354.86</ele>
        <time>2021-04-25T08:28:19Z</time>
      </trkpt>
      <trkpt lat="45.35182" lon="5.55019">
        <ele>354.86</ele>
        <time>2021-04-25T08:28:29Z</time>
      </trkpt>
      <trkpt lat="45.3514" lon="5.55001">
        <ele>355.83</ele>
        <time>2021-04-25T08:28:39Z</time>
      </trkpt>
      <trkpt lat="45.35102" lon="5.54973">
        <ele>355.83</ele>
        <time>2021-04-25T08:28:49Z</time>
      </trkpt>
      <trkpt lat="45.35061" lon="5.5496">
        <ele>355.83</ele>
        <time>2021-04-25T08:28:59Z</time>
      </trkpt>
      <trkpt lat="45.35015" lon="5.54964">
        <ele>355.34</ele>
        <time>2021-04-25T08:29:09Z</time>
      </trkpt>
      <trkpt lat="45.34971" lon="5.54954">
        <ele>355.34</ele>
        <time>2021-04-25T08:29:19Z</time>
      </trkpt>
      <trkpt lat="45.34928" lon="5.54937">
        <ele>356.31</ele>
        <time>2021-04-25T08:29:29Z</time>
      </trkpt>
      <trkpt lat="45.34891" lon="5.54919">
        <ele>357.27</ele>
        <time>2021-04-25T08:29:39Z</time>
      </trkpt>
      <trkpt lat="45.3485" lon="5.54896">
        <ele>356.79</ele>
        <time>2021-04-25T08:29:49Z</time>
      </trkpt>
      <trkpt lat="45.34807" lon="5.54869">
        <ele>355.83</ele>
        <time>2021-04-25T08:29:59Z</time>
      </trkpt>
      <trkpt lat="45.34756" lon="5.54828">
        <ele>352.46</ele>
        <time>2021-04-25T08:30:09Z</time>
      </trkpt>
      <trkpt lat="45.34709" lon="5.54737">
        <ele>346.21</ele>
        <time>2021-04-25T08:30:19Z</time>
      </trkpt>
      <trkpt lat="45.34676" lon="5.5465">
        <ele>345.73</ele>
        <time>2021-04-25T08:30:29Z</time>
      </trkpt>
      <trkpt lat="45.34697" lon="5.54599">
        <ele>347.65</ele>
        <time>2021-04-25T08:30:39Z</time>
      </trkpt>
      <trkpt lat="45.34718" lon="5.5455">
        <ele>348.13</ele>
        <time>2021-04-25T08:30:49Z</time>
      </trkpt>
      <trkpt lat="45.34733" lon="5.54498">
        <ele>348.62</ele>
        <time>2021-04-25T08:30:59Z</time>
      </trkpt>
      <trkpt lat="45.34707" lon="5.54461">
        <ele>349.1</ele>
        <time>2021-04-25T08:31:09Z</time>
      </trkpt>
      <trkpt lat="45.34685" lon="5.54433">
        <ele>351.02</ele>
        <time>2021-04-25T08:31:19Z</time>
      </trkpt>
      <trkpt lat="45.34659" lon="5.544">
        <ele>351.98</ele>
        <time>2021-04-25T08:31:29Z</time>
      </trkpt>
      <trkpt lat="45.34635" lon="5.54363">
        <ele>352.46</ele>
        <time>2021-04-25T08:31:39Z</time>
      </trkpt>
      <trkpt lat="45.34616" lon="5.54324">
        <ele>352.46</ele>
        <time>2021-04-25T08:31:49Z</time>
      </trkpt>
      <trkpt lat="45.34597" lon="5.54282">
        <ele>353.42</ele>
        <time>2021-04-25T08:31:59Z</time>
      </trkpt>
      <trkpt lat="45.34577" lon="5.54247">
        <ele>353.9</ele>
        <time>2021-04-25T08:32:09Z</time>
      </trkpt>
      <trkpt lat="45.34553" lon="5.54216">
        <ele>354.38</ele>
        <time>2021-04-25T08:32:19Z</time>
      </trkpt>
      <trkpt lat="45.34525" lon="5.54183">
        <ele>353.9</ele>
        <time>2021-04-25T08:32:29Z</time>
      </trkpt>
      <trkpt lat="45.34514" lon="5.5414">
        <ele>352.46</ele>
        <time>2021-04-25T08:32:39Z</time>
      </trkpt>
      <trkpt lat="45.34538" lon="5.541">
        <ele>353.42</ele>
        <time>2021-04-25T08:32:49Z</time>
      </trkpt>
      <trkpt lat="45.34556" lon="5.54071">
        <ele>355.34</ele>
        <time>2021-04-25T08:32:59Z</time>
      </trkpt>
      <trkpt lat="45.34541" lon="5.54027">
        <ele>354.38</ele>
        <time>2021-04-25T08:33:09Z</time>
      </trkpt>
      <trkpt lat="45.34518" lon="5.53967">
        <ele>353.42</ele>
        <time>2021-04-25T08:33:19Z</time>
      </trkpt>
      <trkpt lat="45.34499" lon="5.53911">
        <ele>353.42</ele>
        <time>2021-04-25T08:33:29Z</time>
      </trkpt>
      <trkpt lat="45.3449" lon="5.53857">
        <ele>353.42</ele>
        <time>2021-04-25T08:33:39Z</time>
      </trkpt>
      <trkpt lat="45.34476" lon="5.53804">
        <ele>353.42</ele>
        <time>2021-04-25T08:33:49Z</time>
      </trkpt>
      <trkpt lat="45.34431" lon="5.53807">
        <ele>351.02</ele>
        <time>2021-04-25T08:33:59Z</time>
      </trkpt>
      <trkpt lat="45.34371" lon="5.53836">
        <ele>346.21</ele>
        <time>2021-04-25T08:34:09Z</time>
      </trkpt>
      <trkpt lat="45.3432" lon="5.53836">
        <ele>348.62</ele>
        <time>2021-04-25T08:34:19Z</time>
      </trkpt>
      <trkpt lat="45.34293" lon="5.53831">
        <ele>351.5</ele>
        <time>2021-04-25T08:34:29Z</time>
      </trkpt>
      <trkpt lat="45.34267" lon="5.53817">
        <ele>353.42</ele>
        <time>2021-04-25T08:34:39Z</time>
      </trkpt>
      <trkpt lat="45.34249" lon="5.53785">
        <ele>353.9</ele>
        <time>2021-04-25T08:34:49Z</time>
      </trkpt>
      <trkpt lat="45.34238" lon="5.53746">
        <ele>354.38</ele>
        <time>2021-04-25T08:34:59Z</time>
      </trkpt>
      <trkpt lat="45.34224" lon="5.53699">
        <ele>353.9</ele>
        <time>2021-04-25T08:35:09Z</time>
      </trkpt>
      <trkpt lat="45.34205" lon="5.53646">
        <ele>352.94</ele>
        <time>2021-04-25T08:35:19Z</time>
      </trkpt>
      <trkpt lat="45.34185" lon="5.53593">
        <ele>352.46</ele>
        <time>2021-04-25T08:35:29Z</time>
      </trkpt>
      <trkpt lat="45.34164" lon="5.53543">
        <ele>352.94</ele>
        <time>2021-04-25T08:35:39Z</time>
      </trkpt>
      <trkpt lat="45.34177" lon="5.53488">
        <ele>353.42</ele>
        <time>2021-04-25T08:35:49Z</time>
      </trkpt>
      <trkpt lat="45.34203" lon="5.53449">
        <ele>354.38</ele>
        <time>2021-04-25T08:35:59Z</time>
      </trkpt>
      <trkpt lat="45.34227" lon="5.53419">
        <ele>356.31</ele>
        <time>2021-04-25T08:36:09Z</time>
      </trkpt>
      <trkpt lat="45.34247" lon="5.53392">
        <ele>358.71</ele>
        <time>2021-04-25T08:36:19Z</time>
      </trkpt>
      <trkpt lat="45.34264" lon="5.53369">
        <ele>360.63</ele>
        <time>2021-04-25T08:36:29Z</time>
      </trkpt>
      <trkpt lat="45.3428" lon="5.53345">
        <ele>363.04</ele>
        <time>2021-04-25T08:36:39Z</time>
      </trkpt>
      <trkpt lat="45.34296" lon="5.53328">
        <ele>364</ele>
        <time>2021-04-25T08:36:49Z</time>
      </trkpt>
      <trkpt lat="45.34317" lon="5.53312">
        <ele>364.96</ele>
        <time>2021-04-25T08:36:59Z</time>
      </trkpt>
      <trkpt lat="45.34338" lon="5.53289">
        <ele>365.44</ele>
        <time>2021-04-25T08:37:09Z</time>
      </trkpt>
      <trkpt lat="45.34354" lon="5.53257">
        <ele>364.96</ele>
        <time>2021-04-25T08:37:19Z</time>
      </trkpt>
      <trkpt lat="45.34346" lon="5.53217">
        <ele>365.92</ele>
        <time>2021-04-25T08:37:29Z</time>
      </trkpt>
      <trkpt lat="45.34338" lon="5.53179">
        <ele>366.88</ele>
        <time>2021-04-25T08:37:39Z</time>
      </trkpt>
      <trkpt lat="45.34323" lon="5.53145">
        <ele>367.36</ele>
        <time>2021-04-25T08:37:49Z</time>
      </trkpt>
      <trkpt lat="45.34307" lon="5.53112">
        <ele>368.32</ele>
        <time>2021-04-25T08:37:59Z</time>
      </trkpt>
      <trkpt lat="45.34291" lon="5.5308">
        <ele>368.8</ele>
        <time>2021-04-25T08:38:09Z</time>
      </trkpt>
      <trkpt lat="45.34274" lon="5.53047">
        <ele>369.76</ele>
        <time>2021-04-25T08:38:19Z</time>
      </trkpt>
      <trkpt lat="45.34259" lon="5.53015">
        <ele>370.73</ele>
        <time>2021-04-25T08:38:29Z</time>
      </trkpt>
      <trkpt lat="45.34247" lon="5.52984">
        <ele>371.69</ele>
        <time>2021-04-25T08:38:39Z</time>
      </trkpt>
      <trkpt lat="45.34233" lon="5.52954">
        <ele>372.65</ele>
        <time>2021-04-25T08:38:49Z</time>
      </trkpt>
      <trkpt lat="45.34246" lon="5.52933">
        <ele>373.13</ele>
        <time>2021-04-25T08:38:59Z</time>
      </trkpt>
      <trkpt lat="45.34266" lon="5.5291">
        <ele>373.61</ele>
        <time>2021-04-25T08:39:09Z</time>
      </trkpt>
      <trkpt lat="45.34285" lon="5.52889">
        <ele>374.09</ele>
        <time>2021-04-25T08:39:19Z</time>
      </trkpt>
      <trkpt lat="45.34304" lon="5.52868">
        <ele>375.05</ele>
        <time>2021-04-25T08:39:29Z</time>
      </trkpt>
      <trkpt lat="45.34322" lon="5.52847">
        <ele>376.01</ele>
        <time>2021-04-25T08:39:39Z</time>
      </trkpt>
      <trkpt lat="45.34335" lon="5.52824">
        <ele>377.94</ele>
        <time>2021-04-25T08:39:49Z</time>
      </trkpt>
      <trkpt lat="45.34339" lon="5.52795">
        <ele>378.9</ele>
        <time>2021-04-25T08:39:59Z</time>
      </trkpt>
      <trkpt lat="45.34322" lon="5.52787">
        <ele>381.3</ele>
        <time>2021-04-25T08:40:09Z</time>
      </trkpt>
      <trkpt lat="45.34298" lon="5.52777">
        <ele>383.22</ele>
        <time>2021-04-25T08:40:19Z</time>
      </trkpt>
      <trkpt lat="45.34276" lon="5.5277">
        <ele>383.7</ele>
        <time>2021-04-25T08:40:29Z</time>
      </trkpt>
      <trkpt lat="45.34252" lon="5.5275">
        <ele>383.7</ele>
        <time>2021-04-25T08:40:39Z</time>
      </trkpt>
      <trkpt lat="45.34231" lon="5.5272">
        <ele>383.22</ele>
        <time>2021-04-25T08:40:49Z</time>
      </trkpt>
      <trkpt lat="45.3422" lon="5.52686">
        <ele>383.7</ele>
        <time>2021-04-25T08:40:59Z</time>
      </trkpt>
      <trkpt lat="45.34196" lon="5.52672">
        <ele>384.18</ele>
        <time>2021-04-25T08:41:09Z</time>
      </trkpt>
      <trkpt lat="45.34169" lon="5.52655">
        <ele>384.66</ele>
        <time>2021-04-25T08:41:19Z</time>
      </trkpt>
      <trkpt lat="45.3414" lon="5.52635">
        <ele>384.18</ele>
        <time>2021-04-25T08:41:29Z</time>
      </trkpt>
      <trkpt lat="45.34107" lon="5.5261">
        <ele>383.7</ele>
        <time>2021-04-25T08:41:39Z</time>
      </trkpt>
      <trkpt lat="45.34073" lon="5.52577">
        <ele>381.78</ele>
        <time>2021-04-25T08:41:49Z</time>
      </trkpt>
      <trkpt lat="45.34035" lon="5.52539">
        <ele>380.82</ele>
        <time>2021-04-25T08:41:59Z</time>
      </trkpt>
      <trkpt lat="45.34003" lon="5.5249">
        <ele>378.9</ele>
        <time>2021-04-25T08:42:09Z</time>
      </trkpt>
      <trkpt lat="45.33972" lon="5.52429">
        <ele>377.94</ele>
        <time>2021-04-25T08:42:19Z</time>
      </trkpt>
      <trkpt lat="45.33927" lon="5.5239">
        <ele>376.97</ele>
        <time>2021-04-25T08:42:29Z</time>
      </trkpt>
      <trkpt lat="45.33892" lon="5.52338">
        <ele>376.01</ele>
        <time>2021-04-25T08:42:39Z</time>
      </trkpt>
      <trkpt lat="45.33868" lon="5.52296">
        <ele>375.05</ele>
        <time>2021-04-25T08:42:49Z</time>
      </trkpt>
      <trkpt lat="45.3384" lon="5.52259">
        <ele>375.05</ele>
        <time>2021-04-25T08:42:59Z</time>
      </trkpt>
      <trkpt lat="45.338" lon="5.52226">
        <ele>375.05</ele>
        <time>2021-04-25T08:43:09Z</time>
      </trkpt>
      <trkpt lat="45.33772" lon="5.5225">
        <ele>376.49</ele>
        <time>2021-04-25T08:43:19Z</time>
      </trkpt>
      <trkpt lat="45.33743" lon="5.52237">
        <ele>376.49</ele>
        <time>2021-04-25T08:43:29Z</time>
      </trkpt>
      <trkpt lat="45.33702" lon="5.52212">
        <ele>375.53</ele>
        <time>2021-04-25T08:43:39Z</time>
      </trkpt>
      <trkpt lat="45.33668" lon="5.5217">
        <ele>375.05</ele>
        <time>2021-04-25T08:43:49Z</time>
      </trkpt>
      <trkpt lat="45.3363" lon="5.52128">
        <ele>374.57</ele>
        <time>2021-04-25T08:43:59Z</time>
      </trkpt>
      <trkpt lat="45.33593" lon="5.52085">
        <ele>374.09</ele>
        <time>2021-04-25T08:44:09Z</time>
      </trkpt>
      <trkpt lat="45.33563" lon="5.5204">
        <ele>375.05</ele>
        <time>2021-04-25T08:44:19Z</time>
      </trkpt>
      <trkpt lat="45.33543" lon="5.51996">
        <ele>374.57</ele>
        <time>2021-04-25T08:44:29Z</time>
      </trkpt>
      <trkpt lat="45.33521" lon="5.51948">
        <ele>372.17</ele>
        <time>2021-04-25T08:44:39Z</time>
      </trkpt>
      <trkpt lat="45.33542" lon="5.51923">
        <ele>368.32</ele>
        <time>2021-04-25T08:44:49Z</time>
      </trkpt>
      <trkpt lat="45.33516" lon="5.51849">
        <ele>366.88</ele>
        <time>2021-04-25T08:44:59Z</time>
      </trkpt>
      <trkpt lat="45.33488" lon="5.5178">
        <ele>365.92</ele>
        <time>2021-04-25T08:45:09Z</time>
      </trkpt>
      <trkpt lat="45.33464" lon="5.51712">
        <ele>364.96</ele>
        <time>2021-04-25T08:45:19Z</time>
      </trkpt>
      <trkpt lat="45.33445" lon="5.51641">
        <ele>363.52</ele>
        <time>2021-04-25T08:45:29Z</time>
      </trkpt>
      <trkpt lat="45.33413" lon="5.51577">
        <ele>362.07</ele>
        <time>2021-04-25T08:45:39Z</time>
      </trkpt>
      <trkpt lat="45.33365" lon="5.51539">
        <ele>361.11</ele>
        <time>2021-04-25T08:45:49Z</time>
      </trkpt>
      <trkpt lat="45.33321" lon="5.51484">
        <ele>359.67</ele>
        <time>2021-04-25T08:45:59Z</time>
      </trkpt>
      <trkpt lat="45.33269" lon="5.51456">
        <ele>358.23</ele>
        <time>2021-04-25T08:46:09Z</time>
      </trkpt>
      <trkpt lat="45.33208" lon="5.51449">
        <ele>351.5</ele>
        <time>2021-04-25T08:46:19Z</time>
      </trkpt>
      <trkpt lat="45.3314" lon="5.51449">
        <ele>345.25</ele>
        <time>2021-04-25T08:46:29Z</time>
      </trkpt>
      <trkpt lat="45.33108" lon="5.5145">
        <ele>342.85</ele>
        <time>2021-04-25T08:46:39Z</time>
      </trkpt>
      <trkpt lat="45.33114" lon="5.51484">
        <ele>345.25</ele>
        <time>2021-04-25T08:46:49Z</time>
      </trkpt>
      <trkpt lat="45.33127" lon="5.51518">
        <ele>347.65</ele>
        <time>2021-04-25T08:46:59Z</time>
      </trkpt>
      <trkpt lat="45.33139" lon="5.51554">
        <ele>348.62</ele>
        <time>2021-04-25T08:47:09Z</time>
      </trkpt>
      <trkpt lat="45.33151" lon="5.51591">
        <ele>349.1</ele>
        <time>2021-04-25T08:47:19Z</time>
      </trkpt>
      <trkpt lat="45.33161" lon="5.51627">
        <ele>350.06</ele>
        <time>2021-04-25T08:47:29Z</time>
      </trkpt>
      <trkpt lat="45.33173" lon="5.51664">
        <ele>351.5</ele>
        <time>2021-04-25T08:47:39Z</time>
      </trkpt>
      <trkpt lat="45.33183" lon="5.51692">
        <ele>353.42</ele>
        <time>2021-04-25T08:47:49Z</time>
      </trkpt>
      <trkpt lat="45.33194" lon="5.51723">
        <ele>355.34</ele>
        <time>2021-04-25T08:47:59Z</time>
      </trkpt>
      <trkpt lat="45.33209" lon="5.51748">
        <ele>357.27</ele>
        <time>2021-04-25T08:48:09Z</time>
      </trkpt>
      <trkpt lat="45.33223" lon="5.51772">
        <ele>358.23</ele>
        <time>2021-04-25T08:48:19Z</time>
      </trkpt>
      <trkpt lat="45.33236" lon="5.51793">
        <ele>359.67</ele>
        <time>2021-04-25T08:48:29Z</time>
      </trkpt>
      <trkpt lat="45.33252" lon="5.51815">
        <ele>360.63</ele>
        <time>2021-04-25T08:48:39Z</time>
      </trkpt>
      <trkpt lat="45.33267" lon="5.51837">
        <ele>360.63</ele>
        <time>2021-04-25T08:48:49Z</time>
      </trkpt>
      <trkpt lat="45.33282" lon="5.51861">
        <ele>361.59</ele>
        <time>2021-04-25T08:48:59Z</time>
      </trkpt>
      <trkpt lat="45.33298" lon="5.51887">
        <ele>362.07</ele>
        <time>2021-04-25T08:49:09Z</time>
      </trkpt>
      <trkpt lat="45.33315" lon="5.51914">
        <ele>362.55</ele>
        <time>2021-04-25T08:49:19Z</time>
      </trkpt>
      <trkpt lat="45.33333" lon="5.5194">
        <ele>363.04</ele>
        <time>2021-04-25T08:49:29Z</time>
      </trkpt>
      <trkpt lat="45.33349" lon="5.51963">
        <ele>364</ele>
        <time>2021-04-25T08:49:39Z</time>
      </trkpt>
      <trkpt lat="45.33366" lon="5.51991">
        <ele>364.96</ele>
        <time>2021-04-25T08:49:49Z</time>
      </trkpt>
      <trkpt lat="45.33384" lon="5.52017">
        <ele>365.92</ele>
        <time>2021-04-25T08:49:59Z</time>
      </trkpt>
      <trkpt lat="45.33401" lon="5.52043">
        <ele>367.84</ele>
        <time>2021-04-25T08:50:09Z</time>
      </trkpt>
      <trkpt lat="45.33418" lon="5.52068">
        <ele>369.28</ele>
        <time>2021-04-25T08:50:19Z</time>
      </trkpt>
      <trkpt lat="45.33434" lon="5.52093">
        <ele>370.73</ele>
        <time>2021-04-25T08:50:29Z</time>
      </trkpt>
      <trkpt lat="45.3345" lon="5.52118">
        <ele>372.17</ele>
        <time>2021-04-25T08:50:39Z</time>
      </trkpt>
      <trkpt lat="45.33469" lon="5.52141">
        <ele>372.17</ele>
        <time>2021-04-25T08:50:49Z</time>
      </trkpt>
      <trkpt lat="45.33491" lon="5.52165">
        <ele>372.65</ele>
        <time>2021-04-25T08:50:59Z</time>
      </trkpt>
      <trkpt lat="45.33505" lon="5.52186">
        <ele>372.17</ele>
        <time>2021-04-25T08:51:09Z</time>
      </trkpt>
      <trkpt lat="45.33505" lon="5.52186">
        <ele>372.17</ele>
        <time>2021-04-25T08:51:19Z</time>
      </trkpt>
      <trkpt lat="45.33506" lon="5.52185">
        <ele>372.17</ele>
        <time>2021-04-25T08:51:29Z</time>
      </trkpt>
      <trkpt lat="45.33506" lon="5.52185">
        <ele>372.17</ele>
        <time>2021-04-25T08:51:39Z</time>
      </trkpt>
      <trkpt lat="45.33506" lon="5.52186">
        <ele>372.17</ele>
        <time>2021-04-25T08:51:49Z</time>
      </trkpt>
      <trkpt lat="45.33493" lon="5.52192">
        <ele>371.69</ele>
        <time>2021-04-25T08:51:59Z</time>
      </trkpt>
      <trkpt lat="45.33469" lon="5.5222">
        <ele>368.32</ele>
        <time>2021-04-25T08:52:09Z</time>
      </trkpt>
      <trkpt lat="45.33442" lon="5.5226">
        <ele>364</ele>
        <time>2021-04-25T08:52:19Z</time>
      </trkpt>
      <trkpt lat="45.33419" lon="5.52289">
        <ele>360.15</ele>
        <time>2021-04-25T08:52:29Z</time>
      </trkpt>
      <trkpt lat="45.33397" lon="5.5227">
        <ele>359.67</ele>
        <time>2021-04-25T08:52:39Z</time>
      </trkpt>
      <trkpt lat="45.3337" lon="5.52242">
        <ele>358.23</ele>
        <time>2021-04-25T08:52:49Z</time>
      </trkpt>
      <trkpt lat="45.33336" lon="5.52214">
        <ele>357.27</ele>
        <time>2021-04-25T08:52:59Z</time>
      </trkpt>
      <trkpt lat="45.33302" lon="5.52188">
        <ele>356.79</ele>
        <time>2021-04-25T08:53:09Z</time>
      </trkpt>
      <trkpt lat="45.33251" lon="5.52179">
        <ele>352.94</ele>
        <time>2021-04-25T08:53:19Z</time>
      </trkpt>
      <trkpt lat="45.33201" lon="5.52163">
        <ele>349.58</ele>
        <time>2021-04-25T08:53:29Z</time>
      </trkpt>
      <trkpt lat="45.33153" lon="5.52153">
        <ele>344.77</ele>
        <time>2021-04-25T08:53:39Z</time>
      </trkpt>
      <trkpt lat="45.33109" lon="5.52129">
        <ele>339</ele>
        <time>2021-04-25T08:53:49Z</time>
      </trkpt>
      <trkpt lat="45.33064" lon="5.52101">
        <ele>335.16</ele>
        <time>2021-04-25T08:53:59Z</time>
      </trkpt>
      <trkpt lat="45.33022" lon="5.52075">
        <ele>332.27</ele>
        <time>2021-04-25T08:54:09Z</time>
      </trkpt>
      <trkpt lat="45.32989" lon="5.52054">
        <ele>328.91</ele>
        <time>2021-04-25T08:54:19Z</time>
      </trkpt>
      <trkpt lat="45.32957" lon="5.52028">
        <ele>325.06</ele>
        <time>2021-04-25T08:54:29Z</time>
      </trkpt>
      <trkpt lat="45.32925" lon="5.52036">
        <ele>320.74</ele>
        <time>2021-04-25T08:54:39Z</time>
      </trkpt>
      <trkpt lat="45.32887" lon="5.52042">
        <ele>314.97</ele>
        <time>2021-04-25T08:54:49Z</time>
      </trkpt>
      <trkpt lat="45.32849" lon="5.52062">
        <ele>310.16</ele>
        <time>2021-04-25T08:54:59Z</time>
      </trkpt>
      <trkpt lat="45.32817" lon="5.52057">
        <ele>303.91</ele>
        <time>2021-04-25T08:55:09Z</time>
      </trkpt>
      <trkpt lat="45.32792" lon="5.52058">
        <ele>298.15</ele>
        <time>2021-04-25T08:55:19Z</time>
      </trkpt>
      <trkpt lat="45.32728" lon="5.52071">
        <ele>287.09</ele>
        <time>2021-04-25T08:55:29Z</time>
      </trkpt>
      <trkpt lat="45.32659" lon="5.52064">
        <ele>282.77</ele>
        <time>2021-04-25T08:55:39Z</time>
      </trkpt>
      <trkpt lat="45.32612" lon="5.52074">
        <ele>276.04</ele>
        <time>2021-04-25T08:55:49Z</time>
      </trkpt>
      <trkpt lat="45.32569" lon="5.52085">
        <ele>267.38</ele>
        <time>2021-04-25T08:55:59Z</time>
      </trkpt>
      <trkpt lat="45.32522" lon="5.52081">
        <ele>258.73</ele>
        <time>2021-04-25T08:56:09Z</time>
      </trkpt>
      <trkpt lat="45.32493" lon="5.52086">
        <ele>252.48</ele>
        <time>2021-04-25T08:56:19Z</time>
      </trkpt>
      <trkpt lat="45.32484" lon="5.5207">
        <ele>250.56</ele>
        <time>2021-04-25T08:56:29Z</time>
      </trkpt>
      <trkpt lat="45.32466" lon="5.52025">
        <ele>245.75</ele>
        <time>2021-04-25T08:56:39Z</time>
      </trkpt>
      <trkpt lat="45.32443" lon="5.51988">
        <ele>245.27</ele>
        <time>2021-04-25T08:56:49Z</time>
      </trkpt>
      <trkpt lat="45.32412" lon="5.51987">
        <ele>241.91</ele>
        <time>2021-04-25T08:56:59Z</time>
      </trkpt>
      <trkpt lat="45.32361" lon="5.5197">
        <ele>234.22</ele>
        <time>2021-04-25T08:57:09Z</time>
      </trkpt>
      <trkpt lat="45.32326" lon="5.51903">
        <ele>227.49</ele>
        <time>2021-04-25T08:57:19Z</time>
      </trkpt>
      <trkpt lat="45.32286" lon="5.51843">
        <ele>225.09</ele>
        <time>2021-04-25T08:57:29Z</time>
      </trkpt>
      <trkpt lat="45.32224" lon="5.51867">
        <ele>222.2</ele>
        <time>2021-04-25T08:57:39Z</time>
      </trkpt>
      <trkpt lat="45.32187" lon="5.51922">
        <ele>218.84</ele>
        <time>2021-04-25T08:57:49Z</time>
      </trkpt>
      <trkpt lat="45.32209" lon="5.51956">
        <ele>215.95</ele>
        <time>2021-04-25T08:57:59Z</time>
      </trkpt>
      <trkpt lat="45.32255" lon="5.51991">
        <ele>215.95</ele>
        <time>2021-04-25T08:58:09Z</time>
      </trkpt>
      <trkpt lat="45.32282" lon="5.52006">
        <ele>217.4</ele>
        <time>2021-04-25T08:58:19Z</time>
      </trkpt>
      <trkpt lat="45.32304" lon="5.52016">
        <ele>219.8</ele>
        <time>2021-04-25T08:58:29Z</time>
      </trkpt>
      <trkpt lat="45.32321" lon="5.52028">
        <ele>221.72</ele>
        <time>2021-04-25T08:58:39Z</time>
      </trkpt>
      <trkpt lat="45.32338" lon="5.52047">
        <ele>222.2</ele>
        <time>2021-04-25T08:58:49Z</time>
      </trkpt>
      <trkpt lat="45.32354" lon="5.52074">
        <ele>222.68</ele>
        <time>2021-04-25T08:58:59Z</time>
      </trkpt>
      <trkpt lat="45.3237" lon="5.52112">
        <ele>222.2</ele>
        <time>2021-04-25T08:59:09Z</time>
      </trkpt>
      <trkpt lat="45.3239" lon="5.52181">
        <ele>218.84</ele>
        <time>2021-04-25T08:59:19Z</time>
      </trkpt>
      <trkpt lat="45.32415" lon="5.52234">
        <ele>219.32</ele>
        <time>2021-04-25T08:59:29Z</time>
      </trkpt>
      <trkpt lat="45.32428" lon="5.52284">
        <ele>220.28</ele>
        <time>2021-04-25T08:59:39Z</time>
      </trkpt>
      <trkpt lat="45.3244" lon="5.52328">
        <ele>221.24</ele>
        <time>2021-04-25T08:59:49Z</time>
      </trkpt>
      <trkpt lat="45.32452" lon="5.52367">
        <ele>222.68</ele>
        <time>2021-04-25T08:59:59Z</time>
      </trkpt>
      <trkpt lat="45.32457" lon="5.52405">
        <ele>223.64</ele>
        <time>2021-04-25T09:00:09Z</time>
      </trkpt>
      <trkpt lat="45.32465" lon="5.52442">
        <ele>225.57</ele>
        <time>2021-04-25T09:00:19Z</time>
      </trkpt>
      <trkpt lat="45.3248" lon="5.52476">
        <ele>226.05</ele>
        <time>2021-04-25T09:00:29Z</time>
      </trkpt>
      <trkpt lat="45.32492" lon="5.52508">
        <ele>227.97</ele>
        <time>2021-04-25T09:00:39Z</time>
      </trkpt>
      <trkpt lat="45.32505" lon="5.52532">
        <ele>229.89</ele>
        <time>2021-04-25T09:00:49Z</time>
      </trkpt>
      <trkpt lat="45.32517" lon="5.52558">
        <ele>230.85</ele>
        <time>2021-04-25T09:00:59Z</time>
      </trkpt>
      <trkpt lat="45.32522" lon="5.5259">
        <ele>231.81</ele>
        <time>2021-04-25T09:01:09Z</time>
      </trkpt>
      <trkpt lat="45.32536" lon="5.52616">
        <ele>232.78</ele>
        <time>2021-04-25T09:01:19Z</time>
      </trkpt>
      <trkpt lat="45.32557" lon="5.52632">
        <ele>233.26</ele>
        <time>2021-04-25T09:01:29Z</time>
      </trkpt>
      <trkpt lat="45.32577" lon="5.52629">
        <ele>234.22</ele>
        <time>2021-04-25T09:01:39Z</time>
      </trkpt>
      <trkpt lat="45.32595" lon="5.52627">
        <ele>236.14</ele>
        <time>2021-04-25T09:01:49Z</time>
      </trkpt>
      <trkpt lat="45.32617" lon="5.52633">
        <ele>238.06</ele>
        <time>2021-04-25T09:01:59Z</time>
      </trkpt>
      <trkpt lat="45.32633" lon="5.52636">
        <ele>239.02</ele>
        <time>2021-04-25T09:02:09Z</time>
      </trkpt>
      <trkpt lat="45.3265" lon="5.52645">
        <ele>239.99</ele>
        <time>2021-04-25T09:02:19Z</time>
      </trkpt>
      <trkpt lat="45.32662" lon="5.52655">
        <ele>240.95</ele>
        <time>2021-04-25T09:02:29Z</time>
      </trkpt>
      <trkpt lat="45.32669" lon="5.52664">
        <ele>241.91</ele>
        <time>2021-04-25T09:02:39Z</time>
      </trkpt>
      <trkpt lat="45.32677" lon="5.52672">
        <ele>242.39</ele>
        <time>2021-04-25T09:02:49Z</time>
      </trkpt>
      <trkpt lat="45.32692" lon="5.52691">
        <ele>242.87</ele>
        <time>2021-04-25T09:02:59Z</time>
      </trkpt>
      <trkpt lat="45.32707" lon="5.52707">
        <ele>243.35</ele>
        <time>2021-04-25T09:03:09Z</time>
      </trkpt>
      <trkpt lat="45.32726" lon="5.52723">
        <ele>243.83</ele>
        <time>2021-04-25T09:03:19Z</time>
      </trkpt>
      <trkpt lat="45.32745" lon="5.5272">
        <ele>244.79</ele>
        <time>2021-04-25T09:03:29Z</time>
      </trkpt>
      <trkpt lat="45.32765" lon="5.5272">
        <ele>245.27</ele>
        <time>2021-04-25T09:03:39Z</time>
      </trkpt>
      <trkpt lat="45.32784" lon="5.52721">
        <ele>247.2</ele>
        <time>2021-04-25T09:03:49Z</time>
      </trkpt>
      <trkpt lat="45.32799" lon="5.52717">
        <ele>248.64</ele>
        <time>2021-04-25T09:03:59Z</time>
      </trkpt>
      <trkpt lat="45.32816" lon="5.52708">
        <ele>249.6</ele>
        <time>2021-04-25T09:04:09Z</time>
      </trkpt>
      <trkpt lat="45.32839" lon="5.52706">
        <ele>249.6</ele>
        <time>2021-04-25T09:04:19Z</time>
      </trkpt>
      <trkpt lat="45.3287" lon="5.52721">
        <ele>248.64</ele>
        <time>2021-04-25T09:04:29Z</time>
      </trkpt>
      <trkpt lat="45.32896" lon="5.52747">
        <ele>249.6</ele>
        <time>2021-04-25T09:04:39Z</time>
      </trkpt>
      <trkpt lat="45.32918" lon="5.52761">
        <ele>250.56</ele>
        <time>2021-04-25T09:04:49Z</time>
      </trkpt>
      <trkpt lat="45.32941" lon="5.52782">
        <ele>251.52</ele>
        <time>2021-04-25T09:04:59Z</time>
      </trkpt>
      <trkpt lat="45.32961" lon="5.52809">
        <ele>252.48</ele>
        <time>2021-04-25T09:05:09Z</time>
      </trkpt>
      <trkpt lat="45.32982" lon="5.52839">
        <ele>253.44</ele>
        <time>2021-04-25T09:05:19Z</time>
      </trkpt>
      <trkpt lat="45.33006" lon="5.52865">
        <ele>253.93</ele>
        <time>2021-04-25T09:05:29Z</time>
      </trkpt>
      <trkpt lat="45.33029" lon="5.52888">
        <ele>255.37</ele>
        <time>2021-04-25T09:05:39Z</time>
      </trkpt>
      <trkpt lat="45.33054" lon="5.52907">
        <ele>255.85</ele>
        <time>2021-04-25T09:05:49Z</time>
      </trkpt>
      <trkpt lat="45.33079" lon="5.52936">
        <ele>256.81</ele>
        <time>2021-04-25T09:05:59Z</time>
      </trkpt>
      <trkpt lat="45.33093" lon="5.52959">
        <ele>257.29</ele>
        <time>2021-04-25T09:06:09Z</time>
      </trkpt>
      <trkpt lat="45.33113" lon="5.5298">
        <ele>258.25</ele>
        <time>2021-04-25T09:06:19Z</time>
      </trkpt>
      <trkpt lat="45.33134" lon="5.52994">
        <ele>259.69</ele>
        <time>2021-04-25T09:06:29Z</time>
      </trkpt>
      <trkpt lat="45.3315" lon="5.53">
        <ele>260.17</ele>
        <time>2021-04-25T09:06:39Z</time>
      </trkpt>
      <trkpt lat="45.33178" lon="5.53017">
        <ele>261.62</ele>
        <time>2021-04-25T09:06:49Z</time>
      </trkpt>
      <trkpt lat="45.33205" lon="5.53024">
        <ele>262.58</ele>
        <time>2021-04-25T09:06:59Z</time>
      </trkpt>
      <trkpt lat="45.33227" lon="5.5301">
        <ele>263.06</ele>
        <time>2021-04-25T09:07:09Z</time>
      </trkpt>
      <trkpt lat="45.33247" lon="5.52988">
        <ele>264.5</ele>
        <time>2021-04-25T09:07:19Z</time>
      </trkpt>
      <trkpt lat="45.33261" lon="5.52975">
        <ele>265.94</ele>
        <time>2021-04-25T09:07:29Z</time>
      </trkpt>
      <trkpt lat="45.33277" lon="5.52972">
        <ele>267.38</ele>
        <time>2021-04-25T09:07:39Z</time>
      </trkpt>
      <trkpt lat="45.33298" lon="5.52968">
        <ele>268.83</ele>
        <time>2021-04-25T09:07:49Z</time>
      </trkpt>
      <trkpt lat="45.33316" lon="5.52963">
        <ele>269.31</ele>
        <time>2021-04-25T09:07:59Z</time>
      </trkpt>
      <trkpt lat="45.3334" lon="5.52963">
        <ele>269.79</ele>
        <time>2021-04-25T09:08:09Z</time>
      </trkpt>
      <trkpt lat="45.33365" lon="5.52977">
        <ele>269.79</ele>
        <time>2021-04-25T09:08:19Z</time>
      </trkpt>
      <trkpt lat="45.33385" lon="5.52994">
        <ele>270.75</ele>
        <time>2021-04-25T09:08:29Z</time>
      </trkpt>
      <trkpt lat="45.33404" lon="5.53016">
        <ele>271.23</ele>
        <time>2021-04-25T09:08:39Z</time>
      </trkpt>
      <trkpt lat="45.33421" lon="5.5303">
        <ele>272.19</ele>
        <time>2021-04-25T09:08:49Z</time>
      </trkpt>
      <trkpt lat="45.33441" lon="5.53041">
        <ele>273.63</ele>
        <time>2021-04-25T09:08:59Z</time>
      </trkpt>
      <trkpt lat="45.33459" lon="5.53056">
        <ele>274.11</ele>
        <time>2021-04-25T09:09:09Z</time>
      </trkpt>
      <trkpt lat="45.3348" lon="5.53073">
        <ele>275.56</ele>
        <time>2021-04-25T09:09:19Z</time>
      </trkpt>
      <trkpt lat="45.33505" lon="5.53075">
        <ele>277</ele>
        <time>2021-04-25T09:09:29Z</time>
      </trkpt>
      <trkpt lat="45.33526" lon="5.53082">
        <ele>277.96</ele>
        <time>2021-04-25T09:09:39Z</time>
      </trkpt>
      <trkpt lat="45.33547" lon="5.53106">
        <ele>278.44</ele>
        <time>2021-04-25T09:09:49Z</time>
      </trkpt>
      <trkpt lat="45.33569" lon="5.53128">
        <ele>279.4</ele>
        <time>2021-04-25T09:09:59Z</time>
      </trkpt>
      <trkpt lat="45.33591" lon="5.5314">
        <ele>280.36</ele>
        <time>2021-04-25T09:10:09Z</time>
      </trkpt>
      <trkpt lat="45.33611" lon="5.53151">
        <ele>281.32</ele>
        <time>2021-04-25T09:10:19Z</time>
      </trkpt>
      <trkpt lat="45.33625" lon="5.53167">
        <ele>282.28</ele>
        <time>2021-04-25T09:10:29Z</time>
      </trkpt>
      <trkpt lat="45.33651" lon="5.53186">
        <ele>283.73</ele>
        <time>2021-04-25T09:10:39Z</time>
      </trkpt>
      <trkpt lat="45.33658" lon="5.53208">
        <ele>283.73</ele>
        <time>2021-04-25T09:10:49Z</time>
      </trkpt>
      <trkpt lat="45.33654" lon="5.53235">
        <ele>284.69</ele>
        <time>2021-04-25T09:10:59Z</time>
      </trkpt>
      <trkpt lat="45.33654" lon="5.53261">
        <ele>285.65</ele>
        <time>2021-04-25T09:11:09Z</time>
      </trkpt>
      <trkpt lat="45.33664" lon="5.53299">
        <ele>286.61</ele>
        <time>2021-04-25T09:11:19Z</time>
      </trkpt>
      <trkpt lat="45.33679" lon="5.53341">
        <ele>287.57</ele>
        <time>2021-04-25T09:11:29Z</time>
      </trkpt>
      <trkpt lat="45.33686" lon="5.53366">
        <ele>289.49</ele>
        <time>2021-04-25T09:11:39Z</time>
      </trkpt>
      <trkpt lat="45.33689" lon="5.53401">
        <ele>289.97</ele>
        <time>2021-04-25T09:11:49Z</time>
      </trkpt>
      <trkpt lat="45.33692" lon="5.53443">
        <ele>290.46</ele>
        <time>2021-04-25T09:11:59Z</time>
      </trkpt>
      <trkpt lat="45.33695" lon="5.53499">
        <ele>290.94</ele>
        <time>2021-04-25T09:12:09Z</time>
      </trkpt>
      <trkpt lat="45.33689" lon="5.53537">
        <ele>291.9</ele>
        <time>2021-04-25T09:12:19Z</time>
      </trkpt>
      <trkpt lat="45.33684" lon="5.5357">
        <ele>292.86</ele>
        <time>2021-04-25T09:12:29Z</time>
      </trkpt>
      <trkpt lat="45.33676" lon="5.53602">
        <ele>293.34</ele>
        <time>2021-04-25T09:12:39Z</time>
      </trkpt>
      <trkpt lat="45.3367" lon="5.53641">
        <ele>293.82</ele>
        <time>2021-04-25T09:12:49Z</time>
      </trkpt>
      <trkpt lat="45.3368" lon="5.53676">
        <ele>294.78</ele>
        <time>2021-04-25T09:12:59Z</time>
      </trkpt>
      <trkpt lat="45.33692" lon="5.53712">
        <ele>295.74</ele>
        <time>2021-04-25T09:13:09Z</time>
      </trkpt>
      <trkpt lat="45.33697" lon="5.53749">
        <ele>296.22</ele>
        <time>2021-04-25T09:13:19Z</time>
      </trkpt>
      <trkpt lat="45.33705" lon="5.53785">
        <ele>297.18</ele>
        <time>2021-04-25T09:13:29Z</time>
      </trkpt>
      <trkpt lat="45.33731" lon="5.53779">
        <ele>298.15</ele>
        <time>2021-04-25T09:13:39Z</time>
      </trkpt>
      <trkpt lat="45.33753" lon="5.53768">
        <ele>299.59</ele>
        <time>2021-04-25T09:13:49Z</time>
      </trkpt>
      <trkpt lat="45.33772" lon="5.53753">
        <ele>301.03</ele>
        <time>2021-04-25T09:13:59Z</time>
      </trkpt>
      <trkpt lat="45.33791" lon="5.53726">
        <ele>301.99</ele>
        <time>2021-04-25T09:14:09Z</time>
      </trkpt>
      <trkpt lat="45.33806" lon="5.53708">
        <ele>303.91</ele>
        <time>2021-04-25T09:14:19Z</time>
      </trkpt>
      <trkpt lat="45.33814" lon="5.53727">
        <ele>305.84</ele>
        <time>2021-04-25T09:14:29Z</time>
      </trkpt>
      <trkpt lat="45.338" lon="5.5376">
        <ele>304.39</ele>
        <time>2021-04-25T09:14:39Z</time>
      </trkpt>
      <trkpt lat="45.33771" lon="5.53798">
        <ele>303.43</ele>
        <time>2021-04-25T09:14:49Z</time>
      </trkpt>
      <trkpt lat="45.3374" lon="5.53823">
        <ele>303.91</ele>
        <time>2021-04-25T09:14:59Z</time>
      </trkpt>
      <trkpt lat="45.33711" lon="5.53832">
        <ele>303.91</ele>
        <time>2021-04-25T09:15:09Z</time>
      </trkpt>
      <trkpt lat="45.33679" lon="5.5383">
        <ele>304.39</ele>
        <time>2021-04-25T09:15:19Z</time>
      </trkpt>
      <trkpt lat="45.33658" lon="5.5384">
        <ele>304.39</ele>
        <time>2021-04-25T09:15:29Z</time>
      </trkpt>
      <trkpt lat="45.33673" lon="5.53881">
        <ele>302.95</ele>
        <time>2021-04-25T09:15:39Z</time>
      </trkpt>
      <trkpt lat="45.33688" lon="5.53906">
        <ele>302.47</ele>
        <time>2021-04-25T09:15:49Z</time>
      </trkpt>
      <trkpt lat="45.33702" lon="5.53929">
        <ele>302.47</ele>
        <time>2021-04-25T09:15:59Z</time>
      </trkpt>
      <trkpt lat="45.3372" lon="5.53929">
        <ele>301.99</ele>
        <time>2021-04-25T09:16:09Z</time>
      </trkpt>
      <trkpt lat="45.33741" lon="5.53919">
        <ele>301.99</ele>
        <time>2021-04-25T09:16:19Z</time>
      </trkpt>
      <trkpt lat="45.33766" lon="5.53943">
        <ele>302.47</ele>
        <time>2021-04-25T09:16:29Z</time>
      </trkpt>
      <trkpt lat="45.33787" lon="5.53965">
        <ele>302.95</ele>
        <time>2021-04-25T09:16:39Z</time>
      </trkpt>
      <trkpt lat="45.33805" lon="5.53983">
        <ele>303.91</ele>
        <time>2021-04-25T09:16:49Z</time>
      </trkpt>
      <trkpt lat="45.33814" lon="5.54004">
        <ele>305.36</ele>
        <time>2021-04-25T09:16:59Z</time>
      </trkpt>
      <trkpt lat="45.33811" lon="5.54028">
        <ele>306.8</ele>
        <time>2021-04-25T09:17:09Z</time>
      </trkpt>
      <trkpt lat="45.33818" lon="5.54055">
        <ele>307.76</ele>
        <time>2021-04-25T09:17:19Z</time>
      </trkpt>
      <trkpt lat="45.3383" lon="5.54074">
        <ele>308.72</ele>
        <time>2021-04-25T09:17:29Z</time>
      </trkpt>
      <trkpt lat="45.33844" lon="5.54094">
        <ele>309.68</ele>
        <time>2021-04-25T09:17:39Z</time>
      </trkpt>
      <trkpt lat="45.33853" lon="5.54113">
        <ele>311.12</ele>
        <time>2021-04-25T09:17:49Z</time>
      </trkpt>
      <trkpt lat="45.33868" lon="5.54131">
        <ele>312.57</ele>
        <time>2021-04-25T09:17:59Z</time>
      </trkpt>
      <trkpt lat="45.33875" lon="5.54133">
        <ele>312.57</ele>
        <time>2021-04-25T09:18:09Z</time>
      </trkpt>
      <trkpt lat="45.33875" lon="5.54133">
        <ele>312.57</ele>
        <time>2021-04-25T09:18:19Z</time>
      </trkpt>
      <trkpt lat="45.33876" lon="5.54134">
        <ele>312.57</ele>
        <time>2021-04-25T09:18:29Z</time>
      </trkpt>
      <trkpt lat="45.33864" lon="5.54152">
        <ele>313.05</ele>
        <time>2021-04-25T09:18:39Z</time>
      </trkpt>
      <trkpt lat="45.33847" lon="5.54167">
        <ele>313.53</ele>
        <time>2021-04-25T09:18:49Z</time>
      </trkpt>
      <trkpt lat="45.33835" lon="5.54185">
        <ele>314.01</ele>
        <time>2021-04-25T09:18:59Z</time>
      </trkpt>
      <trkpt lat="45.3382" lon="5.54202">
        <ele>314.97</ele>
        <time>2021-04-25T09:19:09Z</time>
      </trkpt>
      <trkpt lat="45.33806" lon="5.54225">
        <ele>315.45</ele>
        <time>2021-04-25T09:19:19Z</time>
      </trkpt>
      <trkpt lat="45.33794" lon="5.54243">
        <ele>315.93</ele>
        <time>2021-04-25T09:19:29Z</time>
      </trkpt>
      <trkpt lat="45.33782" lon="5.54261">
        <ele>315.93</ele>
        <time>2021-04-25T09:19:39Z</time>
      </trkpt>
      <trkpt lat="45.33801" lon="5.5429">
        <ele>315.45</ele>
        <time>2021-04-25T09:19:49Z</time>
      </trkpt>
      <trkpt lat="45.3382" lon="5.54312">
        <ele>315.45</ele>
        <time>2021-04-25T09:19:59Z</time>
      </trkpt>
      <trkpt lat="45.33823" lon="5.54351">
        <ele>315.93</ele>
        <time>2021-04-25T09:20:09Z</time>
      </trkpt>
      <trkpt lat="45.33828" lon="5.54388">
        <ele>317.37</ele>
        <time>2021-04-25T09:20:19Z</time>
      </trkpt>
      <trkpt lat="45.33837" lon="5.54423">
        <ele>318.33</ele>
        <time>2021-04-25T09:20:29Z</time>
      </trkpt>
      <trkpt lat="45.33857" lon="5.54437">
        <ele>320.26</ele>
        <time>2021-04-25T09:20:39Z</time>
      </trkpt>
      <trkpt lat="45.33877" lon="5.54425">
        <ele>321.7</ele>
        <time>2021-04-25T09:20:49Z</time>
      </trkpt>
      <trkpt lat="45.33888" lon="5.54408">
        <ele>323.62</ele>
        <time>2021-04-25T09:20:59Z</time>
      </trkpt>
      <trkpt lat="45.33902" lon="5.5439">
        <ele>325.54</ele>
        <time>2021-04-25T09:21:09Z</time>
      </trkpt>
      <trkpt lat="45.33915" lon="5.54376">
        <ele>326.5</ele>
        <time>2021-04-25T09:21:19Z</time>
      </trkpt>
      <trkpt lat="45.33928" lon="5.54362">
        <ele>326.99</ele>
        <time>2021-04-25T09:21:29Z</time>
      </trkpt>
      <trkpt lat="45.3395" lon="5.54333">
        <ele>325.54</ele>
        <time>2021-04-25T09:21:39Z</time>
      </trkpt>
      <trkpt lat="45.33974" lon="5.54299">
        <ele>325.54</ele>
        <time>2021-04-25T09:21:49Z</time>
      </trkpt>
      <trkpt lat="45.33992" lon="5.5428">
        <ele>326.99</ele>
        <time>2021-04-25T09:21:59Z</time>
      </trkpt>
      <trkpt lat="45.34008" lon="5.5427">
        <ele>326.99</ele>
        <time>2021-04-25T09:22:09Z</time>
      </trkpt>
      <trkpt lat="45.34035" lon="5.54244">
        <ele>322.66</ele>
        <time>2021-04-25T09:22:19Z</time>
      </trkpt>
      <trkpt lat="45.34079" lon="5.54186">
        <ele>316.89</ele>
        <time>2021-04-25T09:22:29Z</time>
      </trkpt>
      <trkpt lat="45.34133" lon="5.54165">
        <ele>311.12</ele>
        <time>2021-04-25T09:22:39Z</time>
      </trkpt>
      <trkpt lat="45.34143" lon="5.54199">
        <ele>310.64</ele>
        <time>2021-04-25T09:22:49Z</time>
      </trkpt>
      <trkpt lat="45.34148" lon="5.54234">
        <ele>311.6</ele>
        <time>2021-04-25T09:22:59Z</time>
      </trkpt>
      <trkpt lat="45.34158" lon="5.54264">
        <ele>313.05</ele>
        <time>2021-04-25T09:23:09Z</time>
      </trkpt>
      <trkpt lat="45.34186" lon="5.54297">
        <ele>310.64</ele>
        <time>2021-04-25T09:23:19Z</time>
      </trkpt>
      <trkpt lat="45.34212" lon="5.54321">
        <ele>310.16</ele>
        <time>2021-04-25T09:23:29Z</time>
      </trkpt>
      <trkpt lat="45.34228" lon="5.54351">
        <ele>310.64</ele>
        <time>2021-04-25T09:23:39Z</time>
      </trkpt>
      <trkpt lat="45.34238" lon="5.5438">
        <ele>311.6</ele>
        <time>2021-04-25T09:23:49Z</time>
      </trkpt>
      <trkpt lat="45.34249" lon="5.54407">
        <ele>312.57</ele>
        <time>2021-04-25T09:23:59Z</time>
      </trkpt>
      <trkpt lat="45.34261" lon="5.54436">
        <ele>312.57</ele>
        <time>2021-04-25T09:24:09Z</time>
      </trkpt>
      <trkpt lat="45.34265" lon="5.54441">
        <ele>313.53</ele>
        <time>2021-04-25T09:24:19Z</time>
      </trkpt>
      <trkpt lat="45.34271" lon="5.54455">
        <ele>315.45</ele>
        <time>2021-04-25T09:24:29Z</time>
      </trkpt>
      <trkpt lat="45.34283" lon="5.54473">
        <ele>315.45</ele>
        <time>2021-04-25T09:24:39Z</time>
      </trkpt>
      <trkpt lat="45.34297" lon="5.5451">
        <ele>316.41</ele>
        <time>2021-04-25T09:24:49Z</time>
      </trkpt>
      <trkpt lat="45.34311" lon="5.54548">
        <ele>314.97</ele>
        <time>2021-04-25T09:24:59Z</time>
      </trkpt>
      <trkpt lat="45.34334" lon="5.54579">
        <ele>314.97</ele>
        <time>2021-04-25T09:25:09Z</time>
      </trkpt>
      <trkpt lat="45.34347" lon="5.54601">
        <ele>317.85</ele>
        <time>2021-04-25T09:25:19Z</time>
      </trkpt>
      <trkpt lat="45.3436" lon="5.54615">
        <ele>317.37</ele>
        <time>2021-04-25T09:25:29Z</time>
      </trkpt>
      <trkpt lat="45.34369" lon="5.54628">
        <ele>318.33</ele>
        <time>2021-04-25T09:25:39Z</time>
      </trkpt>
      <trkpt lat="45.34381" lon="5.54645">
        <ele>317.85</ele>
        <time>2021-04-25T09:25:49Z</time>
      </trkpt>
      <trkpt lat="45.34387" lon="5.54654">
        <ele>318.33</ele>
        <time>2021-04-25T09:25:59Z</time>
      </trkpt>
      <trkpt lat="45.34387" lon="5.54654">
        <ele>318.33</ele>
        <time>2021-04-25T09:26:09Z</time>
      </trkpt>
      <trkpt lat="45.34387" lon="5.54658">
        <ele>318.33</ele>
        <time>2021-04-25T09:26:19Z</time>
      </trkpt>
      <trkpt lat="45.34387" lon="5.54661">
        <ele>318.33</ele>
        <time>2021-04-25T09:26:29Z</time>
      </trkpt>
      <trkpt lat="45.34387" lon="5.54661">
        <ele>318.33</ele>
        <time>2021-04-25T09:26:39Z</time>
      </trkpt>
      <trkpt lat="45.34387" lon="5.54661">
        <ele>318.33</ele>
        <time>2021-04-25T09:26:49Z</time>
      </trkpt>
      <trkpt lat="45.34404" lon="5.54673">
        <ele>317.37</ele>
        <time>2021-04-25T09:26:59Z</time>
      </trkpt>
      <trkpt lat="45.34426" lon="5.54682">
        <ele>317.85</ele>
        <time>2021-04-25T09:27:09Z</time>
      </trkpt>
      <trkpt lat="45.34452" lon="5.54695">
        <ele>318.33</ele>
        <time>2021-04-25T09:27:19Z</time>
      </trkpt>
      <trkpt lat="45.34481" lon="5.54717">
        <ele>317.85</ele>
        <time>2021-04-25T09:27:29Z</time>
      </trkpt>
      <trkpt lat="45.34504" lon="5.54746">
        <ele>318.33</ele>
        <time>2021-04-25T09:27:39Z</time>
      </trkpt>
      <trkpt lat="45.34514" lon="5.54767">
        <ele>319.3</ele>
        <time>2021-04-25T09:27:49Z</time>
      </trkpt>
      <trkpt lat="45.34524" lon="5.5478">
        <ele>320.26</ele>
        <time>2021-04-25T09:27:59Z</time>
      </trkpt>
      <trkpt lat="45.34544" lon="5.54762">
        <ele>319.78</ele>
        <time>2021-04-25T09:28:09Z</time>
      </trkpt>
      <trkpt lat="45.34549" lon="5.54749">
        <ele>321.22</ele>
        <time>2021-04-25T09:28:19Z</time>
      </trkpt>
      <trkpt lat="45.34577" lon="5.54724">
        <ele>322.66</ele>
        <time>2021-04-25T09:28:29Z</time>
      </trkpt>
      <trkpt lat="45.3459" lon="5.54714">
        <ele>324.58</ele>
        <time>2021-04-25T09:28:39Z</time>
      </trkpt>
      <trkpt lat="45.34603" lon="5.54705">
        <ele>326.5</ele>
        <time>2021-04-25T09:28:49Z</time>
      </trkpt>
      <trkpt lat="45.34605" lon="5.54699">
        <ele>326.99</ele>
        <time>2021-04-25T09:28:59Z</time>
      </trkpt>
      <trkpt lat="45.34607" lon="5.54698">
        <ele>327.47</ele>
        <time>2021-04-25T09:29:09Z</time>
      </trkpt>
      <trkpt lat="45.34611" lon="5.5469">
        <ele>328.91</ele>
        <time>2021-04-25T09:29:19Z</time>
      </trkpt>
      <trkpt lat="45.34618" lon="5.54683">
        <ele>330.83</ele>
        <time>2021-04-25T09:29:29Z</time>
      </trkpt>
      <trkpt lat="45.34623" lon="5.54679">
        <ele>332.27</ele>
        <time>2021-04-25T09:29:39Z</time>
      </trkpt>
      <trkpt lat="45.34628" lon="5.54682">
        <ele>333.71</ele>
        <time>2021-04-25T09:29:49Z</time>
      </trkpt>
      <trkpt lat="45.34632" lon="5.54693">
        <ele>335.64</ele>
        <time>2021-04-25T09:29:59Z</time>
      </trkpt>
      <trkpt lat="45.34632" lon="5.54698">
        <ele>337.08</ele>
        <time>2021-04-25T09:30:09Z</time>
      </trkpt>
      <trkpt lat="45.34634" lon="5.54708">
        <ele>338.52</ele>
        <time>2021-04-25T09:30:19Z</time>
      </trkpt>
      <trkpt lat="45.34638" lon="5.54715">
        <ele>339.96</ele>
        <time>2021-04-25T09:30:29Z</time>
      </trkpt>
      <trkpt lat="45.34644" lon="5.54723">
        <ele>341.89</ele>
        <time>2021-04-25T09:30:39Z</time>
      </trkpt>
      <trkpt lat="45.34648" lon="5.54729">
        <ele>343.81</ele>
        <time>2021-04-25T09:30:49Z</time>
      </trkpt>
      <trkpt lat="45.34652" lon="5.54724">
        <ele>345.25</ele>
        <time>2021-04-25T09:30:59Z</time>
      </trkpt>
      <trkpt lat="45.34657" lon="5.54711">
        <ele>346.69</ele>
        <time>2021-04-25T09:31:09Z</time>
      </trkpt>
      <trkpt lat="45.34659" lon="5.54705">
        <ele>347.17</ele>
        <time>2021-04-25T09:31:19Z</time>
      </trkpt>
      <trkpt lat="45.34665" lon="5.54691">
        <ele>348.62</ele>
        <time>2021-04-25T09:31:29Z</time>
      </trkpt>
      <trkpt lat="45.34672" lon="5.54671">
        <ele>350.06</ele>
        <time>2021-04-25T09:31:39Z</time>
      </trkpt>
      <trkpt lat="45.34679" lon="5.54646">
        <ele>350.54</ele>
        <time>2021-04-25T09:31:49Z</time>
      </trkpt>
      <trkpt lat="45.34689" lon="5.54623">
        <ele>351.5</ele>
        <time>2021-04-25T09:31:59Z</time>
      </trkpt>
      <trkpt lat="45.34702" lon="5.54595">
        <ele>351.5</ele>
        <time>2021-04-25T09:32:09Z</time>
      </trkpt>
      <trkpt lat="45.34716" lon="5.5456">
        <ele>351.98</ele>
        <time>2021-04-25T09:32:19Z</time>
      </trkpt>
      <trkpt lat="45.3473" lon="5.54525">
        <ele>351.98</ele>
        <time>2021-04-25T09:32:29Z</time>
      </trkpt>
      <trkpt lat="45.34742" lon="5.54489">
        <ele>352.94</ele>
        <time>2021-04-25T09:32:39Z</time>
      </trkpt>
      <trkpt lat="45.3475" lon="5.54464">
        <ele>354.38</ele>
        <time>2021-04-25T09:32:49Z</time>
      </trkpt>
      <trkpt lat="45.34753" lon="5.54453">
        <ele>354.38</ele>
        <time>2021-04-25T09:32:59Z</time>
      </trkpt>
      <trkpt lat="45.34754" lon="5.5445">
        <ele>354.38</ele>
        <time>2021-04-25T09:33:09Z</time>
      </trkpt>
      <trkpt lat="45.34765" lon="5.54427">
        <ele>355.34</ele>
        <time>2021-04-25T09:33:19Z</time>
      </trkpt>
      <trkpt lat="45.34781" lon="5.544">
        <ele>355.34</ele>
        <time>2021-04-25T09:33:29Z</time>
      </trkpt>
      <trkpt lat="45.34798" lon="5.54374">
        <ele>355.34</ele>
        <time>2021-04-25T09:33:39Z</time>
      </trkpt>
      <trkpt lat="45.34817" lon="5.54348">
        <ele>356.31</ele>
        <time>2021-04-25T09:33:49Z</time>
      </trkpt>
      <trkpt lat="45.34838" lon="5.54326">
        <ele>357.27</ele>
        <time>2021-04-25T09:33:59Z</time>
      </trkpt>
      <trkpt lat="45.34853" lon="5.54309">
        <ele>358.71</ele>
        <time>2021-04-25T09:34:09Z</time>
      </trkpt>
      <trkpt lat="45.34872" lon="5.54292">
        <ele>360.15</ele>
        <time>2021-04-25T09:34:19Z</time>
      </trkpt>
      <trkpt lat="45.34891" lon="5.54271">
        <ele>361.59</ele>
        <time>2021-04-25T09:34:29Z</time>
      </trkpt>
      <trkpt lat="45.34909" lon="5.54253">
        <ele>363.52</ele>
        <time>2021-04-25T09:34:39Z</time>
      </trkpt>
      <trkpt lat="45.34925" lon="5.54235">
        <ele>364.96</ele>
        <time>2021-04-25T09:34:49Z</time>
      </trkpt>
      <trkpt lat="45.34939" lon="5.5422">
        <ele>366.4</ele>
        <time>2021-04-25T09:34:59Z</time>
      </trkpt>
      <trkpt lat="45.34954" lon="5.54206">
        <ele>368.32</ele>
        <time>2021-04-25T09:35:09Z</time>
      </trkpt>
      <trkpt lat="45.34968" lon="5.54192">
        <ele>369.76</ele>
        <time>2021-04-25T09:35:19Z</time>
      </trkpt>
      <trkpt lat="45.34981" lon="5.54182">
        <ele>370.73</ele>
        <time>2021-04-25T09:35:29Z</time>
      </trkpt>
      <trkpt lat="45.34995" lon="5.54165">
        <ele>371.21</ele>
        <time>2021-04-25T09:35:39Z</time>
      </trkpt>
      <trkpt lat="45.35012" lon="5.54145">
        <ele>372.17</ele>
        <time>2021-04-25T09:35:49Z</time>
      </trkpt>
      <trkpt lat="45.35027" lon="5.54124">
        <ele>372.65</ele>
        <time>2021-04-25T09:35:59Z</time>
      </trkpt>
      <trkpt lat="45.35041" lon="5.54103">
        <ele>373.13</ele>
        <time>2021-04-25T09:36:09Z</time>
      </trkpt>
      <trkpt lat="45.35051" lon="5.5408">
        <ele>373.61</ele>
        <time>2021-04-25T09:36:19Z</time>
      </trkpt>
      <trkpt lat="45.35064" lon="5.54051">
        <ele>374.57</ele>
        <time>2021-04-25T09:36:29Z</time>
      </trkpt>
      <trkpt lat="45.35079" lon="5.5403">
        <ele>376.97</ele>
        <time>2021-04-25T09:36:39Z</time>
      </trkpt>
      <trkpt lat="45.35094" lon="5.54021">
        <ele>378.42</ele>
        <time>2021-04-25T09:36:49Z</time>
      </trkpt>
      <trkpt lat="45.35106" lon="5.54005">
        <ele>380.34</ele>
        <time>2021-04-25T09:36:59Z</time>
      </trkpt>
      <trkpt lat="45.35116" lon="5.53982">
        <ele>380.82</ele>
        <time>2021-04-25T09:37:09Z</time>
      </trkpt>
      <trkpt lat="45.35129" lon="5.53953">
        <ele>380.82</ele>
        <time>2021-04-25T09:37:19Z</time>
      </trkpt>
      <trkpt lat="45.35132" lon="5.53909">
        <ele>379.86</ele>
        <time>2021-04-25T09:37:29Z</time>
      </trkpt>
      <trkpt lat="45.3514" lon="5.53863">
        <ele>380.34</ele>
        <time>2021-04-25T09:37:39Z</time>
      </trkpt>
      <trkpt lat="45.35159" lon="5.53824">
        <ele>380.82</ele>
        <time>2021-04-25T09:37:49Z</time>
      </trkpt>
      <trkpt lat="45.35178" lon="5.53798">
        <ele>382.26</ele>
        <time>2021-04-25T09:37:59Z</time>
      </trkpt>
      <trkpt lat="45.35195" lon="5.53781">
        <ele>383.7</ele>
        <time>2021-04-25T09:38:09Z</time>
      </trkpt>
      <trkpt lat="45.35207" lon="5.53766">
        <ele>385.63</ele>
        <time>2021-04-25T09:38:19Z</time>
      </trkpt>
      <trkpt lat="45.3522" lon="5.53753">
        <ele>386.59</ele>
        <time>2021-04-25T09:38:29Z</time>
      </trkpt>
      <trkpt lat="45.35225" lon="5.53734">
        <ele>388.03</ele>
        <time>2021-04-25T09:38:39Z</time>
      </trkpt>
      <trkpt lat="45.35236" lon="5.53731">
        <ele>389.47</ele>
        <time>2021-04-25T09:38:49Z</time>
      </trkpt>
      <trkpt lat="45.35256" lon="5.53757">
        <ele>388.51</ele>
        <time>2021-04-25T09:38:59Z</time>
      </trkpt>
      <trkpt lat="45.35276" lon="5.53794">
        <ele>388.03</ele>
        <time>2021-04-25T09:39:09Z</time>
      </trkpt>
      <trkpt lat="45.35302" lon="5.53821">
        <ele>387.55</ele>
        <time>2021-04-25T09:39:19Z</time>
      </trkpt>
      <trkpt lat="45.35325" lon="5.53781">
        <ele>388.03</ele>
        <time>2021-04-25T09:39:29Z</time>
      </trkpt>
      <trkpt lat="45.35344" lon="5.5374">
        <ele>388.51</ele>
        <time>2021-04-25T09:39:39Z</time>
      </trkpt>
      <trkpt lat="45.35363" lon="5.53751">
        <ele>390.91</ele>
        <time>2021-04-25T09:39:49Z</time>
      </trkpt>
      <trkpt lat="45.35372" lon="5.53779">
        <ele>391.87</ele>
        <time>2021-04-25T09:39:59Z</time>
      </trkpt>
      <trkpt lat="45.35386" lon="5.53799">
        <ele>392.84</ele>
        <time>2021-04-25T09:40:09Z</time>
      </trkpt>
      <trkpt lat="45.35409" lon="5.53812">
        <ele>392.36</ele>
        <time>2021-04-25T09:40:19Z</time>
      </trkpt>
      <trkpt lat="45.35424" lon="5.53833">
        <ele>392.84</ele>
        <time>2021-04-25T09:40:29Z</time>
      </trkpt>
      <trkpt lat="45.35442" lon="5.53852">
        <ele>393.32</ele>
        <time>2021-04-25T09:40:39Z</time>
      </trkpt>
      <trkpt lat="45.35462" lon="5.53874">
        <ele>394.28</ele>
        <time>2021-04-25T09:40:49Z</time>
      </trkpt>
      <trkpt lat="45.3548" lon="5.53895">
        <ele>394.76</ele>
        <time>2021-04-25T09:40:59Z</time>
      </trkpt>
      <trkpt lat="45.35494" lon="5.53917">
        <ele>395.24</ele>
        <time>2021-04-25T09:41:09Z</time>
      </trkpt>
      <trkpt lat="45.35505" lon="5.5393">
        <ele>395.72</ele>
        <time>2021-04-25T09:41:19Z</time>
      </trkpt>
      <trkpt lat="45.35506" lon="5.53932">
        <ele>395.24</ele>
        <time>2021-04-25T09:41:29Z</time>
      </trkpt>
      <trkpt lat="45.35507" lon="5.53931">
        <ele>395.72</ele>
        <time>2021-04-25T09:41:39Z</time>
      </trkpt>
      <trkpt lat="45.35508" lon="5.53931">
        <ele>395.24</ele>
        <time>2021-04-25T09:41:49Z</time>
      </trkpt>
      <trkpt lat="45.35508" lon="5.5393">
        <ele>395.72</ele>
        <time>2021-04-25T09:41:59Z</time>
      </trkpt>
      <trkpt lat="45.35508" lon="5.5393">
        <ele>395.72</ele>
        <time>2021-04-25T09:42:09Z</time>
      </trkpt>
      <trkpt lat="45.35508" lon="5.53931">
        <ele>395.24</ele>
        <time>2021-04-25T09:42:19Z</time>
      </trkpt>
      <trkpt lat="45.35508" lon="5.53932">
        <ele>395.72</ele>
        <time>2021-04-25T09:42:29Z</time>
      </trkpt>
      <trkpt lat="45.35509" lon="5.53932">
        <ele>395.24</ele>
        <time>2021-04-25T09:42:39Z</time>
      </trkpt>
      <trkpt lat="45.35511" lon="5.53931">
        <ele>395.72</ele>
        <time>2021-04-25T09:42:49Z</time>
      </trkpt>
      <trkpt lat="45.35511" lon="5.53931">
        <ele>395.72</ele>
        <time>2021-04-25T09:42:59Z</time>
      </trkpt>
      <trkpt lat="45.35511" lon="5.5393">
        <ele>395.72</ele>
        <time>2021-04-25T09:43:09Z</time>
      </trkpt>
      <trkpt lat="45.35511" lon="5.53929">
        <ele>395.72</ele>
        <time>2021-04-25T09:43:19Z</time>
      </trkpt>
      <trkpt lat="45.3551" lon="5.53929">
        <ele>395.72</ele>
        <time>2021-04-25T09:43:29Z</time>
      </trkpt>
      <trkpt lat="45.3551" lon="5.53929">
        <ele>395.72</ele>
        <time>2021-04-25T09:43:39Z</time>
      </trkpt>
      <trkpt lat="45.3551" lon="5.5393">
        <ele>395.72</ele>
        <time>2021-04-25T09:43:49Z</time>
      </trkpt>
      <trkpt lat="45.3551" lon="5.5393">
        <ele>395.72</ele>
        <time>2021-04-25T09:43:59Z</time>
      </trkpt>
      <trkpt lat="45.3551" lon="5.5393">
        <ele>395.72</ele>
        <time>2021-04-25T09:44:09Z</time>
      </trkpt>
      <trkpt lat="45.35513" lon="5.5393">
        <ele>395.72</ele>
        <time>2021-04-25T09:44:19Z</time>
      </trkpt>
      <trkpt lat="45.35514" lon="5.53934">
        <ele>395.72</ele>
        <time>2021-04-25T09:44:29Z</time>
      </trkpt>
      <trkpt lat="45.35518" lon="5.53942">
        <ele>396.2</ele>
        <time>2021-04-25T09:44:39Z</time>
      </trkpt>
      <trkpt lat="45.35534" lon="5.53931">
        <ele>396.2</ele>
        <time>2021-04-25T09:44:49Z</time>
      </trkpt>
      <trkpt lat="45.35547" lon="5.53911">
        <ele>396.68</ele>
        <time>2021-04-25T09:44:59Z</time>
      </trkpt>
      <trkpt lat="45.35552" lon="5.53888">
        <ele>397.64</ele>
        <time>2021-04-25T09:45:09Z</time>
      </trkpt>
      <trkpt lat="45.35544" lon="5.53866">
        <ele>398.12</ele>
        <time>2021-04-25T09:45:19Z</time>
      </trkpt>
      <trkpt lat="45.35536" lon="5.53838">
        <ele>399.08</ele>
        <time>2021-04-25T09:45:29Z</time>
      </trkpt>
      <trkpt lat="45.35528" lon="5.53807">
        <ele>400.05</ele>
        <time>2021-04-25T09:45:39Z</time>
      </trkpt>
      <trkpt lat="45.35535" lon="5.53776">
        <ele>400.05</ele>
        <time>2021-04-25T09:45:49Z</time>
      </trkpt>
      <trkpt lat="45.35554" lon="5.53749">
        <ele>400.53</ele>
        <time>2021-04-25T09:45:59Z</time>
      </trkpt>
      <trkpt lat="45.35573" lon="5.5373">
        <ele>401.49</ele>
        <time>2021-04-25T09:46:09Z</time>
      </trkpt>
      <trkpt lat="45.35586" lon="5.53746">
        <ele>402.45</ele>
        <time>2021-04-25T09:46:19Z</time>
      </trkpt>
      <trkpt lat="45.35602" lon="5.53768">
        <ele>402.93</ele>
        <time>2021-04-25T09:46:29Z</time>
      </trkpt>
      <trkpt lat="45.35619" lon="5.53784">
        <ele>403.41</ele>
        <time>2021-04-25T09:46:39Z</time>
      </trkpt>
      <trkpt lat="45.35632" lon="5.53762">
        <ele>401.97</ele>
        <time>2021-04-25T09:46:49Z</time>
      </trkpt>
      <trkpt lat="45.35662" lon="5.53767">
        <ele>402.93</ele>
        <time>2021-04-25T09:46:59Z</time>
      </trkpt>
      <trkpt lat="45.35684" lon="5.53798">
        <ele>403.89</ele>
        <time>2021-04-25T09:47:09Z</time>
      </trkpt>
      <trkpt lat="45.35703" lon="5.53836">
        <ele>404.37</ele>
        <time>2021-04-25T09:47:19Z</time>
      </trkpt>
      <trkpt lat="45.35724" lon="5.53868">
        <ele>405.33</ele>
        <time>2021-04-25T09:47:29Z</time>
      </trkpt>
      <trkpt lat="45.35748" lon="5.53872">
        <ele>405.33</ele>
        <time>2021-04-25T09:47:39Z</time>
      </trkpt>
      <trkpt lat="45.35769" lon="5.53857">
        <ele>406.77</ele>
        <time>2021-04-25T09:47:49Z</time>
      </trkpt>
      <trkpt lat="45.35784" lon="5.53841">
        <ele>409.18</ele>
        <time>2021-04-25T09:47:59Z</time>
      </trkpt>
      <trkpt lat="45.35805" lon="5.53825">
        <ele>411.1</ele>
        <time>2021-04-25T09:48:09Z</time>
      </trkpt>
      <trkpt lat="45.35822" lon="5.53823">
        <ele>413.98</ele>
        <time>2021-04-25T09:48:19Z</time>
      </trkpt>
      <trkpt lat="45.35836" lon="5.53832">
        <ele>414.95</ele>
        <time>2021-04-25T09:48:29Z</time>
      </trkpt>
      <trkpt lat="45.35847" lon="5.53847">
        <ele>415.91</ele>
        <time>2021-04-25T09:48:39Z</time>
      </trkpt>
      <trkpt lat="45.35861" lon="5.53857">
        <ele>417.83</ele>
        <time>2021-04-25T09:48:49Z</time>
      </trkpt>
      <trkpt lat="45.35876" lon="5.53867">
        <ele>418.79</ele>
        <time>2021-04-25T09:48:59Z</time>
      </trkpt>
      <trkpt lat="45.3589" lon="5.53877">
        <ele>419.27</ele>
        <time>2021-04-25T09:49:09Z</time>
      </trkpt>
      <trkpt lat="45.35908" lon="5.53878">
        <ele>417.83</ele>
        <time>2021-04-25T09:49:19Z</time>
      </trkpt>
      <trkpt lat="45.35932" lon="5.53873">
        <ele>418.31</ele>
        <time>2021-04-25T09:49:29Z</time>
      </trkpt>
      <trkpt lat="45.35959" lon="5.53863">
        <ele>418.79</ele>
        <time>2021-04-25T09:49:39Z</time>
      </trkpt>
      <trkpt lat="45.35964" lon="5.53863">
        <ele>418.79</ele>
        <time>2021-04-25T09:49:49Z</time>
      </trkpt>
      <trkpt lat="45.35968" lon="5.53851">
        <ele>418.79</ele>
        <time>2021-04-25T09:49:59Z</time>
      </trkpt>
      <trkpt lat="45.35977" lon="5.53818">
        <ele>419.75</ele>
        <time>2021-04-25T09:50:09Z</time>
      </trkpt>
      <trkpt lat="45.35979" lon="5.53777">
        <ele>419.75</ele>
        <time>2021-04-25T09:50:19Z</time>
      </trkpt>
      <trkpt lat="45.35981" lon="5.53736">
        <ele>419.27</ele>
        <time>2021-04-25T09:50:29Z</time>
      </trkpt>
      <trkpt lat="45.35986" lon="5.53681">
        <ele>418.31</ele>
        <time>2021-04-25T09:50:39Z</time>
      </trkpt>
      <trkpt lat="45.35995" lon="5.53633">
        <ele>418.79</ele>
        <time>2021-04-25T09:50:49Z</time>
      </trkpt>
      <trkpt lat="45.36016" lon="5.53593">
        <ele>417.35</ele>
        <time>2021-04-25T09:50:59Z</time>
      </trkpt>
      <trkpt lat="45.3601" lon="5.53548">
        <ele>416.87</ele>
        <time>2021-04-25T09:51:09Z</time>
      </trkpt>
      <trkpt lat="45.35985" lon="5.53507">
        <ele>416.39</ele>
        <time>2021-04-25T09:51:19Z</time>
      </trkpt>
      <trkpt lat="45.35969" lon="5.5345">
        <ele>414.95</ele>
        <time>2021-04-25T09:51:29Z</time>
      </trkpt>
      <trkpt lat="45.35961" lon="5.53383">
        <ele>414.95</ele>
        <time>2021-04-25T09:51:39Z</time>
      </trkpt>
      <trkpt lat="45.35956" lon="5.53324">
        <ele>415.43</ele>
        <time>2021-04-25T09:51:49Z</time>
      </trkpt>
      <trkpt lat="45.35951" lon="5.53274">
        <ele>417.35</ele>
        <time>2021-04-25T09:51:59Z</time>
      </trkpt>
      <trkpt lat="45.35948" lon="5.53233">
        <ele>418.31</ele>
        <time>2021-04-25T09:52:09Z</time>
      </trkpt>
      <trkpt lat="45.35946" lon="5.53194">
        <ele>419.27</ele>
        <time>2021-04-25T09:52:19Z</time>
      </trkpt>
      <trkpt lat="45.35948" lon="5.5315">
        <ele>419.75</ele>
        <time>2021-04-25T09:52:29Z</time>
      </trkpt>
      <trkpt lat="45.35952" lon="5.53108">
        <ele>420.23</ele>
        <time>2021-04-25T09:52:39Z</time>
      </trkpt>
      <trkpt lat="45.35951" lon="5.53072">
        <ele>419.27</ele>
        <time>2021-04-25T09:52:49Z</time>
      </trkpt>
      <trkpt lat="45.35952" lon="5.53025">
        <ele>418.31</ele>
        <time>2021-04-25T09:52:59Z</time>
      </trkpt>
      <trkpt lat="45.35958" lon="5.52965">
        <ele>416.87</ele>
        <time>2021-04-25T09:53:09Z</time>
      </trkpt>
      <trkpt lat="45.35959" lon="5.52884">
        <ele>410.62</ele>
        <time>2021-04-25T09:53:19Z</time>
      </trkpt>
      <trkpt lat="45.35967" lon="5.52812">
        <ele>407.26</ele>
        <time>2021-04-25T09:53:29Z</time>
      </trkpt>
      <trkpt lat="45.35983" lon="5.52731">
        <ele>403.89</ele>
        <time>2021-04-25T09:53:39Z</time>
      </trkpt>
      <trkpt lat="45.36001" lon="5.52653">
        <ele>403.89</ele>
        <time>2021-04-25T09:53:49Z</time>
      </trkpt>
      <trkpt lat="45.36011" lon="5.52585">
        <ele>401.01</ele>
        <time>2021-04-25T09:53:59Z</time>
      </trkpt>
      <trkpt lat="45.36019" lon="5.52522">
        <ele>397.64</ele>
        <time>2021-04-25T09:54:09Z</time>
      </trkpt>
      <trkpt lat="45.36028" lon="5.52487">
        <ele>391.87</ele>
        <time>2021-04-25T09:54:19Z</time>
      </trkpt>
      <trkpt lat="45.36036" lon="5.52441">
        <ele>384.18</ele>
        <time>2021-04-25T09:54:29Z</time>
      </trkpt>
      <trkpt lat="45.36039" lon="5.52395">
        <ele>376.49</ele>
        <time>2021-04-25T09:54:39Z</time>
      </trkpt>
      <trkpt lat="45.36047" lon="5.52331">
        <ele>369.28</ele>
        <time>2021-04-25T09:54:49Z</time>
      </trkpt>
      <trkpt lat="45.36081" lon="5.52254">
        <ele>364</ele>
        <time>2021-04-25T09:54:59Z</time>
      </trkpt>
      <trkpt lat="45.36101" lon="5.52205">
        <ele>364.48</ele>
        <time>2021-04-25T09:55:09Z</time>
      </trkpt>
      <trkpt lat="45.3614" lon="5.52154">
        <ele>360.63</ele>
        <time>2021-04-25T09:55:19Z</time>
      </trkpt>
      <trkpt lat="45.36176" lon="5.52114">
        <ele>360.15</ele>
        <time>2021-04-25T09:55:29Z</time>
      </trkpt>
      <trkpt lat="45.36211" lon="5.52081">
        <ele>360.63</ele>
        <time>2021-04-25T09:55:39Z</time>
      </trkpt>
      <trkpt lat="45.3624" lon="5.52051">
        <ele>358.71</ele>
        <time>2021-04-25T09:55:49Z</time>
      </trkpt>
      <trkpt lat="45.36288" lon="5.52017">
        <ele>355.34</ele>
        <time>2021-04-25T09:55:59Z</time>
      </trkpt>
      <trkpt lat="45.36342" lon="5.52005">
        <ele>354.38</ele>
        <time>2021-04-25T09:56:09Z</time>
      </trkpt>
      <trkpt lat="45.36366" lon="5.51999">
        <ele>354.86</ele>
        <time>2021-04-25T09:56:19Z</time>
      </trkpt>
      <trkpt lat="45.36389" lon="5.51975">
        <ele>352.94</ele>
        <time>2021-04-25T09:56:29Z</time>
      </trkpt>
      <trkpt lat="45.36408" lon="5.51957">
        <ele>351.02</ele>
        <time>2021-04-25T09:56:39Z</time>
      </trkpt>
      <trkpt lat="45.36362" lon="5.5195">
        <ele>344.77</ele>
        <time>2021-04-25T09:56:49Z</time>
      </trkpt>
      <trkpt lat="45.36339" lon="5.51918">
        <ele>342.37</ele>
        <time>2021-04-25T09:56:59Z</time>
      </trkpt>
      <trkpt lat="45.36316" lon="5.51891">
        <ele>340.44</ele>
        <time>2021-04-25T09:57:09Z</time>
      </trkpt>
      <trkpt lat="45.36272" lon="5.51871">
        <ele>339.48</ele>
        <time>2021-04-25T09:57:19Z</time>
      </trkpt>
      <trkpt lat="45.36224" lon="5.51862">
        <ele>338.52</ele>
        <time>2021-04-25T09:57:29Z</time>
      </trkpt>
      <trkpt lat="45.36178" lon="5.51853">
        <ele>338.52</ele>
        <time>2021-04-25T09:57:39Z</time>
      </trkpt>
      <trkpt lat="45.36133" lon="5.51846">
        <ele>338.52</ele>
        <time>2021-04-25T09:57:49Z</time>
      </trkpt>
      <trkpt lat="45.36088" lon="5.51838">
        <ele>339</ele>
        <time>2021-04-25T09:57:59Z</time>
      </trkpt>
      <trkpt lat="45.3605" lon="5.51831">
        <ele>339.96</ele>
        <time>2021-04-25T09:58:09Z</time>
      </trkpt>
      <trkpt lat="45.36017" lon="5.51824">
        <ele>340.92</ele>
        <time>2021-04-25T09:58:19Z</time>
      </trkpt>
      <trkpt lat="45.35986" lon="5.51818">
        <ele>341.41</ele>
        <time>2021-04-25T09:58:29Z</time>
      </trkpt>
      <trkpt lat="45.35953" lon="5.51811">
        <ele>342.37</ele>
        <time>2021-04-25T09:58:39Z</time>
      </trkpt>
      <trkpt lat="45.35921" lon="5.51804">
        <ele>342.85</ele>
        <time>2021-04-25T09:58:49Z</time>
      </trkpt>
      <trkpt lat="45.35895" lon="5.51794">
        <ele>342.85</ele>
        <time>2021-04-25T09:58:59Z</time>
      </trkpt>
      <trkpt lat="45.35873" lon="5.51787">
        <ele>343.81</ele>
        <time>2021-04-25T09:59:09Z</time>
      </trkpt>
      <trkpt lat="45.35842" lon="5.51776">
        <ele>344.29</ele>
        <time>2021-04-25T09:59:19Z</time>
      </trkpt>
      <trkpt lat="45.35864" lon="5.51763">
        <ele>345.25</ele>
        <time>2021-04-25T09:59:29Z</time>
      </trkpt>
      <trkpt lat="45.35882" lon="5.51736">
        <ele>346.21</ele>
        <time>2021-04-25T09:59:39Z</time>
      </trkpt>
      <trkpt lat="45.359" lon="5.5171">
        <ele>347.65</ele>
        <time>2021-04-25T09:59:49Z</time>
      </trkpt>
      <trkpt lat="45.35916" lon="5.5169">
        <ele>349.1</ele>
        <time>2021-04-25T09:59:59Z</time>
      </trkpt>
      <trkpt lat="45.35932" lon="5.51675">
        <ele>351.02</ele>
        <time>2021-04-25T10:00:09Z</time>
      </trkpt>
      <trkpt lat="45.35946" lon="5.51666">
        <ele>353.42</ele>
        <time>2021-04-25T10:00:19Z</time>
      </trkpt>
      <trkpt lat="45.35959" lon="5.51653">
        <ele>355.83</ele>
        <time>2021-04-25T10:00:29Z</time>
      </trkpt>
      <trkpt lat="45.3597" lon="5.5164">
        <ele>357.75</ele>
        <time>2021-04-25T10:00:39Z</time>
      </trkpt>
      <trkpt lat="45.35979" lon="5.51627">
        <ele>359.19</ele>
        <time>2021-04-25T10:00:49Z</time>
      </trkpt>
      <trkpt lat="45.35989" lon="5.51611">
        <ele>360.63</ele>
        <time>2021-04-25T10:00:59Z</time>
      </trkpt>
      <trkpt lat="45.36" lon="5.51596">
        <ele>361.59</ele>
        <time>2021-04-25T10:01:09Z</time>
      </trkpt>
      <trkpt lat="45.36011" lon="5.51582">
        <ele>363.52</ele>
        <time>2021-04-25T10:01:19Z</time>
      </trkpt>
      <trkpt lat="45.36021" lon="5.51568">
        <ele>365.44</ele>
        <time>2021-04-25T10:01:29Z</time>
      </trkpt>
      <trkpt lat="45.36031" lon="5.51553">
        <ele>367.36</ele>
        <time>2021-04-25T10:01:39Z</time>
      </trkpt>
      <trkpt lat="45.36039" lon="5.51541">
        <ele>370.24</ele>
        <time>2021-04-25T10:01:49Z</time>
      </trkpt>
      <trkpt lat="45.36051" lon="5.51526">
        <ele>373.13</ele>
        <time>2021-04-25T10:01:59Z</time>
      </trkpt>
      <trkpt lat="45.36059" lon="5.51512">
        <ele>375.53</ele>
        <time>2021-04-25T10:02:09Z</time>
      </trkpt>
      <trkpt lat="45.36068" lon="5.51499">
        <ele>376.97</ele>
        <time>2021-04-25T10:02:19Z</time>
      </trkpt>
      <trkpt lat="45.36079" lon="5.51488">
        <ele>378.42</ele>
        <time>2021-04-25T10:02:29Z</time>
      </trkpt>
      <trkpt lat="45.36089" lon="5.51474">
        <ele>379.38</ele>
        <time>2021-04-25T10:02:39Z</time>
      </trkpt>
      <trkpt lat="45.36101" lon="5.5146">
        <ele>380.34</ele>
        <time>2021-04-25T10:02:49Z</time>
      </trkpt>
      <trkpt lat="45.36113" lon="5.51446">
        <ele>381.3</ele>
        <time>2021-04-25T10:02:59Z</time>
      </trkpt>
      <trkpt lat="45.36125" lon="5.51432">
        <ele>382.26</ele>
        <time>2021-04-25T10:03:09Z</time>
      </trkpt>
      <trkpt lat="45.36137" lon="5.51418">
        <ele>382.74</ele>
        <time>2021-04-25T10:03:19Z</time>
      </trkpt>
      <trkpt lat="45.36149" lon="5.51405">
        <ele>384.18</ele>
        <time>2021-04-25T10:03:29Z</time>
      </trkpt>
      <trkpt lat="45.3616" lon="5.51392">
        <ele>385.15</ele>
        <time>2021-04-25T10:03:39Z</time>
      </trkpt>
      <trkpt lat="45.36172" lon="5.51377">
        <ele>386.11</ele>
        <time>2021-04-25T10:03:49Z</time>
      </trkpt>
      <trkpt lat="45.36184" lon="5.5136">
        <ele>387.07</ele>
        <time>2021-04-25T10:03:59Z</time>
      </trkpt>
      <trkpt lat="45.36194" lon="5.51345">
        <ele>388.51</ele>
        <time>2021-04-25T10:04:09Z</time>
      </trkpt>
      <trkpt lat="45.36198" lon="5.51336">
        <ele>389.47</ele>
        <time>2021-04-25T10:04:19Z</time>
      </trkpt>
      <trkpt lat="45.36198" lon="5.51336">
        <ele>389.47</ele>
        <time>2021-04-25T10:04:29Z</time>
      </trkpt>
      <trkpt lat="45.36198" lon="5.51337">
        <ele>389.47</ele>
        <time>2021-04-25T10:04:39Z</time>
      </trkpt>
      <trkpt lat="45.36198" lon="5.51338">
        <ele>389.47</ele>
        <time>2021-04-25T10:04:49Z</time>
      </trkpt>
      <trkpt lat="45.36198" lon="5.51338">
        <ele>389.47</ele>
        <time>2021-04-25T10:04:59Z</time>
      </trkpt>
      <trkpt lat="45.36199" lon="5.51339">
        <ele>389.47</ele>
        <time>2021-04-25T10:05:09Z</time>
      </trkpt>
      <trkpt lat="45.36199" lon="5.51338">
        <ele>389.47</ele>
        <time>2021-04-25T10:05:19Z</time>
      </trkpt>
      <trkpt lat="45.36198" lon="5.51338">
        <ele>389.47</ele>
        <time>2021-04-25T10:05:29Z</time>
      </trkpt>
      <trkpt lat="45.36199" lon="5.51338">
        <ele>389.47</ele>
        <time>2021-04-25T10:05:39Z</time>
      </trkpt>
      <trkpt lat="45.36199" lon="5.51337">
        <ele>389.47</ele>
        <time>2021-04-25T10:05:49Z</time>
      </trkpt>
      <trkpt lat="45.362" lon="5.51336">
        <ele>389.47</ele>
        <time>2021-04-25T10:05:59Z</time>
      </trkpt>
      <trkpt lat="45.362" lon="5.51335">
        <ele>389.47</ele>
        <time>2021-04-25T10:06:09Z</time>
      </trkpt>
      <trkpt lat="45.362" lon="5.51334">
        <ele>389.47</ele>
        <time>2021-04-25T10:06:19Z</time>
      </trkpt>
      <trkpt lat="45.362" lon="5.51334">
        <ele>389.47</ele>
        <time>2021-04-25T10:06:29Z</time>
      </trkpt>
      <trkpt lat="45.362" lon="5.51334">
        <ele>389.47</ele>
        <time>2021-04-25T10:06:39Z</time>
      </trkpt>
      <trkpt lat="45.36207" lon="5.51326">
        <ele>389.95</ele>
        <time>2021-04-25T10:06:49Z</time>
      </trkpt>
      <trkpt lat="45.36214" lon="5.51306">
        <ele>389.95</ele>
        <time>2021-04-25T10:06:59Z</time>
      </trkpt>
      <trkpt lat="45.36199" lon="5.51303">
        <ele>390.91</ele>
        <time>2021-04-25T10:07:09Z</time>
      </trkpt>
      <trkpt lat="45.36184" lon="5.51311">
        <ele>393.32</ele>
        <time>2021-04-25T10:07:19Z</time>
      </trkpt>
      <trkpt lat="45.3617" lon="5.51311">
        <ele>394.76</ele>
        <time>2021-04-25T10:07:29Z</time>
      </trkpt>
      <trkpt lat="45.36155" lon="5.51313">
        <ele>396.68</ele>
        <time>2021-04-25T10:07:39Z</time>
      </trkpt>
      <trkpt lat="45.36142" lon="5.51314">
        <ele>397.16</ele>
        <time>2021-04-25T10:07:49Z</time>
      </trkpt>
      <trkpt lat="45.36128" lon="5.51309">
        <ele>397.64</ele>
        <time>2021-04-25T10:07:59Z</time>
      </trkpt>
      <trkpt lat="45.36114" lon="5.51297">
        <ele>397.64</ele>
        <time>2021-04-25T10:08:09Z</time>
      </trkpt>
      <trkpt lat="45.36102" lon="5.51284">
        <ele>397.64</ele>
        <time>2021-04-25T10:08:19Z</time>
      </trkpt>
      <trkpt lat="45.36091" lon="5.51269">
        <ele>398.12</ele>
        <time>2021-04-25T10:08:29Z</time>
      </trkpt>
      <trkpt lat="45.36088" lon="5.51269">
        <ele>398.12</ele>
        <time>2021-04-25T10:08:39Z</time>
      </trkpt>
      <trkpt lat="45.36088" lon="5.51269">
        <ele>398.12</ele>
        <time>2021-04-25T10:08:49Z</time>
      </trkpt>
      <trkpt lat="45.36088" lon="5.51269">
        <ele>398.12</ele>
        <time>2021-04-25T10:08:59Z</time>
      </trkpt>
      <trkpt lat="45.36088" lon="5.5127">
        <ele>398.12</ele>
        <time>2021-04-25T10:09:09Z</time>
      </trkpt>
      <trkpt lat="45.36088" lon="5.5127">
        <ele>398.12</ele>
        <time>2021-04-25T10:09:19Z</time>
      </trkpt>
      <trkpt lat="45.36087" lon="5.51269">
        <ele>398.12</ele>
        <time>2021-04-25T10:09:29Z</time>
      </trkpt>
      <trkpt lat="45.36087" lon="5.51269">
        <ele>398.12</ele>
        <time>2021-04-25T10:09:39Z</time>
      </trkpt>
      <trkpt lat="45.36087" lon="5.51269">
        <ele>398.12</ele>
        <time>2021-04-25T10:09:49Z</time>
      </trkpt>
      <trkpt lat="45.36087" lon="5.51269">
        <ele>397.64</ele>
        <time>2021-04-25T10:09:59Z</time>
      </trkpt>
      <trkpt lat="45.36087" lon="5.51269">
        <ele>397.64</ele>
        <time>2021-04-25T10:10:09Z</time>
      </trkpt>
      <trkpt lat="45.36087" lon="5.51269">
        <ele>397.64</ele>
        <time>2021-04-25T10:10:19Z</time>
      </trkpt>
      <trkpt lat="45.36087" lon="5.51269">
        <ele>398.12</ele>
        <time>2021-04-25T10:10:29Z</time>
      </trkpt>
      <trkpt lat="45.36084" lon="5.51263">
        <ele>398.12</ele>
        <time>2021-04-25T10:10:39Z</time>
      </trkpt>
      <trkpt lat="45.36084" lon="5.51262">
        <ele>398.12</ele>
        <time>2021-04-25T10:10:49Z</time>
      </trkpt>
      <trkpt lat="45.36083" lon="5.51263">
        <ele>398.12</ele>
        <time>2021-04-25T10:10:59Z</time>
      </trkpt>
      <trkpt lat="45.36083" lon="5.51263">
        <ele>398.12</ele>
        <time>2021-04-25T10:11:09Z</time>
      </trkpt>
      <trkpt lat="45.36083" lon="5.51264">
        <ele>398.12</ele>
        <time>2021-04-25T10:11:19Z</time>
      </trkpt>
      <trkpt lat="45.36083" lon="5.51264">
        <ele>398.12</ele>
        <time>2021-04-25T10:11:29Z</time>
      </trkpt>
      <trkpt lat="45.36083" lon="5.51263">
        <ele>398.12</ele>
        <time>2021-04-25T10:11:39Z</time>
      </trkpt>
      <trkpt lat="45.36083" lon="5.51263">
        <ele>397.64</ele>
        <time>2021-04-25T10:11:49Z</time>
      </trkpt>
      <trkpt lat="45.36083" lon="5.51263">
        <ele>397.64</ele>
        <time>2021-04-25T10:11:59Z</time>
      </trkpt>
      <trkpt lat="45.36084" lon="5.51263">
        <ele>398.12</ele>
        <time>2021-04-25T10:12:09Z</time>
      </trkpt>
      <trkpt lat="45.36084" lon="5.51264">
        <ele>398.12</ele>
        <time>2021-04-25T10:12:19Z</time>
      </trkpt>
      <trkpt lat="45.36083" lon="5.51263">
        <ele>397.64</ele>
        <time>2021-04-25T10:12:29Z</time>
      </trkpt>
      <trkpt lat="45.36083" lon="5.51262">
        <ele>398.12</ele>
        <time>2021-04-25T10:12:39Z</time>
      </trkpt>
      <trkpt lat="45.36083" lon="5.51262">
        <ele>397.64</ele>
        <time>2021-04-25T10:12:49Z</time>
      </trkpt>
      <trkpt lat="45.36082" lon="5.51262">
        <ele>398.12</ele>
        <time>2021-04-25T10:12:59Z</time>
      </trkpt>
      <trkpt lat="45.36082" lon="5.51262">
        <ele>397.64</ele>
        <time>2021-04-25T10:13:09Z</time>
      </trkpt>
      <trkpt lat="45.36082" lon="5.51263">
        <ele>397.64</ele>
        <time>2021-04-25T10:13:19Z</time>
      </trkpt>
      <trkpt lat="45.36083" lon="5.51263">
        <ele>397.64</ele>
        <time>2021-04-25T10:13:29Z</time>
      </trkpt>
      <trkpt lat="45.36083" lon="5.51263">
        <ele>397.64</ele>
        <time>2021-04-25T10:13:39Z</time>
      </trkpt>
      <trkpt lat="45.36083" lon="5.51263">
        <ele>397.64</ele>
        <time>2021-04-25T10:13:49Z</time>
      </trkpt>
      <trkpt lat="45.36083" lon="5.51262">
        <ele>397.64</ele>
        <time>2021-04-25T10:13:59Z</time>
      </trkpt>
      <trkpt lat="45.36083" lon="5.51261">
        <ele>398.12</ele>
        <time>2021-04-25T10:14:09Z</time>
      </trkpt>
      <trkpt lat="45.36083" lon="5.51261">
        <ele>397.64</ele>
        <time>2021-04-25T10:14:19Z</time>
      </trkpt>
      <trkpt lat="45.36083" lon="5.51262">
        <ele>397.64</ele>
        <time>2021-04-25T10:14:29Z</time>
      </trkpt>
      <trkpt lat="45.36082" lon="5.51262">
        <ele>397.64</ele>
        <time>2021-04-25T10:14:39Z</time>
      </trkpt>
      <trkpt lat="45.36082" lon="5.51262">
        <ele>397.64</ele>
        <time>2021-04-25T10:14:49Z</time>
      </trkpt>
      <trkpt lat="45.36082" lon="5.51263">
        <ele>397.64</ele>
        <time>2021-04-25T10:14:59Z</time>
      </trkpt>
      <trkpt lat="45.36082" lon="5.51263">
        <ele>397.64</ele>
        <time>2021-04-25T10:15:09Z</time>
      </trkpt>
      <trkpt lat="45.36082" lon="5.51264">
        <ele>397.64</ele>
        <time>2021-04-25T10:15:19Z</time>
      </trkpt>
      <trkpt lat="45.36082" lon="5.51263">
        <ele>397.64</ele>
        <time>2021-04-25T10:15:29Z</time>
      </trkpt>
      <trkpt lat="45.36082" lon="5.51263">
        <ele>397.64</ele>
        <time>2021-04-25T10:15:39Z</time>
      </trkpt>
      <trkpt lat="45.36082" lon="5.51263">
        <ele>397.64</ele>
        <time>2021-04-25T10:15:49Z</time>
      </trkpt>
      <trkpt lat="45.36083" lon="5.51263">
        <ele>397.64</ele>
        <time>2021-04-25T10:15:59Z</time>
      </trkpt>
      <trkpt lat="45.36083" lon="5.51262">
        <ele>397.64</ele>
        <time>2021-04-25T10:16:09Z</time>
      </trkpt>
      <trkpt lat="45.36083" lon="5.51261">
        <ele>397.64</ele>
        <time>2021-04-25T10:16:19Z</time>
      </trkpt>
      <trkpt lat="45.36083" lon="5.51261">
        <ele>397.16</ele>
        <time>2021-04-25T10:16:29Z</time>
      </trkpt>
      <trkpt lat="45.36083" lon="5.5126">
        <ele>397.64</ele>
        <time>2021-04-25T10:16:39Z</time>
      </trkpt>
      <trkpt lat="45.36084" lon="5.5126">
        <ele>398.12</ele>
        <time>2021-04-25T10:16:49Z</time>
      </trkpt>
      <trkpt lat="45.36085" lon="5.5126">
        <ele>397.64</ele>
        <time>2021-04-25T10:16:59Z</time>
      </trkpt>
      <trkpt lat="45.36084" lon="5.5126">
        <ele>397.16</ele>
        <time>2021-04-25T10:17:09Z</time>
      </trkpt>
      <trkpt lat="45.36085" lon="5.5126">
        <ele>397.16</ele>
        <time>2021-04-25T10:17:19Z</time>
      </trkpt>
      <trkpt lat="45.36085" lon="5.51261">
        <ele>397.16</ele>
        <time>2021-04-25T10:17:29Z</time>
      </trkpt>
      <trkpt lat="45.36085" lon="5.51261">
        <ele>397.16</ele>
        <time>2021-04-25T10:17:39Z</time>
      </trkpt>
      <trkpt lat="45.36085" lon="5.51262">
        <ele>397.16</ele>
        <time>2021-04-25T10:17:49Z</time>
      </trkpt>
      <trkpt lat="45.36085" lon="5.51261">
        <ele>397.16</ele>
        <time>2021-04-25T10:17:59Z</time>
      </trkpt>
      <trkpt lat="45.36084" lon="5.51261">
        <ele>397.16</ele>
        <time>2021-04-25T10:18:09Z</time>
      </trkpt>
      <trkpt lat="45.36084" lon="5.51262">
        <ele>397.16</ele>
        <time>2021-04-25T10:18:19Z</time>
      </trkpt>
      <trkpt lat="45.36085" lon="5.51261">
        <ele>397.16</ele>
        <time>2021-04-25T10:18:29Z</time>
      </trkpt>
      <trkpt lat="45.36085" lon="5.51261">
        <ele>397.16</ele>
        <time>2021-04-25T10:18:39Z</time>
      </trkpt>
      <trkpt lat="45.36085" lon="5.51262">
        <ele>397.16</ele>
        <time>2021-04-25T10:18:49Z</time>
      </trkpt>
      <trkpt lat="45.36085" lon="5.51262">
        <ele>397.16</ele>
        <time>2021-04-25T10:18:59Z</time>
      </trkpt>
      <trkpt lat="45.36085" lon="5.51261">
        <ele>396.68</ele>
        <time>2021-04-25T10:19:09Z</time>
      </trkpt>
      <trkpt lat="45.36085" lon="5.51261">
        <ele>396.68</ele>
        <time>2021-04-25T10:19:19Z</time>
      </trkpt>
      <trkpt lat="45.36084" lon="5.51261">
        <ele>396.68</ele>
        <time>2021-04-25T10:19:29Z</time>
      </trkpt>
      <trkpt lat="45.36084" lon="5.51262">
        <ele>396.68</ele>
        <time>2021-04-25T10:19:39Z</time>
      </trkpt>
      <trkpt lat="45.36084" lon="5.51262">
        <ele>396.68</ele>
        <time>2021-04-25T10:19:49Z</time>
      </trkpt>
      <trkpt lat="45.36083" lon="5.51263">
        <ele>396.68</ele>
        <time>2021-04-25T10:19:59Z</time>
      </trkpt>
      <trkpt lat="45.36083" lon="5.51262">
        <ele>396.68</ele>
        <time>2021-04-25T10:20:09Z</time>
      </trkpt>
      <trkpt lat="45.36083" lon="5.51263">
        <ele>396.68</ele>
        <time>2021-04-25T10:20:19Z</time>
      </trkpt>
      <trkpt lat="45.36083" lon="5.51262">
        <ele>396.68</ele>
        <time>2021-04-25T10:20:29Z</time>
      </trkpt>
      <trkpt lat="45.36083" lon="5.51263">
        <ele>396.2</ele>
        <time>2021-04-25T10:20:39Z</time>
      </trkpt>
      <trkpt lat="45.36083" lon="5.51263">
        <ele>396.68</ele>
        <time>2021-04-25T10:20:49Z</time>
      </trkpt>
      <trkpt lat="45.36083" lon="5.51264">
        <ele>396.2</ele>
        <time>2021-04-25T10:20:59Z</time>
      </trkpt>
      <trkpt lat="45.36082" lon="5.51264">
        <ele>396.2</ele>
        <time>2021-04-25T10:21:09Z</time>
      </trkpt>
      <trkpt lat="45.36082" lon="5.51265">
        <ele>396.68</ele>
        <time>2021-04-25T10:21:19Z</time>
      </trkpt>
      <trkpt lat="45.36082" lon="5.51265">
        <ele>396.2</ele>
        <time>2021-04-25T10:21:29Z</time>
      </trkpt>
      <trkpt lat="45.36082" lon="5.51265">
        <ele>396.2</ele>
        <time>2021-04-25T10:21:39Z</time>
      </trkpt>
      <trkpt lat="45.36081" lon="5.51265">
        <ele>396.2</ele>
        <time>2021-04-25T10:21:49Z</time>
      </trkpt>
      <trkpt lat="45.36081" lon="5.51265">
        <ele>396.2</ele>
        <time>2021-04-25T10:21:59Z</time>
      </trkpt>
      <trkpt lat="45.36081" lon="5.51265">
        <ele>396.2</ele>
        <time>2021-04-25T10:22:09Z</time>
      </trkpt>
      <trkpt lat="45.36081" lon="5.51264">
        <ele>395.72</ele>
        <time>2021-04-25T10:22:19Z</time>
      </trkpt>
      <trkpt lat="45.36081" lon="5.51264">
        <ele>396.2</ele>
        <time>2021-04-25T10:22:29Z</time>
      </trkpt>
      <trkpt lat="45.36082" lon="5.51264">
        <ele>395.72</ele>
        <time>2021-04-25T10:22:39Z</time>
      </trkpt>
      <trkpt lat="45.36082" lon="5.51264">
        <ele>396.68</ele>
        <time>2021-04-25T10:22:49Z</time>
      </trkpt>
      <trkpt lat="45.36081" lon="5.51263">
        <ele>396.2</ele>
        <time>2021-04-25T10:22:59Z</time>
      </trkpt>
      <trkpt lat="45.36081" lon="5.51262">
        <ele>395.72</ele>
        <time>2021-04-25T10:23:09Z</time>
      </trkpt>
      <trkpt lat="45.36081" lon="5.51262">
        <ele>396.2</ele>
        <time>2021-04-25T10:23:19Z</time>
      </trkpt>
      <trkpt lat="45.36081" lon="5.51263">
        <ele>395.72</ele>
        <time>2021-04-25T10:23:29Z</time>
      </trkpt>
      <trkpt lat="45.36081" lon="5.51263">
        <ele>395.72</ele>
        <time>2021-04-25T10:23:39Z</time>
      </trkpt>
      <trkpt lat="45.36081" lon="5.51263">
        <ele>395.72</ele>
        <time>2021-04-25T10:23:49Z</time>
      </trkpt>
      <trkpt lat="45.36082" lon="5.51263">
        <ele>395.72</ele>
        <time>2021-04-25T10:23:59Z</time>
      </trkpt>
      <trkpt lat="45.36082" lon="5.51263">
        <ele>395.72</ele>
        <time>2021-04-25T10:24:09Z</time>
      </trkpt>
      <trkpt lat="45.36082" lon="5.51263">
        <ele>395.72</ele>
        <time>2021-04-25T10:24:19Z</time>
      </trkpt>
      <trkpt lat="45.36083" lon="5.51262">
        <ele>395.72</ele>
        <time>2021-04-25T10:24:29Z</time>
      </trkpt>
      <trkpt lat="45.36083" lon="5.51262">
        <ele>395.72</ele>
        <time>2021-04-25T10:24:39Z</time>
      </trkpt>
      <trkpt lat="45.36083" lon="5.51262">
        <ele>396.2</ele>
        <time>2021-04-25T10:24:49Z</time>
      </trkpt>
      <trkpt lat="45.36083" lon="5.51262">
        <ele>396.2</ele>
        <time>2021-04-25T10:24:59Z</time>
      </trkpt>
      <trkpt lat="45.36083" lon="5.51262">
        <ele>395.72</ele>
        <time>2021-04-25T10:25:09Z</time>
      </trkpt>
      <trkpt lat="45.36083" lon="5.51261">
        <ele>395.72</ele>
        <time>2021-04-25T10:25:19Z</time>
      </trkpt>
      <trkpt lat="45.36083" lon="5.51261">
        <ele>395.72</ele>
        <time>2021-04-25T10:25:29Z</time>
      </trkpt>
      <trkpt lat="45.36084" lon="5.51261">
        <ele>395.72</ele>
        <time>2021-04-25T10:25:39Z</time>
      </trkpt>
      <trkpt lat="45.36084" lon="5.51261">
        <ele>395.72</ele>
        <time>2021-04-25T10:25:49Z</time>
      </trkpt>
      <trkpt lat="45.36084" lon="5.51261">
        <ele>395.72</ele>
        <time>2021-04-25T10:25:59Z</time>
      </trkpt>
      <trkpt lat="45.36084" lon="5.5126">
        <ele>395.72</ele>
        <time>2021-04-25T10:26:09Z</time>
      </trkpt>
      <trkpt lat="45.36084" lon="5.5126">
        <ele>395.72</ele>
        <time>2021-04-25T10:26:19Z</time>
      </trkpt>
      <trkpt lat="45.36084" lon="5.51261">
        <ele>395.72</ele>
        <time>2021-04-25T10:26:29Z</time>
      </trkpt>
      <trkpt lat="45.36084" lon="5.51261">
        <ele>395.72</ele>
        <time>2021-04-25T10:26:39Z</time>
      </trkpt>
      <trkpt lat="45.36084" lon="5.51261">
        <ele>395.24</ele>
        <time>2021-04-25T10:26:49Z</time>
      </trkpt>
      <trkpt lat="45.36083" lon="5.51261">
        <ele>395.24</ele>
        <time>2021-04-25T10:26:59Z</time>
      </trkpt>
      <trkpt lat="45.36083" lon="5.51261">
        <ele>395.24</ele>
        <time>2021-04-25T10:27:09Z</time>
      </trkpt>
      <trkpt lat="45.36083" lon="5.51261">
        <ele>395.24</ele>
        <time>2021-04-25T10:27:19Z</time>
      </trkpt>
      <trkpt lat="45.36083" lon="5.51261">
        <ele>395.72</ele>
        <time>2021-04-25T10:27:29Z</time>
      </trkpt>
      <trkpt lat="45.36083" lon="5.51261">
        <ele>395.72</ele>
        <time>2021-04-25T10:27:39Z</time>
      </trkpt>
      <trkpt lat="45.36083" lon="5.51261">
        <ele>395.72</ele>
        <time>2021-04-25T10:27:49Z</time>
      </trkpt>
      <trkpt lat="45.36083" lon="5.51262">
        <ele>395.72</ele>
        <time>2021-04-25T10:27:59Z</time>
      </trkpt>
      <trkpt lat="45.36084" lon="5.51262">
        <ele>395.72</ele>
        <time>2021-04-25T10:28:09Z</time>
      </trkpt>
      <trkpt lat="45.36083" lon="5.51262">
        <ele>395.72</ele>
        <time>2021-04-25T10:28:19Z</time>
      </trkpt>
      <trkpt lat="45.36083" lon="5.51262">
        <ele>395.72</ele>
        <time>2021-04-25T10:28:29Z</time>
      </trkpt>
      <trkpt lat="45.36083" lon="5.51262">
        <ele>395.72</ele>
        <time>2021-04-25T10:28:39Z</time>
      </trkpt>
      <trkpt lat="45.36083" lon="5.51262">
        <ele>395.72</ele>
        <time>2021-04-25T10:28:49Z</time>
      </trkpt>
      <trkpt lat="45.36083" lon="5.51262">
        <ele>395.72</ele>
        <time>2021-04-25T10:28:59Z</time>
      </trkpt>
      <trkpt lat="45.36083" lon="5.51262">
        <ele>395.72</ele>
        <time>2021-04-25T10:29:09Z</time>
      </trkpt>
      <trkpt lat="45.36083" lon="5.51262">
        <ele>395.72</ele>
        <time>2021-04-25T10:29:19Z</time>
      </trkpt>
      <trkpt lat="45.36083" lon="5.51262">
        <ele>395.72</ele>
        <time>2021-04-25T10:29:29Z</time>
      </trkpt>
      <trkpt lat="45.36084" lon="5.51263">
        <ele>395.72</ele>
        <time>2021-04-25T10:29:39Z</time>
      </trkpt>
      <trkpt lat="45.36084" lon="5.51263">
        <ele>395.72</ele>
        <time>2021-04-25T10:29:49Z</time>
      </trkpt>
      <trkpt lat="45.36083" lon="5.51264">
        <ele>395.72</ele>
        <time>2021-04-25T10:29:59Z</time>
      </trkpt>
      <trkpt lat="45.36083" lon="5.51264">
        <ele>395.72</ele>
        <time>2021-04-25T10:30:09Z</time>
      </trkpt>
      <trkpt lat="45.36082" lon="5.51264">
        <ele>395.72</ele>
        <time>2021-04-25T10:30:19Z</time>
      </trkpt>
      <trkpt lat="45.36082" lon="5.51265">
        <ele>395.72</ele>
        <time>2021-04-25T10:30:29Z</time>
      </trkpt>
      <trkpt lat="45.36082" lon="5.51265">
        <ele>395.72</ele>
        <time>2021-04-25T10:30:39Z</time>
      </trkpt>
      <trkpt lat="45.36082" lon="5.51265">
        <ele>395.72</ele>
        <time>2021-04-25T10:30:49Z</time>
      </trkpt>
      <trkpt lat="45.36082" lon="5.51265">
        <ele>395.72</ele>
        <time>2021-04-25T10:30:59Z</time>
      </trkpt>
      <trkpt lat="45.36082" lon="5.51265">
        <ele>396.2</ele>
        <time>2021-04-25T10:31:09Z</time>
      </trkpt>
      <trkpt lat="45.36082" lon="5.51264">
        <ele>395.72</ele>
        <time>2021-04-25T10:31:19Z</time>
      </trkpt>
      <trkpt lat="45.36082" lon="5.51264">
        <ele>396.2</ele>
        <time>2021-04-25T10:31:29Z</time>
      </trkpt>
      <trkpt lat="45.36083" lon="5.51264">
        <ele>396.2</ele>
        <time>2021-04-25T10:31:39Z</time>
      </trkpt>
      <trkpt lat="45.36083" lon="5.51264">
        <ele>396.2</ele>
        <time>2021-04-25T10:31:49Z</time>
      </trkpt>
      <trkpt lat="45.36082" lon="5.51264">
        <ele>396.2</ele>
        <time>2021-04-25T10:31:59Z</time>
      </trkpt>
      <trkpt lat="45.36082" lon="5.51265">
        <ele>396.2</ele>
        <time>2021-04-25T10:32:09Z</time>
      </trkpt>
      <trkpt lat="45.36083" lon="5.51265">
        <ele>396.2</ele>
        <time>2021-04-25T10:32:19Z</time>
      </trkpt>
      <trkpt lat="45.36083" lon="5.51265">
        <ele>396.2</ele>
        <time>2021-04-25T10:32:29Z</time>
      </trkpt>
      <trkpt lat="45.36082" lon="5.51265">
        <ele>396.2</ele>
        <time>2021-04-25T10:32:39Z</time>
      </trkpt>
      <trkpt lat="45.36082" lon="5.51265">
        <ele>396.2</ele>
        <time>2021-04-25T10:32:49Z</time>
      </trkpt>
      <trkpt lat="45.36082" lon="5.51264">
        <ele>396.2</ele>
        <time>2021-04-25T10:32:59Z</time>
      </trkpt>
      <trkpt lat="45.36082" lon="5.51264">
        <ele>396.2</ele>
        <time>2021-04-25T10:33:09Z</time>
      </trkpt>
      <trkpt lat="45.36082" lon="5.51264">
        <ele>396.2</ele>
        <time>2021-04-25T10:33:19Z</time>
      </trkpt>
      <trkpt lat="45.36082" lon="5.51263">
        <ele>396.2</ele>
        <time>2021-04-25T10:33:29Z</time>
      </trkpt>
      <trkpt lat="45.36082" lon="5.51263">
        <ele>396.2</ele>
        <time>2021-04-25T10:33:39Z</time>
      </trkpt>
      <trkpt lat="45.36082" lon="5.51262">
        <ele>396.2</ele>
        <time>2021-04-25T10:33:49Z</time>
      </trkpt>
      <trkpt lat="45.36082" lon="5.51262">
        <ele>396.68</ele>
        <time>2021-04-25T10:33:59Z</time>
      </trkpt>
      <trkpt lat="45.36082" lon="5.51261">
        <ele>396.2</ele>
        <time>2021-04-25T10:34:09Z</time>
      </trkpt>
      <trkpt lat="45.36082" lon="5.51261">
        <ele>396.2</ele>
        <time>2021-04-25T10:34:19Z</time>
      </trkpt>
      <trkpt lat="45.36082" lon="5.51261">
        <ele>396.2</ele>
        <time>2021-04-25T10:34:29Z</time>
      </trkpt>
      <trkpt lat="45.36082" lon="5.51261">
        <ele>396.68</ele>
        <time>2021-04-25T10:34:39Z</time>
      </trkpt>
      <trkpt lat="45.36083" lon="5.51261">
        <ele>396.2</ele>
        <time>2021-04-25T10:34:49Z</time>
      </trkpt>
      <trkpt lat="45.36083" lon="5.5126">
        <ele>396.68</ele>
        <time>2021-04-25T10:34:59Z</time>
      </trkpt>
      <trkpt lat="45.36083" lon="5.5126">
        <ele>396.2</ele>
        <time>2021-04-25T10:35:09Z</time>
      </trkpt>
      <trkpt lat="45.3608" lon="5.51256">
        <ele>396.68</ele>
        <time>2021-04-25T10:35:19Z</time>
      </trkpt>
      <trkpt lat="45.36069" lon="5.51241">
        <ele>396.68</ele>
        <time>2021-04-25T10:35:29Z</time>
      </trkpt>
      <trkpt lat="45.36058" lon="5.51222">
        <ele>396.68</ele>
        <time>2021-04-25T10:35:39Z</time>
      </trkpt>
      <trkpt lat="45.36044" lon="5.51202">
        <ele>396.68</ele>
        <time>2021-04-25T10:35:49Z</time>
      </trkpt>
      <trkpt lat="45.36032" lon="5.51182">
        <ele>397.16</ele>
        <time>2021-04-25T10:35:59Z</time>
      </trkpt>
      <trkpt lat="45.36019" lon="5.51161">
        <ele>397.16</ele>
        <time>2021-04-25T10:36:09Z</time>
      </trkpt>
      <trkpt lat="45.36005" lon="5.51139">
        <ele>397.64</ele>
        <time>2021-04-25T10:36:19Z</time>
      </trkpt>
      <trkpt lat="45.3599" lon="5.51118">
        <ele>397.64</ele>
        <time>2021-04-25T10:36:29Z</time>
      </trkpt>
      <trkpt lat="45.35974" lon="5.51093">
        <ele>397.64</ele>
        <time>2021-04-25T10:36:39Z</time>
      </trkpt>
      <trkpt lat="45.35965" lon="5.51071">
        <ele>397.64</ele>
        <time>2021-04-25T10:36:49Z</time>
      </trkpt>
      <trkpt lat="45.35954" lon="5.51084">
        <ele>394.76</ele>
        <time>2021-04-25T10:36:59Z</time>
      </trkpt>
      <trkpt lat="45.35945" lon="5.51077">
        <ele>389.95</ele>
        <time>2021-04-25T10:37:09Z</time>
      </trkpt>
      <trkpt lat="45.35931" lon="5.51056">
        <ele>384.66</ele>
        <time>2021-04-25T10:37:19Z</time>
      </trkpt>
      <trkpt lat="45.35948" lon="5.5104">
        <ele>383.22</ele>
        <time>2021-04-25T10:37:29Z</time>
      </trkpt>
      <trkpt lat="45.35977" lon="5.5101">
        <ele>381.3</ele>
        <time>2021-04-25T10:37:39Z</time>
      </trkpt>
      <trkpt lat="45.36011" lon="5.50998">
        <ele>380.82</ele>
        <time>2021-04-25T10:37:49Z</time>
      </trkpt>
      <trkpt lat="45.36046" lon="5.50959">
        <ele>377.45</ele>
        <time>2021-04-25T10:37:59Z</time>
      </trkpt>
      <trkpt lat="45.36069" lon="5.50901">
        <ele>375.53</ele>
        <time>2021-04-25T10:38:09Z</time>
      </trkpt>
      <trkpt lat="45.36076" lon="5.50878">
        <ele>378.9</ele>
        <time>2021-04-25T10:38:19Z</time>
      </trkpt>
      <trkpt lat="45.3608" lon="5.50853">
        <ele>381.3</ele>
        <time>2021-04-25T10:38:29Z</time>
      </trkpt>
      <trkpt lat="45.36081" lon="5.50829">
        <ele>382.26</ele>
        <time>2021-04-25T10:38:39Z</time>
      </trkpt>
      <trkpt lat="45.36078" lon="5.50793">
        <ele>379.38</ele>
        <time>2021-04-25T10:38:49Z</time>
      </trkpt>
      <trkpt lat="45.36079" lon="5.50756">
        <ele>377.45</ele>
        <time>2021-04-25T10:38:59Z</time>
      </trkpt>
      <trkpt lat="45.36074" lon="5.50689">
        <ele>373.61</ele>
        <time>2021-04-25T10:39:09Z</time>
      </trkpt>
      <trkpt lat="45.36054" lon="5.50626">
        <ele>367.36</ele>
        <time>2021-04-25T10:39:19Z</time>
      </trkpt>
      <trkpt lat="45.3603" lon="5.50563">
        <ele>361.11</ele>
        <time>2021-04-25T10:39:29Z</time>
      </trkpt>
      <trkpt lat="45.3598" lon="5.50498">
        <ele>352.94</ele>
        <time>2021-04-25T10:39:39Z</time>
      </trkpt>
      <trkpt lat="45.35983" lon="5.50446">
        <ele>353.9</ele>
        <time>2021-04-25T10:39:49Z</time>
      </trkpt>
      <trkpt lat="45.35996" lon="5.50418">
        <ele>353.9</ele>
        <time>2021-04-25T10:39:59Z</time>
      </trkpt>
      <trkpt lat="45.35972" lon="5.50412">
        <ele>346.69</ele>
        <time>2021-04-25T10:40:09Z</time>
      </trkpt>
      <trkpt lat="45.35978" lon="5.5039">
        <ele>345.73</ele>
        <time>2021-04-25T10:40:19Z</time>
      </trkpt>
      <trkpt lat="45.35986" lon="5.5036">
        <ele>345.73</ele>
        <time>2021-04-25T10:40:29Z</time>
      </trkpt>
      <trkpt lat="45.35998" lon="5.50331">
        <ele>345.25</ele>
        <time>2021-04-25T10:40:39Z</time>
      </trkpt>
      <trkpt lat="45.36016" lon="5.50308">
        <ele>345.73</ele>
        <time>2021-04-25T10:40:49Z</time>
      </trkpt>
      <trkpt lat="45.36029" lon="5.50301">
        <ele>346.21</ele>
        <time>2021-04-25T10:40:59Z</time>
      </trkpt>
      <trkpt lat="45.36047" lon="5.50289">
        <ele>346.21</ele>
        <time>2021-04-25T10:41:09Z</time>
      </trkpt>
      <trkpt lat="45.36074" lon="5.50286">
        <ele>346.69</ele>
        <time>2021-04-25T10:41:19Z</time>
      </trkpt>
      <trkpt lat="45.36099" lon="5.50283">
        <ele>345.73</ele>
        <time>2021-04-25T10:41:29Z</time>
      </trkpt>
      <trkpt lat="45.36124" lon="5.50283">
        <ele>346.69</ele>
        <time>2021-04-25T10:41:39Z</time>
      </trkpt>
      <trkpt lat="45.3615" lon="5.50285">
        <ele>347.65</ele>
        <time>2021-04-25T10:41:49Z</time>
      </trkpt>
      <trkpt lat="45.36168" lon="5.50287">
        <ele>349.1</ele>
        <time>2021-04-25T10:41:59Z</time>
      </trkpt>
      <trkpt lat="45.36179" lon="5.50285">
        <ele>350.06</ele>
        <time>2021-04-25T10:42:09Z</time>
      </trkpt>
      <trkpt lat="45.36194" lon="5.50276">
        <ele>351.02</ele>
        <time>2021-04-25T10:42:19Z</time>
      </trkpt>
      <trkpt lat="45.36211" lon="5.50262">
        <ele>351.5</ele>
        <time>2021-04-25T10:42:29Z</time>
      </trkpt>
      <trkpt lat="45.36223" lon="5.50244">
        <ele>351.5</ele>
        <time>2021-04-25T10:42:39Z</time>
      </trkpt>
      <trkpt lat="45.36238" lon="5.50173">
        <ele>348.62</ele>
        <time>2021-04-25T10:42:49Z</time>
      </trkpt>
      <trkpt lat="45.36231" lon="5.50124">
        <ele>349.58</ele>
        <time>2021-04-25T10:42:59Z</time>
      </trkpt>
      <trkpt lat="45.36216" lon="5.50091">
        <ele>350.54</ele>
        <time>2021-04-25T10:43:09Z</time>
      </trkpt>
      <trkpt lat="45.362" lon="5.5007">
        <ele>351.02</ele>
        <time>2021-04-25T10:43:19Z</time>
      </trkpt>
      <trkpt lat="45.36179" lon="5.50063">
        <ele>350.54</ele>
        <time>2021-04-25T10:43:29Z</time>
      </trkpt>
      <trkpt lat="45.36177" lon="5.50063">
        <ele>351.02</ele>
        <time>2021-04-25T10:43:39Z</time>
      </trkpt>
      <trkpt lat="45.36176" lon="5.50062">
        <ele>351.02</ele>
        <time>2021-04-25T10:43:49Z</time>
      </trkpt>
      <trkpt lat="45.36175" lon="5.50059">
        <ele>351.5</ele>
        <time>2021-04-25T10:43:59Z</time>
      </trkpt>
      <trkpt lat="45.36171" lon="5.50059">
        <ele>351.02</ele>
        <time>2021-04-25T10:44:09Z</time>
      </trkpt>
      <trkpt lat="45.36166" lon="5.50065">
        <ele>352.46</ele>
        <time>2021-04-25T10:44:19Z</time>
      </trkpt>
      <trkpt lat="45.36165" lon="5.50068">
        <ele>353.9</ele>
        <time>2021-04-25T10:44:29Z</time>
      </trkpt>
      <trkpt lat="45.36166" lon="5.50068">
        <ele>353.9</ele>
        <time>2021-04-25T10:44:39Z</time>
      </trkpt>
      <trkpt lat="45.36166" lon="5.50069">
        <ele>353.9</ele>
        <time>2021-04-25T10:44:49Z</time>
      </trkpt>
      <trkpt lat="45.36165" lon="5.50069">
        <ele>353.9</ele>
        <time>2021-04-25T10:44:59Z</time>
      </trkpt>
      <trkpt lat="45.36164" lon="5.5007">
        <ele>353.9</ele>
        <time>2021-04-25T10:45:09Z</time>
      </trkpt>
      <trkpt lat="45.36164" lon="5.5007">
        <ele>353.9</ele>
        <time>2021-04-25T10:45:19Z</time>
      </trkpt>
      <trkpt lat="45.36164" lon="5.50071">
        <ele>353.9</ele>
        <time>2021-04-25T10:45:29Z</time>
      </trkpt>
      <trkpt lat="45.36164" lon="5.5007">
        <ele>353.9</ele>
        <time>2021-04-25T10:45:39Z</time>
      </trkpt>
      <trkpt lat="45.36163" lon="5.50071">
        <ele>353.9</ele>
        <time>2021-04-25T10:45:49Z</time>
      </trkpt>
      <trkpt lat="45.36163" lon="5.50071">
        <ele>353.9</ele>
        <time>2021-04-25T10:45:59Z</time>
      </trkpt>
      <trkpt lat="45.36163" lon="5.50071">
        <ele>353.9</ele>
        <time>2021-04-25T10:46:09Z</time>
      </trkpt>
      <trkpt lat="45.36163" lon="5.50071">
        <ele>353.9</ele>
        <time>2021-04-25T10:46:19Z</time>
      </trkpt>
      <trkpt lat="45.36163" lon="5.5007">
        <ele>353.9</ele>
        <time>2021-04-25T10:46:29Z</time>
      </trkpt>
      <trkpt lat="45.36162" lon="5.50071">
        <ele>353.9</ele>
        <time>2021-04-25T10:46:39Z</time>
      </trkpt>
      <trkpt lat="45.36162" lon="5.50071">
        <ele>353.9</ele>
        <time>2021-04-25T10:46:49Z</time>
      </trkpt>
      <trkpt lat="45.36161" lon="5.50073">
        <ele>354.38</ele>
        <time>2021-04-25T10:46:59Z</time>
      </trkpt>
      <trkpt lat="45.36171" lon="5.5009">
        <ele>354.38</ele>
        <time>2021-04-25T10:47:09Z</time>
      </trkpt>
      <trkpt lat="45.36182" lon="5.50113">
        <ele>354.38</ele>
        <time>2021-04-25T10:47:19Z</time>
      </trkpt>
      <trkpt lat="45.36195" lon="5.50135">
        <ele>354.38</ele>
        <time>2021-04-25T10:47:29Z</time>
      </trkpt>
      <trkpt lat="45.36202" lon="5.50156">
        <ele>354.38</ele>
        <time>2021-04-25T10:47:39Z</time>
      </trkpt>
      <trkpt lat="45.36194" lon="5.5019">
        <ele>354.38</ele>
        <time>2021-04-25T10:47:49Z</time>
      </trkpt>
      <trkpt lat="45.36184" lon="5.50214">
        <ele>353.9</ele>
        <time>2021-04-25T10:47:59Z</time>
      </trkpt>
      <trkpt lat="45.36168" lon="5.50221">
        <ele>354.38</ele>
        <time>2021-04-25T10:48:09Z</time>
      </trkpt>
      <trkpt lat="45.36141" lon="5.50222">
        <ele>354.38</ele>
        <time>2021-04-25T10:48:19Z</time>
      </trkpt>
      <trkpt lat="45.36119" lon="5.50216">
        <ele>355.34</ele>
        <time>2021-04-25T10:48:29Z</time>
      </trkpt>
      <trkpt lat="45.36092" lon="5.5022">
        <ele>355.83</ele>
        <time>2021-04-25T10:48:39Z</time>
      </trkpt>
      <trkpt lat="45.36078" lon="5.50221">
        <ele>355.83</ele>
        <time>2021-04-25T10:48:49Z</time>
      </trkpt>
      <trkpt lat="45.36075" lon="5.5022">
        <ele>355.83</ele>
        <time>2021-04-25T10:48:59Z</time>
      </trkpt>
      <trkpt lat="45.36067" lon="5.50216">
        <ele>356.31</ele>
        <time>2021-04-25T10:49:09Z</time>
      </trkpt>
      <trkpt lat="45.36059" lon="5.50219">
        <ele>356.31</ele>
        <time>2021-04-25T10:49:19Z</time>
      </trkpt>
      <trkpt lat="45.36056" lon="5.50219">
        <ele>356.31</ele>
        <time>2021-04-25T10:49:29Z</time>
      </trkpt>
      <trkpt lat="45.36047" lon="5.50216">
        <ele>356.31</ele>
        <time>2021-04-25T10:49:39Z</time>
      </trkpt>
      <trkpt lat="45.36021" lon="5.50222">
        <ele>356.31</ele>
        <time>2021-04-25T10:49:49Z</time>
      </trkpt>
      <trkpt lat="45.35996" lon="5.50225">
        <ele>356.31</ele>
        <time>2021-04-25T10:49:59Z</time>
      </trkpt>
      <trkpt lat="45.35971" lon="5.50226">
        <ele>356.31</ele>
        <time>2021-04-25T10:50:09Z</time>
      </trkpt>
      <trkpt lat="45.35954" lon="5.50237">
        <ele>356.31</ele>
        <time>2021-04-25T10:50:19Z</time>
      </trkpt>
      <trkpt lat="45.35938" lon="5.50261">
        <ele>355.83</ele>
        <time>2021-04-25T10:50:29Z</time>
      </trkpt>
      <trkpt lat="45.35927" lon="5.5029">
        <ele>356.31</ele>
        <time>2021-04-25T10:50:39Z</time>
      </trkpt>
      <trkpt lat="45.35912" lon="5.50337">
        <ele>356.31</ele>
        <time>2021-04-25T10:50:49Z</time>
      </trkpt>
      <trkpt lat="45.35901" lon="5.50365">
        <ele>356.31</ele>
        <time>2021-04-25T10:50:59Z</time>
      </trkpt>
      <trkpt lat="45.35899" lon="5.50394">
        <ele>356.31</ele>
        <time>2021-04-25T10:51:09Z</time>
      </trkpt>
      <trkpt lat="45.35896" lon="5.50406">
        <ele>356.31</ele>
        <time>2021-04-25T10:51:19Z</time>
      </trkpt>
      <trkpt lat="45.35892" lon="5.50401">
        <ele>356.79</ele>
        <time>2021-04-25T10:51:29Z</time>
      </trkpt>
      <trkpt lat="45.35888" lon="5.50401">
        <ele>357.75</ele>
        <time>2021-04-25T10:51:39Z</time>
      </trkpt>
      <trkpt lat="45.35884" lon="5.50404">
        <ele>358.71</ele>
        <time>2021-04-25T10:51:49Z</time>
      </trkpt>
      <trkpt lat="45.35884" lon="5.50406">
        <ele>358.71</ele>
        <time>2021-04-25T10:51:59Z</time>
      </trkpt>
      <trkpt lat="45.35885" lon="5.50406">
        <ele>358.71</ele>
        <time>2021-04-25T10:52:09Z</time>
      </trkpt>
      <trkpt lat="45.35884" lon="5.50407">
        <ele>358.71</ele>
        <time>2021-04-25T10:52:19Z</time>
      </trkpt>
      <trkpt lat="45.35883" lon="5.50407">
        <ele>358.71</ele>
        <time>2021-04-25T10:52:29Z</time>
      </trkpt>
      <trkpt lat="45.35881" lon="5.50411">
        <ele>360.15</ele>
        <time>2021-04-25T10:52:39Z</time>
      </trkpt>
      <trkpt lat="45.35878" lon="5.50423">
        <ele>362.07</ele>
        <time>2021-04-25T10:52:49Z</time>
      </trkpt>
      <trkpt lat="45.35877" lon="5.50427">
        <ele>362.07</ele>
        <time>2021-04-25T10:52:59Z</time>
      </trkpt>
      <trkpt lat="45.3587" lon="5.50441">
        <ele>364.96</ele>
        <time>2021-04-25T10:53:09Z</time>
      </trkpt>
      <trkpt lat="45.35866" lon="5.50456">
        <ele>367.36</ele>
        <time>2021-04-25T10:53:19Z</time>
      </trkpt>
      <trkpt lat="45.35862" lon="5.50471">
        <ele>369.76</ele>
        <time>2021-04-25T10:53:29Z</time>
      </trkpt>
      <trkpt lat="45.35858" lon="5.50482">
        <ele>371.69</ele>
        <time>2021-04-25T10:53:39Z</time>
      </trkpt>
      <trkpt lat="45.35856" lon="5.50494">
        <ele>374.57</ele>
        <time>2021-04-25T10:53:49Z</time>
      </trkpt>
      <trkpt lat="45.3585" lon="5.50511">
        <ele>376.49</ele>
        <time>2021-04-25T10:53:59Z</time>
      </trkpt>
      <trkpt lat="45.35847" lon="5.50526">
        <ele>378.9</ele>
        <time>2021-04-25T10:54:09Z</time>
      </trkpt>
      <trkpt lat="45.35841" lon="5.50537">
        <ele>380.34</ele>
        <time>2021-04-25T10:54:19Z</time>
      </trkpt>
      <trkpt lat="45.35839" lon="5.50525">
        <ele>381.78</ele>
        <time>2021-04-25T10:54:29Z</time>
      </trkpt>
      <trkpt lat="45.35838" lon="5.50513">
        <ele>382.74</ele>
        <time>2021-04-25T10:54:39Z</time>
      </trkpt>
      <trkpt lat="45.35836" lon="5.50499">
        <ele>384.18</ele>
        <time>2021-04-25T10:54:49Z</time>
      </trkpt>
      <trkpt lat="45.35835" lon="5.50485">
        <ele>385.15</ele>
        <time>2021-04-25T10:54:59Z</time>
      </trkpt>
      <trkpt lat="45.35831" lon="5.50473">
        <ele>386.59</ele>
        <time>2021-04-25T10:55:09Z</time>
      </trkpt>
      <trkpt lat="45.35828" lon="5.50458">
        <ele>387.55</ele>
        <time>2021-04-25T10:55:19Z</time>
      </trkpt>
      <trkpt lat="45.35825" lon="5.50443">
        <ele>388.99</ele>
        <time>2021-04-25T10:55:29Z</time>
      </trkpt>
      <trkpt lat="45.35821" lon="5.50429">
        <ele>390.43</ele>
        <time>2021-04-25T10:55:39Z</time>
      </trkpt>
      <trkpt lat="45.35821" lon="5.50415">
        <ele>391.39</ele>
        <time>2021-04-25T10:55:49Z</time>
      </trkpt>
      <trkpt lat="45.3582" lon="5.50394">
        <ele>390.91</ele>
        <time>2021-04-25T10:55:59Z</time>
      </trkpt>
      <trkpt lat="45.35821" lon="5.50358">
        <ele>388.51</ele>
        <time>2021-04-25T10:56:09Z</time>
      </trkpt>
      <trkpt lat="45.35839" lon="5.5033">
        <ele>389.95</ele>
        <time>2021-04-25T10:56:19Z</time>
      </trkpt>
      <trkpt lat="45.35839" lon="5.50309">
        <ele>392.36</ele>
        <time>2021-04-25T10:56:29Z</time>
      </trkpt>
      <trkpt lat="45.35838" lon="5.50309">
        <ele>392.36</ele>
        <time>2021-04-25T10:56:39Z</time>
      </trkpt>
      <trkpt lat="45.35847" lon="5.50285">
        <ele>391.39</ele>
        <time>2021-04-25T10:56:49Z</time>
      </trkpt>
      <trkpt lat="45.35853" lon="5.50262">
        <ele>390.91</ele>
        <time>2021-04-25T10:56:59Z</time>
      </trkpt>
      <trkpt lat="45.35861" lon="5.50245">
        <ele>390.43</ele>
        <time>2021-04-25T10:57:09Z</time>
      </trkpt>
      <trkpt lat="45.35863" lon="5.50242">
        <ele>390.43</ele>
        <time>2021-04-25T10:57:19Z</time>
      </trkpt>
      <trkpt lat="45.35864" lon="5.50242">
        <ele>390.43</ele>
        <time>2021-04-25T10:57:29Z</time>
      </trkpt>
      <trkpt lat="45.35871" lon="5.50234">
        <ele>389.95</ele>
        <time>2021-04-25T10:57:39Z</time>
      </trkpt>
      <trkpt lat="45.35885" lon="5.50218">
        <ele>389.47</ele>
        <time>2021-04-25T10:57:49Z</time>
      </trkpt>
      <trkpt lat="45.35896" lon="5.50203">
        <ele>389.95</ele>
        <time>2021-04-25T10:57:59Z</time>
      </trkpt>
      <trkpt lat="45.35911" lon="5.50188">
        <ele>390.91</ele>
        <time>2021-04-25T10:58:09Z</time>
      </trkpt>
      <trkpt lat="45.35927" lon="5.50169">
        <ele>390.91</ele>
        <time>2021-04-25T10:58:19Z</time>
      </trkpt>
      <trkpt lat="45.35941" lon="5.50158">
        <ele>391.87</ele>
        <time>2021-04-25T10:58:29Z</time>
      </trkpt>
      <trkpt lat="45.35961" lon="5.50153">
        <ele>391.87</ele>
        <time>2021-04-25T10:58:39Z</time>
      </trkpt>
      <trkpt lat="45.35983" lon="5.50142">
        <ele>393.8</ele>
        <time>2021-04-25T10:58:49Z</time>
      </trkpt>
      <trkpt lat="45.36" lon="5.50127">
        <ele>397.16</ele>
        <time>2021-04-25T10:58:59Z</time>
      </trkpt>
      <trkpt lat="45.36004" lon="5.50122">
        <ele>398.6</ele>
        <time>2021-04-25T10:59:09Z</time>
      </trkpt>
      <trkpt lat="45.36006" lon="5.5012">
        <ele>399.57</ele>
        <time>2021-04-25T10:59:19Z</time>
      </trkpt>
      <trkpt lat="45.36012" lon="5.50117">
        <ele>400.53</ele>
        <time>2021-04-25T10:59:29Z</time>
      </trkpt>
      <trkpt lat="45.36021" lon="5.50108">
        <ele>401.49</ele>
        <time>2021-04-25T10:59:39Z</time>
      </trkpt>
      <trkpt lat="45.36026" lon="5.50101">
        <ele>401.49</ele>
        <time>2021-04-25T10:59:49Z</time>
      </trkpt>
      <trkpt lat="45.36031" lon="5.50102">
        <ele>401.01</ele>
        <time>2021-04-25T10:59:59Z</time>
      </trkpt>
      <trkpt lat="45.36047" lon="5.50106">
        <ele>401.01</ele>
        <time>2021-04-25T11:00:09Z</time>
      </trkpt>
      <trkpt lat="45.36063" lon="5.50102">
        <ele>401.49</ele>
        <time>2021-04-25T11:00:19Z</time>
      </trkpt>
      <trkpt lat="45.36075" lon="5.50099">
        <ele>400.05</ele>
        <time>2021-04-25T11:00:29Z</time>
      </trkpt>
      <trkpt lat="45.36071" lon="5.50084">
        <ele>400.05</ele>
        <time>2021-04-25T11:00:39Z</time>
      </trkpt>
      <trkpt lat="45.36066" lon="5.50061">
        <ele>396.68</ele>
        <time>2021-04-25T11:00:49Z</time>
      </trkpt>
      <trkpt lat="45.36056" lon="5.50033">
        <ele>397.16</ele>
        <time>2021-04-25T11:00:59Z</time>
      </trkpt>
      <trkpt lat="45.36048" lon="5.49994">
        <ele>394.76</ele>
        <time>2021-04-25T11:01:09Z</time>
      </trkpt>
      <trkpt lat="45.36038" lon="5.49974">
        <ele>394.76</ele>
        <time>2021-04-25T11:01:19Z</time>
      </trkpt>
      <trkpt lat="45.36025" lon="5.49951">
        <ele>398.12</ele>
        <time>2021-04-25T11:01:29Z</time>
      </trkpt>
      <trkpt lat="45.36014" lon="5.49936">
        <ele>401.49</ele>
        <time>2021-04-25T11:01:39Z</time>
      </trkpt>
      <trkpt lat="45.36014" lon="5.49932">
        <ele>401.97</ele>
        <time>2021-04-25T11:01:49Z</time>
      </trkpt>
      <trkpt lat="45.36013" lon="5.49932">
        <ele>401.97</ele>
        <time>2021-04-25T11:01:59Z</time>
      </trkpt>
      <trkpt lat="45.36014" lon="5.4993">
        <ele>401.97</ele>
        <time>2021-04-25T11:02:09Z</time>
      </trkpt>
      <trkpt lat="45.36015" lon="5.49929">
        <ele>401.97</ele>
        <time>2021-04-25T11:02:19Z</time>
      </trkpt>
      <trkpt lat="45.36014" lon="5.49929">
        <ele>401.97</ele>
        <time>2021-04-25T11:02:29Z</time>
      </trkpt>
      <trkpt lat="45.36014" lon="5.49929">
        <ele>402.45</ele>
        <time>2021-04-25T11:02:39Z</time>
      </trkpt>
      <trkpt lat="45.36014" lon="5.49929">
        <ele>401.97</ele>
        <time>2021-04-25T11:02:49Z</time>
      </trkpt>
      <trkpt lat="45.36015" lon="5.49929">
        <ele>402.45</ele>
        <time>2021-04-25T11:02:59Z</time>
      </trkpt>
      <trkpt lat="45.36015" lon="5.49929">
        <ele>402.45</ele>
        <time>2021-04-25T11:03:09Z</time>
      </trkpt>
      <trkpt lat="45.36014" lon="5.49929">
        <ele>402.45</ele>
        <time>2021-04-25T11:03:19Z</time>
      </trkpt>
      <trkpt lat="45.36015" lon="5.49925">
        <ele>401.01</ele>
        <time>2021-04-25T11:03:29Z</time>
      </trkpt>
      <trkpt lat="45.36015" lon="5.49923">
        <ele>400.53</ele>
        <time>2021-04-25T11:03:39Z</time>
      </trkpt>
      <trkpt lat="45.36018" lon="5.49912">
        <ele>397.16</ele>
        <time>2021-04-25T11:03:49Z</time>
      </trkpt>
      <trkpt lat="45.36021" lon="5.49903">
        <ele>394.76</ele>
        <time>2021-04-25T11:03:59Z</time>
      </trkpt>
      <trkpt lat="45.36023" lon="5.49878">
        <ele>389.95</ele>
        <time>2021-04-25T11:04:09Z</time>
      </trkpt>
      <trkpt lat="45.36029" lon="5.4985">
        <ele>390.43</ele>
        <time>2021-04-25T11:04:19Z</time>
      </trkpt>
      <trkpt lat="45.36042" lon="5.49818">
        <ele>387.07</ele>
        <time>2021-04-25T11:04:29Z</time>
      </trkpt>
      <trkpt lat="45.3604" lon="5.49795">
        <ele>387.55</ele>
        <time>2021-04-25T11:04:39Z</time>
      </trkpt>
      <trkpt lat="45.36053" lon="5.49771">
        <ele>386.11</ele>
        <time>2021-04-25T11:04:49Z</time>
      </trkpt>
      <trkpt lat="45.36093" lon="5.4971">
        <ele>380.34</ele>
        <time>2021-04-25T11:04:59Z</time>
      </trkpt>
      <trkpt lat="45.36135" lon="5.49646">
        <ele>374.09</ele>
        <time>2021-04-25T11:05:09Z</time>
      </trkpt>
      <trkpt lat="45.36179" lon="5.49616">
        <ele>370.73</ele>
        <time>2021-04-25T11:05:19Z</time>
      </trkpt>
      <trkpt lat="45.36204" lon="5.49576">
        <ele>370.73</ele>
        <time>2021-04-25T11:05:29Z</time>
      </trkpt>
      <trkpt lat="45.36235" lon="5.49523">
        <ele>367.36</ele>
        <time>2021-04-25T11:05:39Z</time>
      </trkpt>
      <trkpt lat="45.36263" lon="5.49497">
        <ele>362.07</ele>
        <time>2021-04-25T11:05:49Z</time>
      </trkpt>
      <trkpt lat="45.36349" lon="5.49554">
        <ele>362.07</ele>
        <time>2021-04-25T11:05:59Z</time>
      </trkpt>
      <trkpt lat="45.36403" lon="5.49588">
        <ele>362.07</ele>
        <time>2021-04-25T11:06:09Z</time>
      </trkpt>
      <trkpt lat="45.36426" lon="5.49622">
        <ele>363.52</ele>
        <time>2021-04-25T11:06:19Z</time>
      </trkpt>
      <trkpt lat="45.36444" lon="5.49659">
        <ele>363.52</ele>
        <time>2021-04-25T11:06:29Z</time>
      </trkpt>
      <trkpt lat="45.36467" lon="5.49697">
        <ele>364</ele>
        <time>2021-04-25T11:06:39Z</time>
      </trkpt>
      <trkpt lat="45.36492" lon="5.49732">
        <ele>363.52</ele>
        <time>2021-04-25T11:06:49Z</time>
      </trkpt>
      <trkpt lat="45.36521" lon="5.49749">
        <ele>364.48</ele>
        <time>2021-04-25T11:06:59Z</time>
      </trkpt>
      <trkpt lat="45.36555" lon="5.49747">
        <ele>364.48</ele>
        <time>2021-04-25T11:07:09Z</time>
      </trkpt>
      <trkpt lat="45.36588" lon="5.49736">
        <ele>364.48</ele>
        <time>2021-04-25T11:07:19Z</time>
      </trkpt>
      <trkpt lat="45.3661" lon="5.49717">
        <ele>366.88</ele>
        <time>2021-04-25T11:07:29Z</time>
      </trkpt>
      <trkpt lat="45.36639" lon="5.49701">
        <ele>367.84</ele>
        <time>2021-04-25T11:07:39Z</time>
      </trkpt>
      <trkpt lat="45.36679" lon="5.49683">
        <ele>366.88</ele>
        <time>2021-04-25T11:07:49Z</time>
      </trkpt>
      <trkpt lat="45.36718" lon="5.49669">
        <ele>366.88</ele>
        <time>2021-04-25T11:07:59Z</time>
      </trkpt>
      <trkpt lat="45.36749" lon="5.49639">
        <ele>367.36</ele>
        <time>2021-04-25T11:08:09Z</time>
      </trkpt>
      <trkpt lat="45.36779" lon="5.49625">
        <ele>367.36</ele>
        <time>2021-04-25T11:08:19Z</time>
      </trkpt>
      <trkpt lat="45.3681" lon="5.49612">
        <ele>367.36</ele>
        <time>2021-04-25T11:08:29Z</time>
      </trkpt>
      <trkpt lat="45.36852" lon="5.49592">
        <ele>367.36</ele>
        <time>2021-04-25T11:08:39Z</time>
      </trkpt>
      <trkpt lat="45.36879" lon="5.4955">
        <ele>370.73</ele>
        <time>2021-04-25T11:08:49Z</time>
      </trkpt>
      <trkpt lat="45.369" lon="5.49533">
        <ele>370.73</ele>
        <time>2021-04-25T11:08:59Z</time>
      </trkpt>
      <trkpt lat="45.36918" lon="5.49569">
        <ele>368.32</ele>
        <time>2021-04-25T11:09:09Z</time>
      </trkpt>
      <trkpt lat="45.36936" lon="5.4961">
        <ele>368.32</ele>
        <time>2021-04-25T11:09:19Z</time>
      </trkpt>
      <trkpt lat="45.36963" lon="5.49605">
        <ele>369.28</ele>
        <time>2021-04-25T11:09:29Z</time>
      </trkpt>
      <trkpt lat="45.36994" lon="5.49593">
        <ele>369.28</ele>
        <time>2021-04-25T11:09:39Z</time>
      </trkpt>
      <trkpt lat="45.37012" lon="5.4957">
        <ele>368.8</ele>
        <time>2021-04-25T11:09:49Z</time>
      </trkpt>
      <trkpt lat="45.37025" lon="5.49563">
        <ele>368.8</ele>
        <time>2021-04-25T11:09:59Z</time>
      </trkpt>
      <trkpt lat="45.37047" lon="5.49541">
        <ele>369.28</ele>
        <time>2021-04-25T11:10:09Z</time>
      </trkpt>
      <trkpt lat="45.37072" lon="5.4952">
        <ele>369.28</ele>
        <time>2021-04-25T11:10:19Z</time>
      </trkpt>
      <trkpt lat="45.37089" lon="5.49509">
        <ele>371.69</ele>
        <time>2021-04-25T11:10:29Z</time>
      </trkpt>
      <trkpt lat="45.37107" lon="5.49515">
        <ele>371.69</ele>
        <time>2021-04-25T11:10:39Z</time>
      </trkpt>
      <trkpt lat="45.37135" lon="5.4951">
        <ele>371.69</ele>
        <time>2021-04-25T11:10:49Z</time>
      </trkpt>
      <trkpt lat="45.37157" lon="5.49488">
        <ele>371.69</ele>
        <time>2021-04-25T11:10:59Z</time>
      </trkpt>
      <trkpt lat="45.37185" lon="5.49453">
        <ele>371.69</ele>
        <time>2021-04-25T11:11:09Z</time>
      </trkpt>
      <trkpt lat="45.37199" lon="5.49421">
        <ele>371.69</ele>
        <time>2021-04-25T11:11:19Z</time>
      </trkpt>
      <trkpt lat="45.37223" lon="5.49388">
        <ele>371.69</ele>
        <time>2021-04-25T11:11:29Z</time>
      </trkpt>
      <trkpt lat="45.37241" lon="5.49356">
        <ele>372.65</ele>
        <time>2021-04-25T11:11:39Z</time>
      </trkpt>
      <trkpt lat="45.37246" lon="5.49317">
        <ele>372.17</ele>
        <time>2021-04-25T11:11:49Z</time>
      </trkpt>
      <trkpt lat="45.37252" lon="5.49283">
        <ele>372.65</ele>
        <time>2021-04-25T11:11:58Z</time>
      </trkpt>
      <trkpt lat="45.37251" lon="5.49246">
        <ele>373.61</ele>
        <time>2021-04-25T11:12:08Z</time>
      </trkpt>
      <trkpt lat="45.37251" lon="5.4921">
        <ele>373.61</ele>
        <time>2021-04-25T11:12:18Z</time>
      </trkpt>
      <trkpt lat="45.37249" lon="5.49168">
        <ele>374.09</ele>
        <time>2021-04-25T11:12:28Z</time>
      </trkpt>
      <trkpt lat="45.37251" lon="5.49129">
        <ele>374.09</ele>
        <time>2021-04-25T11:12:38Z</time>
      </trkpt>
      <trkpt lat="45.37251" lon="5.49093">
        <ele>374.57</ele>
        <time>2021-04-25T11:12:48Z</time>
      </trkpt>
      <trkpt lat="45.37249" lon="5.49059">
        <ele>376.01</ele>
        <time>2021-04-25T11:12:58Z</time>
      </trkpt>
      <trkpt lat="45.37253" lon="5.49019">
        <ele>377.45</ele>
        <time>2021-04-25T11:13:08Z</time>
      </trkpt>
      <trkpt lat="45.37261" lon="5.48992">
        <ele>378.42</ele>
        <time>2021-04-25T11:13:18Z</time>
      </trkpt>
      <trkpt lat="45.3727" lon="5.48969">
        <ele>379.86</ele>
        <time>2021-04-25T11:13:28Z</time>
      </trkpt>
      <trkpt lat="45.3728" lon="5.48954">
        <ele>381.3</ele>
        <time>2021-04-25T11:13:38Z</time>
      </trkpt>
      <trkpt lat="45.37296" lon="5.48941">
        <ele>381.3</ele>
        <time>2021-04-25T11:13:48Z</time>
      </trkpt>
      <trkpt lat="45.37314" lon="5.48931">
        <ele>381.3</ele>
        <time>2021-04-25T11:13:58Z</time>
      </trkpt>
      <trkpt lat="45.3733" lon="5.48911">
        <ele>382.74</ele>
        <time>2021-04-25T11:14:08Z</time>
      </trkpt>
      <trkpt lat="45.37347" lon="5.48906">
        <ele>384.18</ele>
        <time>2021-04-25T11:14:18Z</time>
      </trkpt>
      <trkpt lat="45.37363" lon="5.48905">
        <ele>386.11</ele>
        <time>2021-04-25T11:14:28Z</time>
      </trkpt>
      <trkpt lat="45.37377" lon="5.48902">
        <ele>387.55</ele>
        <time>2021-04-25T11:14:38Z</time>
      </trkpt>
      <trkpt lat="45.37387" lon="5.48903">
        <ele>388.99</ele>
        <time>2021-04-25T11:14:48Z</time>
      </trkpt>
      <trkpt lat="45.37398" lon="5.48906">
        <ele>390.43</ele>
        <time>2021-04-25T11:14:58Z</time>
      </trkpt>
      <trkpt lat="45.37414" lon="5.48907">
        <ele>391.87</ele>
        <time>2021-04-25T11:15:08Z</time>
      </trkpt>
      <trkpt lat="45.37425" lon="5.48909">
        <ele>393.32</ele>
        <time>2021-04-25T11:15:18Z</time>
      </trkpt>
      <trkpt lat="45.37437" lon="5.48913">
        <ele>394.76</ele>
        <time>2021-04-25T11:15:28Z</time>
      </trkpt>
      <trkpt lat="45.37451" lon="5.48915">
        <ele>395.24</ele>
        <time>2021-04-25T11:15:38Z</time>
      </trkpt>
      <trkpt lat="45.37477" lon="5.48923">
        <ele>394.76</ele>
        <time>2021-04-25T11:15:48Z</time>
      </trkpt>
      <trkpt lat="45.37499" lon="5.48929">
        <ele>394.76</ele>
        <time>2021-04-25T11:15:58Z</time>
      </trkpt>
      <trkpt lat="45.37528" lon="5.48931">
        <ele>395.24</ele>
        <time>2021-04-25T11:16:08Z</time>
      </trkpt>
      <trkpt lat="45.37556" lon="5.48939">
        <ele>396.2</ele>
        <time>2021-04-25T11:16:18Z</time>
      </trkpt>
      <trkpt lat="45.37582" lon="5.48938">
        <ele>397.16</ele>
        <time>2021-04-25T11:16:28Z</time>
      </trkpt>
      <trkpt lat="45.37612" lon="5.48941">
        <ele>397.16</ele>
        <time>2021-04-25T11:16:38Z</time>
      </trkpt>
      <trkpt lat="45.37639" lon="5.48947">
        <ele>398.12</ele>
        <time>2021-04-25T11:16:48Z</time>
      </trkpt>
      <trkpt lat="45.37667" lon="5.48956">
        <ele>398.12</ele>
        <time>2021-04-25T11:16:58Z</time>
      </trkpt>
      <trkpt lat="45.37695" lon="5.48971">
        <ele>397.64</ele>
        <time>2021-04-25T11:17:08Z</time>
      </trkpt>
      <trkpt lat="45.37724" lon="5.48989">
        <ele>397.64</ele>
        <time>2021-04-25T11:17:18Z</time>
      </trkpt>
      <trkpt lat="45.37753" lon="5.4901">
        <ele>397.64</ele>
        <time>2021-04-25T11:17:28Z</time>
      </trkpt>
      <trkpt lat="45.37782" lon="5.49031">
        <ele>397.16</ele>
        <time>2021-04-25T11:17:38Z</time>
      </trkpt>
      <trkpt lat="45.37811" lon="5.49051">
        <ele>397.64</ele>
        <time>2021-04-25T11:17:48Z</time>
      </trkpt>
      <trkpt lat="45.3784" lon="5.49063">
        <ele>398.6</ele>
        <time>2021-04-25T11:17:58Z</time>
      </trkpt>
      <trkpt lat="45.37867" lon="5.49082">
        <ele>399.08</ele>
        <time>2021-04-25T11:18:08Z</time>
      </trkpt>
      <trkpt lat="45.37894" lon="5.4911">
        <ele>399.08</ele>
        <time>2021-04-25T11:18:18Z</time>
      </trkpt>
      <trkpt lat="45.37918" lon="5.49142">
        <ele>399.08</ele>
        <time>2021-04-25T11:18:28Z</time>
      </trkpt>
      <trkpt lat="45.37942" lon="5.49171">
        <ele>399.57</ele>
        <time>2021-04-25T11:18:38Z</time>
      </trkpt>
      <trkpt lat="45.37956" lon="5.49201">
        <ele>400.53</ele>
        <time>2021-04-25T11:18:48Z</time>
      </trkpt>
      <trkpt lat="45.37964" lon="5.49228">
        <ele>401.01</ele>
        <time>2021-04-25T11:18:58Z</time>
      </trkpt>
      <trkpt lat="45.37986" lon="5.49264">
        <ele>400.53</ele>
        <time>2021-04-25T11:19:08Z</time>
      </trkpt>
      <trkpt lat="45.38007" lon="5.49289">
        <ele>401.49</ele>
        <time>2021-04-25T11:19:18Z</time>
      </trkpt>
      <trkpt lat="45.38026" lon="5.49314">
        <ele>401.97</ele>
        <time>2021-04-25T11:19:28Z</time>
      </trkpt>
      <trkpt lat="45.38042" lon="5.49342">
        <ele>402.93</ele>
        <time>2021-04-25T11:19:38Z</time>
      </trkpt>
      <trkpt lat="45.38053" lon="5.49374">
        <ele>402.93</ele>
        <time>2021-04-25T11:19:48Z</time>
      </trkpt>
      <trkpt lat="45.38069" lon="5.49413">
        <ele>402.93</ele>
        <time>2021-04-25T11:19:58Z</time>
      </trkpt>
      <trkpt lat="45.38078" lon="5.49458">
        <ele>402.45</ele>
        <time>2021-04-25T11:20:08Z</time>
      </trkpt>
      <trkpt lat="45.38043" lon="5.49475">
        <ele>400.53</ele>
        <time>2021-04-25T11:20:18Z</time>
      </trkpt>
      <trkpt lat="45.37995" lon="5.49511">
        <ele>397.16</ele>
        <time>2021-04-25T11:20:28Z</time>
      </trkpt>
      <trkpt lat="45.37925" lon="5.49592">
        <ele>387.55</ele>
        <time>2021-04-25T11:20:38Z</time>
      </trkpt>
      <trkpt lat="45.3786" lon="5.49631">
        <ele>388.03</ele>
        <time>2021-04-25T11:20:48Z</time>
      </trkpt>
      <trkpt lat="45.37829" lon="5.49611">
        <ele>390.91</ele>
        <time>2021-04-25T11:20:58Z</time>
      </trkpt>
      <trkpt lat="45.37806" lon="5.49605">
        <ele>391.39</ele>
        <time>2021-04-25T11:21:08Z</time>
      </trkpt>
      <trkpt lat="45.37815" lon="5.49627">
        <ele>393.32</ele>
        <time>2021-04-25T11:21:18Z</time>
      </trkpt>
      <trkpt lat="45.37821" lon="5.49651">
        <ele>394.28</ele>
        <time>2021-04-25T11:21:28Z</time>
      </trkpt>
      <trkpt lat="45.37835" lon="5.49674">
        <ele>395.24</ele>
        <time>2021-04-25T11:21:38Z</time>
      </trkpt>
      <trkpt lat="45.37854" lon="5.49698">
        <ele>396.68</ele>
        <time>2021-04-25T11:21:48Z</time>
      </trkpt>
      <trkpt lat="45.3786" lon="5.49728">
        <ele>397.64</ele>
        <time>2021-04-25T11:21:58Z</time>
      </trkpt>
      <trkpt lat="45.3786" lon="5.49761">
        <ele>399.08</ele>
        <time>2021-04-25T11:22:08Z</time>
      </trkpt>
      <trkpt lat="45.37861" lon="5.49787">
        <ele>400.53</ele>
        <time>2021-04-25T11:22:18Z</time>
      </trkpt>
      <trkpt lat="45.37863" lon="5.49818">
        <ele>401.97</ele>
        <time>2021-04-25T11:22:28Z</time>
      </trkpt>
      <trkpt lat="45.37862" lon="5.49847">
        <ele>402.45</ele>
        <time>2021-04-25T11:22:38Z</time>
      </trkpt>
      <trkpt lat="45.37856" lon="5.49874">
        <ele>402.93</ele>
        <time>2021-04-25T11:22:48Z</time>
      </trkpt>
      <trkpt lat="45.37839" lon="5.49878">
        <ele>404.85</ele>
        <time>2021-04-25T11:22:58Z</time>
      </trkpt>
      <trkpt lat="45.37823" lon="5.49868">
        <ele>407.26</ele>
        <time>2021-04-25T11:23:08Z</time>
      </trkpt>
      <trkpt lat="45.37809" lon="5.4985">
        <ele>408.7</ele>
        <time>2021-04-25T11:23:18Z</time>
      </trkpt>
      <trkpt lat="45.37799" lon="5.49834">
        <ele>410.62</ele>
        <time>2021-04-25T11:23:28Z</time>
      </trkpt>
      <trkpt lat="45.37792" lon="5.4982">
        <ele>412.06</ele>
        <time>2021-04-25T11:23:38Z</time>
      </trkpt>
      <trkpt lat="45.37781" lon="5.49804">
        <ele>413.5</ele>
        <time>2021-04-25T11:23:48Z</time>
      </trkpt>
      <trkpt lat="45.37773" lon="5.49786">
        <ele>415.43</ele>
        <time>2021-04-25T11:23:58Z</time>
      </trkpt>
      <trkpt lat="45.37762" lon="5.49771">
        <ele>417.35</ele>
        <time>2021-04-25T11:24:08Z</time>
      </trkpt>
      <trkpt lat="45.37747" lon="5.49752">
        <ele>419.27</ele>
        <time>2021-04-25T11:24:18Z</time>
      </trkpt>
      <trkpt lat="45.37732" lon="5.49758">
        <ele>420.71</ele>
        <time>2021-04-25T11:24:28Z</time>
      </trkpt>
      <trkpt lat="45.37726" lon="5.49779">
        <ele>422.16</ele>
        <time>2021-04-25T11:24:38Z</time>
      </trkpt>
      <trkpt lat="45.37721" lon="5.49805">
        <ele>422.64</ele>
        <time>2021-04-25T11:24:48Z</time>
      </trkpt>
      <trkpt lat="45.37715" lon="5.49839">
        <ele>422.64</ele>
        <time>2021-04-25T11:24:58Z</time>
      </trkpt>
      <trkpt lat="45.37713" lon="5.49871">
        <ele>424.08</ele>
        <time>2021-04-25T11:25:08Z</time>
      </trkpt>
      <trkpt lat="45.37713" lon="5.49902">
        <ele>424.56</ele>
        <time>2021-04-25T11:25:18Z</time>
      </trkpt>
      <trkpt lat="45.37715" lon="5.49932">
        <ele>426</ele>
        <time>2021-04-25T11:25:28Z</time>
      </trkpt>
      <trkpt lat="45.37716" lon="5.4996">
        <ele>427.44</ele>
        <time>2021-04-25T11:25:38Z</time>
      </trkpt>
      <trkpt lat="45.37716" lon="5.4999">
        <ele>429.37</ele>
        <time>2021-04-25T11:25:48Z</time>
      </trkpt>
      <trkpt lat="45.37714" lon="5.50012">
        <ele>431.29</ele>
        <time>2021-04-25T11:25:58Z</time>
      </trkpt>
      <trkpt lat="45.37717" lon="5.50036">
        <ele>432.25</ele>
        <time>2021-04-25T11:26:08Z</time>
      </trkpt>
      <trkpt lat="45.37719" lon="5.50058">
        <ele>433.21</ele>
        <time>2021-04-25T11:26:18Z</time>
      </trkpt>
      <trkpt lat="45.37729" lon="5.50076">
        <ele>434.17</ele>
        <time>2021-04-25T11:26:28Z</time>
      </trkpt>
      <trkpt lat="45.37737" lon="5.50094">
        <ele>435.13</ele>
        <time>2021-04-25T11:26:38Z</time>
      </trkpt>
      <trkpt lat="45.37745" lon="5.50106">
        <ele>436.1</ele>
        <time>2021-04-25T11:26:48Z</time>
      </trkpt>
      <trkpt lat="45.37752" lon="5.50125">
        <ele>437.06</ele>
        <time>2021-04-25T11:26:58Z</time>
      </trkpt>
      <trkpt lat="45.37755" lon="5.50144">
        <ele>438.98</ele>
        <time>2021-04-25T11:27:08Z</time>
      </trkpt>
      <trkpt lat="45.3775" lon="5.50164">
        <ele>440.42</ele>
        <time>2021-04-25T11:27:18Z</time>
      </trkpt>
      <trkpt lat="45.37745" lon="5.50184">
        <ele>441.86</ele>
        <time>2021-04-25T11:27:28Z</time>
      </trkpt>
      <trkpt lat="45.37741" lon="5.50206">
        <ele>442.82</ele>
        <time>2021-04-25T11:27:38Z</time>
      </trkpt>
      <trkpt lat="45.37745" lon="5.50231">
        <ele>443.79</ele>
        <time>2021-04-25T11:27:48Z</time>
      </trkpt>
      <trkpt lat="45.37751" lon="5.50251">
        <ele>445.23</ele>
        <time>2021-04-25T11:27:58Z</time>
      </trkpt>
      <trkpt lat="45.37757" lon="5.50271">
        <ele>446.19</ele>
        <time>2021-04-25T11:28:08Z</time>
      </trkpt>
      <trkpt lat="45.37762" lon="5.50284">
        <ele>446.67</ele>
        <time>2021-04-25T11:28:18Z</time>
      </trkpt>
      <trkpt lat="45.37763" lon="5.50287">
        <ele>446.67</ele>
        <time>2021-04-25T11:28:28Z</time>
      </trkpt>
      <trkpt lat="45.37766" lon="5.50288">
        <ele>446.67</ele>
        <time>2021-04-25T11:28:38Z</time>
      </trkpt>
      <trkpt lat="45.37764" lon="5.50288">
        <ele>446.67</ele>
        <time>2021-04-25T11:28:48Z</time>
      </trkpt>
      <trkpt lat="45.37764" lon="5.50288">
        <ele>447.15</ele>
        <time>2021-04-25T11:28:58Z</time>
      </trkpt>
      <trkpt lat="45.37764" lon="5.50288">
        <ele>446.67</ele>
        <time>2021-04-25T11:29:08Z</time>
      </trkpt>
      <trkpt lat="45.37761" lon="5.50288">
        <ele>447.15</ele>
        <time>2021-04-25T11:29:18Z</time>
      </trkpt>
      <trkpt lat="45.37763" lon="5.50288">
        <ele>446.67</ele>
        <time>2021-04-25T11:29:28Z</time>
      </trkpt>
      <trkpt lat="45.37765" lon="5.50288">
        <ele>446.67</ele>
        <time>2021-04-25T11:29:38Z</time>
      </trkpt>
      <trkpt lat="45.37765" lon="5.50287">
        <ele>446.67</ele>
        <time>2021-04-25T11:29:48Z</time>
      </trkpt>
      <trkpt lat="45.37765" lon="5.50287">
        <ele>446.67</ele>
        <time>2021-04-25T11:29:58Z</time>
      </trkpt>
      <trkpt lat="45.37765" lon="5.50288">
        <ele>446.67</ele>
        <time>2021-04-25T11:30:08Z</time>
      </trkpt>
      <trkpt lat="45.37766" lon="5.50288">
        <ele>446.67</ele>
        <time>2021-04-25T11:30:18Z</time>
      </trkpt>
      <trkpt lat="45.37766" lon="5.50287">
        <ele>447.15</ele>
        <time>2021-04-25T11:30:28Z</time>
      </trkpt>
      <trkpt lat="45.37766" lon="5.50288">
        <ele>447.15</ele>
        <time>2021-04-25T11:30:38Z</time>
      </trkpt>
      <trkpt lat="45.37765" lon="5.50288">
        <ele>447.15</ele>
        <time>2021-04-25T11:30:48Z</time>
      </trkpt>
      <trkpt lat="45.37766" lon="5.50304">
        <ele>448.11</ele>
        <time>2021-04-25T11:30:58Z</time>
      </trkpt>
      <trkpt lat="45.37764" lon="5.50333">
        <ele>449.07</ele>
        <time>2021-04-25T11:31:08Z</time>
      </trkpt>
      <trkpt lat="45.37765" lon="5.50362">
        <ele>450.03</ele>
        <time>2021-04-25T11:31:18Z</time>
      </trkpt>
      <trkpt lat="45.37769" lon="5.50388">
        <ele>450.52</ele>
        <time>2021-04-25T11:31:28Z</time>
      </trkpt>
      <trkpt lat="45.37765" lon="5.50412">
        <ele>451.96</ele>
        <time>2021-04-25T11:31:38Z</time>
      </trkpt>
      <trkpt lat="45.37762" lon="5.50436">
        <ele>453.4</ele>
        <time>2021-04-25T11:31:48Z</time>
      </trkpt>
      <trkpt lat="45.37759" lon="5.50458">
        <ele>454.84</ele>
        <time>2021-04-25T11:31:58Z</time>
      </trkpt>
      <trkpt lat="45.3776" lon="5.50479">
        <ele>455.32</ele>
        <time>2021-04-25T11:32:08Z</time>
      </trkpt>
      <trkpt lat="45.37763" lon="5.50502">
        <ele>455.8</ele>
        <time>2021-04-25T11:32:18Z</time>
      </trkpt>
      <trkpt lat="45.37769" lon="5.50522">
        <ele>456.76</ele>
        <time>2021-04-25T11:32:28Z</time>
      </trkpt>
      <trkpt lat="45.37777" lon="5.50542">
        <ele>457.72</ele>
        <time>2021-04-25T11:32:38Z</time>
      </trkpt>
      <trkpt lat="45.37785" lon="5.50561">
        <ele>458.21</ele>
        <time>2021-04-25T11:32:48Z</time>
      </trkpt>
      <trkpt lat="45.37794" lon="5.5058">
        <ele>459.65</ele>
        <time>2021-04-25T11:32:58Z</time>
      </trkpt>
      <trkpt lat="45.37799" lon="5.506">
        <ele>460.61</ele>
        <time>2021-04-25T11:33:08Z</time>
      </trkpt>
      <trkpt lat="45.37803" lon="5.50623">
        <ele>461.57</ele>
        <time>2021-04-25T11:33:18Z</time>
      </trkpt>
      <trkpt lat="45.37803" lon="5.50649">
        <ele>462.05</ele>
        <time>2021-04-25T11:33:28Z</time>
      </trkpt>
      <trkpt lat="45.37804" lon="5.50677">
        <ele>462.05</ele>
        <time>2021-04-25T11:33:38Z</time>
      </trkpt>
      <trkpt lat="45.37804" lon="5.50706">
        <ele>462.53</ele>
        <time>2021-04-25T11:33:48Z</time>
      </trkpt>
      <trkpt lat="45.37803" lon="5.50734">
        <ele>463.01</ele>
        <time>2021-04-25T11:33:58Z</time>
      </trkpt>
      <trkpt lat="45.37803" lon="5.50763">
        <ele>463.49</ele>
        <time>2021-04-25T11:34:08Z</time>
      </trkpt>
      <trkpt lat="45.37807" lon="5.50795">
        <ele>463.97</ele>
        <time>2021-04-25T11:34:18Z</time>
      </trkpt>
      <trkpt lat="45.37809" lon="5.50824">
        <ele>464.45</ele>
        <time>2021-04-25T11:34:28Z</time>
      </trkpt>
      <trkpt lat="45.37809" lon="5.50857">
        <ele>464.45</ele>
        <time>2021-04-25T11:34:38Z</time>
      </trkpt>
      <trkpt lat="45.37807" lon="5.50894">
        <ele>464.45</ele>
        <time>2021-04-25T11:34:48Z</time>
      </trkpt>
      <trkpt lat="45.37806" lon="5.50917">
        <ele>464.93</ele>
        <time>2021-04-25T11:34:58Z</time>
      </trkpt>
      <trkpt lat="45.37805" lon="5.50948">
        <ele>465.42</ele>
        <time>2021-04-25T11:35:08Z</time>
      </trkpt>
      <trkpt lat="45.37803" lon="5.50982">
        <ele>465.9</ele>
        <time>2021-04-25T11:35:18Z</time>
      </trkpt>
      <trkpt lat="45.37802" lon="5.51017">
        <ele>466.38</ele>
        <time>2021-04-25T11:35:28Z</time>
      </trkpt>
      <trkpt lat="45.37802" lon="5.51053">
        <ele>467.34</ele>
        <time>2021-04-25T11:35:38Z</time>
      </trkpt>
      <trkpt lat="45.37802" lon="5.51088">
        <ele>468.3</ele>
        <time>2021-04-25T11:35:48Z</time>
      </trkpt>
      <trkpt lat="45.37806" lon="5.51125">
        <ele>468.3</ele>
        <time>2021-04-25T11:35:58Z</time>
      </trkpt>
      <trkpt lat="45.37814" lon="5.51171">
        <ele>467.82</ele>
        <time>2021-04-25T11:36:08Z</time>
      </trkpt>
      <trkpt lat="45.37838" lon="5.51224">
        <ele>466.86</ele>
        <time>2021-04-25T11:36:18Z</time>
      </trkpt>
      <trkpt lat="45.3787" lon="5.51264">
        <ele>467.34</ele>
        <time>2021-04-25T11:36:28Z</time>
      </trkpt>
      <trkpt lat="45.37903" lon="5.51305">
        <ele>467.82</ele>
        <time>2021-04-25T11:36:38Z</time>
      </trkpt>
      <trkpt lat="45.37938" lon="5.51347">
        <ele>468.3</ele>
        <time>2021-04-25T11:36:48Z</time>
      </trkpt>
      <trkpt lat="45.37985" lon="5.51382">
        <ele>467.34</ele>
        <time>2021-04-25T11:36:58Z</time>
      </trkpt>
      <trkpt lat="45.38029" lon="5.51425">
        <ele>466.86</ele>
        <time>2021-04-25T11:37:08Z</time>
      </trkpt>
      <trkpt lat="45.38064" lon="5.51479">
        <ele>467.82</ele>
        <time>2021-04-25T11:37:18Z</time>
      </trkpt>
      <trkpt lat="45.38093" lon="5.51524">
        <ele>468.3</ele>
        <time>2021-04-25T11:37:28Z</time>
      </trkpt>
      <trkpt lat="45.38121" lon="5.51569">
        <ele>468.78</ele>
        <time>2021-04-25T11:37:38Z</time>
      </trkpt>
      <trkpt lat="45.38152" lon="5.51613">
        <ele>469.26</ele>
        <time>2021-04-25T11:37:48Z</time>
      </trkpt>
      <trkpt lat="45.38182" lon="5.51659">
        <ele>469.26</ele>
        <time>2021-04-25T11:37:58Z</time>
      </trkpt>
      <trkpt lat="45.38209" lon="5.51701">
        <ele>469.26</ele>
        <time>2021-04-25T11:38:08Z</time>
      </trkpt>
      <trkpt lat="45.38207" lon="5.51732">
        <ele>470.22</ele>
        <time>2021-04-25T11:38:18Z</time>
      </trkpt>
      <trkpt lat="45.38189" lon="5.51755">
        <ele>471.66</ele>
        <time>2021-04-25T11:38:28Z</time>
      </trkpt>
      <trkpt lat="45.38174" lon="5.51771">
        <ele>473.11</ele>
        <time>2021-04-25T11:38:38Z</time>
      </trkpt>
      <trkpt lat="45.38156" lon="5.51782">
        <ele>474.55</ele>
        <time>2021-04-25T11:38:48Z</time>
      </trkpt>
      <trkpt lat="45.3814" lon="5.51789">
        <ele>476.95</ele>
        <time>2021-04-25T11:38:58Z</time>
      </trkpt>
      <trkpt lat="45.38123" lon="5.51793">
        <ele>477.91</ele>
        <time>2021-04-25T11:39:08Z</time>
      </trkpt>
      <trkpt lat="45.38108" lon="5.51798">
        <ele>478.87</ele>
        <time>2021-04-25T11:39:18Z</time>
      </trkpt>
      <trkpt lat="45.38111" lon="5.51817">
        <ele>480.8</ele>
        <time>2021-04-25T11:39:28Z</time>
      </trkpt>
      <trkpt lat="45.38114" lon="5.51835">
        <ele>482.72</ele>
        <time>2021-04-25T11:39:38Z</time>
      </trkpt>
      <trkpt lat="45.38116" lon="5.51852">
        <ele>483.68</ele>
        <time>2021-04-25T11:39:48Z</time>
      </trkpt>
      <trkpt lat="45.38117" lon="5.51872">
        <ele>484.64</ele>
        <time>2021-04-25T11:39:58Z</time>
      </trkpt>
      <trkpt lat="45.3812" lon="5.51893">
        <ele>486.08</ele>
        <time>2021-04-25T11:40:08Z</time>
      </trkpt>
      <trkpt lat="45.38124" lon="5.51921">
        <ele>485.6</ele>
        <time>2021-04-25T11:40:18Z</time>
      </trkpt>
      <trkpt lat="45.38129" lon="5.51952">
        <ele>486.08</ele>
        <time>2021-04-25T11:40:28Z</time>
      </trkpt>
      <trkpt lat="45.38137" lon="5.51995">
        <ele>485.12</ele>
        <time>2021-04-25T11:40:38Z</time>
      </trkpt>
      <trkpt lat="45.38143" lon="5.52032">
        <ele>485.6</ele>
        <time>2021-04-25T11:40:48Z</time>
      </trkpt>
      <trkpt lat="45.38155" lon="5.52071">
        <ele>485.6</ele>
        <time>2021-04-25T11:40:58Z</time>
      </trkpt>
      <trkpt lat="45.38174" lon="5.52117">
        <ele>484.16</ele>
        <time>2021-04-25T11:41:08Z</time>
      </trkpt>
      <trkpt lat="45.38194" lon="5.52159">
        <ele>483.68</ele>
        <time>2021-04-25T11:41:18Z</time>
      </trkpt>
      <trkpt lat="45.38205" lon="5.52198">
        <ele>484.64</ele>
        <time>2021-04-25T11:41:28Z</time>
      </trkpt>
      <trkpt lat="45.38217" lon="5.52234">
        <ele>485.6</ele>
        <time>2021-04-25T11:41:38Z</time>
      </trkpt>
      <trkpt lat="45.38231" lon="5.52271">
        <ele>486.56</ele>
        <time>2021-04-25T11:41:47Z</time>
      </trkpt>
      <trkpt lat="45.38243" lon="5.52296">
        <ele>487.53</ele>
        <time>2021-04-25T11:41:57Z</time>
      </trkpt>
      <trkpt lat="45.38281" lon="5.52332">
        <ele>488.01</ele>
        <time>2021-04-25T11:42:07Z</time>
      </trkpt>
      <trkpt lat="45.38301" lon="5.52365">
        <ele>488.01</ele>
        <time>2021-04-25T11:42:17Z</time>
      </trkpt>
      <trkpt lat="45.38324" lon="5.52395">
        <ele>487.05</ele>
        <time>2021-04-25T11:42:27Z</time>
      </trkpt>
      <trkpt lat="45.38343" lon="5.52439">
        <ele>486.08</ele>
        <time>2021-04-25T11:42:37Z</time>
      </trkpt>
      <trkpt lat="45.3837" lon="5.52482">
        <ele>485.6</ele>
        <time>2021-04-25T11:42:47Z</time>
      </trkpt>
      <trkpt lat="45.38397" lon="5.52515">
        <ele>486.08</ele>
        <time>2021-04-25T11:42:57Z</time>
      </trkpt>
      <trkpt lat="45.38425" lon="5.52553">
        <ele>485.12</ele>
        <time>2021-04-25T11:43:07Z</time>
      </trkpt>
      <trkpt lat="45.38446" lon="5.52583">
        <ele>481.76</ele>
        <time>2021-04-25T11:43:17Z</time>
      </trkpt>
      <trkpt lat="45.38451" lon="5.52611">
        <ele>479.35</ele>
        <time>2021-04-25T11:43:27Z</time>
      </trkpt>
      <trkpt lat="45.38432" lon="5.52614">
        <ele>478.87</ele>
        <time>2021-04-25T11:43:37Z</time>
      </trkpt>
      <trkpt lat="45.38431" lon="5.52615">
        <ele>479.35</ele>
        <time>2021-04-25T11:43:47Z</time>
      </trkpt>
      <trkpt lat="45.38431" lon="5.52615">
        <ele>479.35</ele>
        <time>2021-04-25T11:43:57Z</time>
      </trkpt>
      <trkpt lat="45.38431" lon="5.52614">
        <ele>479.35</ele>
        <time>2021-04-25T11:44:07Z</time>
      </trkpt>
      <trkpt lat="45.38431" lon="5.52615">
        <ele>479.35</ele>
        <time>2021-04-25T11:44:17Z</time>
      </trkpt>
      <trkpt lat="45.38431" lon="5.52616">
        <ele>479.35</ele>
        <time>2021-04-25T11:44:27Z</time>
      </trkpt>
      <trkpt lat="45.38431" lon="5.52616">
        <ele>479.35</ele>
        <time>2021-04-25T11:44:37Z</time>
      </trkpt>
      <trkpt lat="45.3843" lon="5.52615">
        <ele>479.35</ele>
        <time>2021-04-25T11:44:47Z</time>
      </trkpt>
      <trkpt lat="45.3843" lon="5.52614">
        <ele>478.87</ele>
        <time>2021-04-25T11:44:57Z</time>
      </trkpt>
      <trkpt lat="45.38415" lon="5.52643">
        <ele>473.59</ele>
        <time>2021-04-25T11:45:07Z</time>
      </trkpt>
      <trkpt lat="45.38364" lon="5.52679">
        <ele>463.49</ele>
        <time>2021-04-25T11:45:17Z</time>
      </trkpt>
      <trkpt lat="45.38295" lon="5.52743">
        <ele>454.36</ele>
        <time>2021-04-25T11:45:27Z</time>
      </trkpt>
      <trkpt lat="45.38235" lon="5.52795">
        <ele>446.67</ele>
        <time>2021-04-25T11:45:37Z</time>
      </trkpt>
      <trkpt lat="45.38193" lon="5.52767">
        <ele>442.34</ele>
        <time>2021-04-25T11:45:47Z</time>
      </trkpt>
      <trkpt lat="45.38131" lon="5.52748">
        <ele>439.46</ele>
        <time>2021-04-25T11:45:57Z</time>
      </trkpt>
      <trkpt lat="45.38076" lon="5.52748">
        <ele>438.02</ele>
        <time>2021-04-25T11:46:07Z</time>
      </trkpt>
      <trkpt lat="45.3803" lon="5.52753">
        <ele>436.58</ele>
        <time>2021-04-25T11:46:17Z</time>
      </trkpt>
      <trkpt lat="45.38003" lon="5.52736">
        <ele>436.1</ele>
        <time>2021-04-25T11:46:27Z</time>
      </trkpt>
      <trkpt lat="45.37966" lon="5.52757">
        <ele>434.17</ele>
        <time>2021-04-25T11:46:37Z</time>
      </trkpt>
      <trkpt lat="45.37927" lon="5.52744">
        <ele>432.73</ele>
        <time>2021-04-25T11:46:47Z</time>
      </trkpt>
      <trkpt lat="45.37882" lon="5.52739">
        <ele>431.29</ele>
        <time>2021-04-25T11:46:57Z</time>
      </trkpt>
      <trkpt lat="45.3783" lon="5.52754">
        <ele>429.85</ele>
        <time>2021-04-25T11:47:07Z</time>
      </trkpt>
      <trkpt lat="45.37776" lon="5.52759">
        <ele>428.4</ele>
        <time>2021-04-25T11:47:17Z</time>
      </trkpt>
      <trkpt lat="45.37724" lon="5.52752">
        <ele>426.48</ele>
        <time>2021-04-25T11:47:27Z</time>
      </trkpt>
      <trkpt lat="45.37674" lon="5.52765">
        <ele>426</ele>
        <time>2021-04-25T11:47:37Z</time>
      </trkpt>
      <trkpt lat="45.37626" lon="5.52789">
        <ele>426</ele>
        <time>2021-04-25T11:47:47Z</time>
      </trkpt>
      <trkpt lat="45.37582" lon="5.52823">
        <ele>425.04</ele>
        <time>2021-04-25T11:47:57Z</time>
      </trkpt>
      <trkpt lat="45.37542" lon="5.52851">
        <ele>426</ele>
        <time>2021-04-25T11:48:07Z</time>
      </trkpt>
      <trkpt lat="45.3751" lon="5.52872">
        <ele>427.92</ele>
        <time>2021-04-25T11:48:17Z</time>
      </trkpt>
      <trkpt lat="45.37489" lon="5.52886">
        <ele>429.37</ele>
        <time>2021-04-25T11:48:27Z</time>
      </trkpt>
      <trkpt lat="45.37469" lon="5.52899">
        <ele>428.89</ele>
        <time>2021-04-25T11:48:37Z</time>
      </trkpt>
      <trkpt lat="45.37469" lon="5.529">
        <ele>428.89</ele>
        <time>2021-04-25T11:48:47Z</time>
      </trkpt>
      <trkpt lat="45.37469" lon="5.52901">
        <ele>428.89</ele>
        <time>2021-04-25T11:48:57Z</time>
      </trkpt>
      <trkpt lat="45.37469" lon="5.52901">
        <ele>428.89</ele>
        <time>2021-04-25T11:49:07Z</time>
      </trkpt>
      <trkpt lat="45.37469" lon="5.52901">
        <ele>428.89</ele>
        <time>2021-04-25T11:49:17Z</time>
      </trkpt>
      <trkpt lat="45.37469" lon="5.529">
        <ele>428.89</ele>
        <time>2021-04-25T11:49:27Z</time>
      </trkpt>
      <trkpt lat="45.37469" lon="5.529">
        <ele>428.89</ele>
        <time>2021-04-25T11:49:37Z</time>
      </trkpt>
      <trkpt lat="45.3747" lon="5.529">
        <ele>428.89</ele>
        <time>2021-04-25T11:49:47Z</time>
      </trkpt>
      <trkpt lat="45.3747" lon="5.529">
        <ele>428.89</ele>
        <time>2021-04-25T11:49:57Z</time>
      </trkpt>
      <trkpt lat="45.3747" lon="5.529">
        <ele>428.89</ele>
        <time>2021-04-25T11:50:07Z</time>
      </trkpt>
      <trkpt lat="45.3747" lon="5.529">
        <ele>428.89</ele>
        <time>2021-04-25T11:50:17Z</time>
      </trkpt>
      <trkpt lat="45.3747" lon="5.529">
        <ele>429.37</ele>
        <time>2021-04-25T11:50:27Z</time>
      </trkpt>
      <trkpt lat="45.37451" lon="5.52912">
        <ele>428.4</ele>
        <time>2021-04-25T11:50:37Z</time>
      </trkpt>
      <trkpt lat="45.37422" lon="5.52936">
        <ele>427.44</ele>
        <time>2021-04-25T11:50:47Z</time>
      </trkpt>
      <trkpt lat="45.37392" lon="5.52972">
        <ele>426.96</ele>
        <time>2021-04-25T11:50:57Z</time>
      </trkpt>
      <trkpt lat="45.37366" lon="5.53007">
        <ele>426.96</ele>
        <time>2021-04-25T11:51:07Z</time>
      </trkpt>
      <trkpt lat="45.37391" lon="5.53046">
        <ele>426.96</ele>
        <time>2021-04-25T11:51:17Z</time>
      </trkpt>
      <trkpt lat="45.37416" lon="5.53088">
        <ele>425.52</ele>
        <time>2021-04-25T11:51:27Z</time>
      </trkpt>
      <trkpt lat="45.37443" lon="5.53139">
        <ele>423.6</ele>
        <time>2021-04-25T11:51:37Z</time>
      </trkpt>
      <trkpt lat="45.37484" lon="5.53199">
        <ele>421.19</ele>
        <time>2021-04-25T11:51:47Z</time>
      </trkpt>
      <trkpt lat="45.37521" lon="5.53272">
        <ele>418.31</ele>
        <time>2021-04-25T11:51:57Z</time>
      </trkpt>
      <trkpt lat="45.37543" lon="5.53318">
        <ele>411.58</ele>
        <time>2021-04-25T11:52:07Z</time>
      </trkpt>
      <trkpt lat="45.37568" lon="5.53372">
        <ele>403.89</ele>
        <time>2021-04-25T11:52:17Z</time>
      </trkpt>
      <trkpt lat="45.37585" lon="5.53476">
        <ele>395.72</ele>
        <time>2021-04-25T11:52:27Z</time>
      </trkpt>
      <trkpt lat="45.37589" lon="5.53573">
        <ele>395.24</ele>
        <time>2021-04-25T11:52:37Z</time>
      </trkpt>
      <trkpt lat="45.37614" lon="5.53618">
        <ele>397.16</ele>
        <time>2021-04-25T11:52:47Z</time>
      </trkpt>
      <trkpt lat="45.37632" lon="5.53644">
        <ele>399.08</ele>
        <time>2021-04-25T11:52:57Z</time>
      </trkpt>
      <trkpt lat="45.3764" lon="5.53686">
        <ele>400.05</ele>
        <time>2021-04-25T11:53:07Z</time>
      </trkpt>
      <trkpt lat="45.37644" lon="5.53723">
        <ele>401.49</ele>
        <time>2021-04-25T11:53:17Z</time>
      </trkpt>
      <trkpt lat="45.37652" lon="5.53753">
        <ele>403.41</ele>
        <time>2021-04-25T11:53:27Z</time>
      </trkpt>
      <trkpt lat="45.37655" lon="5.53768">
        <ele>405.33</ele>
        <time>2021-04-25T11:53:37Z</time>
      </trkpt>
      <trkpt lat="45.3764" lon="5.53759">
        <ele>405.81</ele>
        <time>2021-04-25T11:53:47Z</time>
      </trkpt>
      <trkpt lat="45.37622" lon="5.53746">
        <ele>406.29</ele>
        <time>2021-04-25T11:53:57Z</time>
      </trkpt>
      <trkpt lat="45.37603" lon="5.53732">
        <ele>407.26</ele>
        <time>2021-04-25T11:54:07Z</time>
      </trkpt>
      <trkpt lat="45.37576" lon="5.53717">
        <ele>406.29</ele>
        <time>2021-04-25T11:54:17Z</time>
      </trkpt>
      <trkpt lat="45.3753" lon="5.53706">
        <ele>404.85</ele>
        <time>2021-04-25T11:54:27Z</time>
      </trkpt>
      <trkpt lat="45.37488" lon="5.53703">
        <ele>404.37</ele>
        <time>2021-04-25T11:54:37Z</time>
      </trkpt>
      <trkpt lat="45.37458" lon="5.53715">
        <ele>401.97</ele>
        <time>2021-04-25T11:54:47Z</time>
      </trkpt>
      <trkpt lat="45.37416" lon="5.53761">
        <ele>396.68</ele>
        <time>2021-04-25T11:54:57Z</time>
      </trkpt>
      <trkpt lat="45.37362" lon="5.53773">
        <ele>397.16</ele>
        <time>2021-04-25T11:55:07Z</time>
      </trkpt>
      <trkpt lat="45.37328" lon="5.53774">
        <ele>399.08</ele>
        <time>2021-04-25T11:55:17Z</time>
      </trkpt>
      <trkpt lat="45.37303" lon="5.53775">
        <ele>400.53</ele>
        <time>2021-04-25T11:55:27Z</time>
      </trkpt>
      <trkpt lat="45.37285" lon="5.53774">
        <ele>402.45</ele>
        <time>2021-04-25T11:55:37Z</time>
      </trkpt>
      <trkpt lat="45.37285" lon="5.53791">
        <ele>402.93</ele>
        <time>2021-04-25T11:55:47Z</time>
      </trkpt>
      <trkpt lat="45.37285" lon="5.53793">
        <ele>402.45</ele>
        <time>2021-04-25T11:55:57Z</time>
      </trkpt>
      <trkpt lat="45.37285" lon="5.53794">
        <ele>402.93</ele>
        <time>2021-04-25T11:56:07Z</time>
      </trkpt>
      <trkpt lat="45.37285" lon="5.53799">
        <ele>402.93</ele>
        <time>2021-04-25T11:56:17Z</time>
      </trkpt>
      <trkpt lat="45.37292" lon="5.53831">
        <ele>402.93</ele>
        <time>2021-04-25T11:56:27Z</time>
      </trkpt>
      <trkpt lat="45.37303" lon="5.5387">
        <ele>402.45</ele>
        <time>2021-04-25T11:56:37Z</time>
      </trkpt>
      <trkpt lat="45.37313" lon="5.5391">
        <ele>402.93</ele>
        <time>2021-04-25T11:56:47Z</time>
      </trkpt>
      <trkpt lat="45.37324" lon="5.5395">
        <ele>403.41</ele>
        <time>2021-04-25T11:56:57Z</time>
      </trkpt>
      <trkpt lat="45.37335" lon="5.53993">
        <ele>403.41</ele>
        <time>2021-04-25T11:57:07Z</time>
      </trkpt>
      <trkpt lat="45.37344" lon="5.54042">
        <ele>403.41</ele>
        <time>2021-04-25T11:57:17Z</time>
      </trkpt>
      <trkpt lat="45.37348" lon="5.54091">
        <ele>403.41</ele>
        <time>2021-04-25T11:57:27Z</time>
      </trkpt>
      <trkpt lat="45.37354" lon="5.54143">
        <ele>402.93</ele>
        <time>2021-04-25T11:57:37Z</time>
      </trkpt>
      <trkpt lat="45.37364" lon="5.54195">
        <ele>402.45</ele>
        <time>2021-04-25T11:57:47Z</time>
      </trkpt>
      <trkpt lat="45.3734" lon="5.54219">
        <ele>403.41</ele>
        <time>2021-04-25T11:57:57Z</time>
      </trkpt>
      <trkpt lat="45.37314" lon="5.5424">
        <ele>404.85</ele>
        <time>2021-04-25T11:58:07Z</time>
      </trkpt>
      <trkpt lat="45.37289" lon="5.54259">
        <ele>405.81</ele>
        <time>2021-04-25T11:58:17Z</time>
      </trkpt>
      <trkpt lat="45.37264" lon="5.54279">
        <ele>405.81</ele>
        <time>2021-04-25T11:58:27Z</time>
      </trkpt>
      <trkpt lat="45.37249" lon="5.54319">
        <ele>406.77</ele>
        <time>2021-04-25T11:58:37Z</time>
      </trkpt>
      <trkpt lat="45.37232" lon="5.5436">
        <ele>407.26</ele>
        <time>2021-04-25T11:58:47Z</time>
      </trkpt>
      <trkpt lat="45.37216" lon="5.54402">
        <ele>407.26</ele>
        <time>2021-04-25T11:58:57Z</time>
      </trkpt>
      <trkpt lat="45.37201" lon="5.54442">
        <ele>407.26</ele>
        <time>2021-04-25T11:59:07Z</time>
      </trkpt>
      <trkpt lat="45.37189" lon="5.54494">
        <ele>407.74</ele>
        <time>2021-04-25T11:59:17Z</time>
      </trkpt>
      <trkpt lat="45.37175" lon="5.54548">
        <ele>407.74</ele>
        <time>2021-04-25T11:59:27Z</time>
      </trkpt>
      <trkpt lat="45.37159" lon="5.546">
        <ele>407.74</ele>
        <time>2021-04-25T11:59:37Z</time>
      </trkpt>
      <trkpt lat="45.37148" lon="5.54648">
        <ele>407.74</ele>
        <time>2021-04-25T11:59:47Z</time>
      </trkpt>
      <trkpt lat="45.37141" lon="5.54694">
        <ele>407.26</ele>
        <time>2021-04-25T11:59:57Z</time>
      </trkpt>
      <trkpt lat="45.37133" lon="5.5474">
        <ele>406.29</ele>
        <time>2021-04-25T12:00:07Z</time>
      </trkpt>
      <trkpt lat="45.37133" lon="5.54743">
        <ele>406.29</ele>
        <time>2021-04-25T12:00:17Z</time>
      </trkpt>
      <trkpt lat="45.37133" lon="5.54742">
        <ele>406.77</ele>
        <time>2021-04-25T12:00:27Z</time>
      </trkpt>
      <trkpt lat="45.37134" lon="5.54748">
        <ele>406.77</ele>
        <time>2021-04-25T12:00:37Z</time>
      </trkpt>
      <trkpt lat="45.37143" lon="5.54799">
        <ele>405.33</ele>
        <time>2021-04-25T12:00:47Z</time>
      </trkpt>
      <trkpt lat="45.37156" lon="5.54858">
        <ele>403.89</ele>
        <time>2021-04-25T12:00:57Z</time>
      </trkpt>
      <trkpt lat="45.37167" lon="5.54923">
        <ele>403.41</ele>
        <time>2021-04-25T12:01:07Z</time>
      </trkpt>
      <trkpt lat="45.37172" lon="5.5494">
        <ele>403.41</ele>
        <time>2021-04-25T12:01:17Z</time>
      </trkpt>
      <trkpt lat="45.37171" lon="5.5494">
        <ele>403.41</ele>
        <time>2021-04-25T12:01:27Z</time>
      </trkpt>
      <trkpt lat="45.37171" lon="5.5494">
        <ele>403.41</ele>
        <time>2021-04-25T12:01:37Z</time>
      </trkpt>
      <trkpt lat="45.37158" lon="5.54966">
        <ele>401.01</ele>
        <time>2021-04-25T12:01:47Z</time>
      </trkpt>
      <trkpt lat="45.37114" lon="5.54999">
        <ele>396.68</ele>
        <time>2021-04-25T12:01:57Z</time>
      </trkpt>
      <trkpt lat="45.37067" lon="5.55034">
        <ele>393.32</ele>
        <time>2021-04-25T12:02:07Z</time>
      </trkpt>
      <trkpt lat="45.37034" lon="5.55065">
        <ele>392.84</ele>
        <time>2021-04-25T12:02:17Z</time>
      </trkpt>
      <trkpt lat="45.36999" lon="5.55107">
        <ele>391.39</ele>
        <time>2021-04-25T12:02:27Z</time>
      </trkpt>
      <trkpt lat="45.36976" lon="5.55188">
        <ele>387.55</ele>
        <time>2021-04-25T12:02:37Z</time>
      </trkpt>
      <trkpt lat="45.36909" lon="5.55226">
        <ele>381.78</ele>
        <time>2021-04-25T12:02:47Z</time>
      </trkpt>
      <trkpt lat="45.36822" lon="5.55273">
        <ele>376.49</ele>
        <time>2021-04-25T12:02:57Z</time>
      </trkpt>
      <trkpt lat="45.36741" lon="5.55302">
        <ele>373.13</ele>
        <time>2021-04-25T12:03:07Z</time>
      </trkpt>
      <trkpt lat="45.36669" lon="5.55297">
        <ele>372.17</ele>
        <time>2021-04-25T12:03:17Z</time>
      </trkpt>
      <trkpt lat="45.36623" lon="5.55304">
        <ele>372.17</ele>
        <time>2021-04-25T12:03:27Z</time>
      </trkpt>
      <trkpt lat="45.36583" lon="5.5531">
        <ele>372.17</ele>
        <time>2021-04-25T12:03:37Z</time>
      </trkpt>
      <trkpt lat="45.36545" lon="5.55311">
        <ele>372.65</ele>
        <time>2021-04-25T12:03:47Z</time>
      </trkpt>
      <trkpt lat="45.36508" lon="5.55316">
        <ele>372.65</ele>
        <time>2021-04-25T12:03:57Z</time>
      </trkpt>
      <trkpt lat="45.36467" lon="5.55325">
        <ele>372.65</ele>
        <time>2021-04-25T12:04:07Z</time>
      </trkpt>
      <trkpt lat="45.36425" lon="5.55331">
        <ele>372.17</ele>
        <time>2021-04-25T12:04:17Z</time>
      </trkpt>
      <trkpt lat="45.36372" lon="5.55345">
        <ele>370.73</ele>
        <time>2021-04-25T12:04:27Z</time>
      </trkpt>
      <trkpt lat="45.36348" lon="5.55295">
        <ele>369.76</ele>
        <time>2021-04-25T12:04:37Z</time>
      </trkpt>
      <trkpt lat="45.36324" lon="5.55243">
        <ele>368.8</ele>
        <time>2021-04-25T12:04:47Z</time>
      </trkpt>
      <trkpt lat="45.36287" lon="5.55207">
        <ele>368.32</ele>
        <time>2021-04-25T12:04:57Z</time>
      </trkpt>
      <trkpt lat="45.36257" lon="5.55169">
        <ele>368.8</ele>
        <time>2021-04-25T12:05:07Z</time>
      </trkpt>
      <trkpt lat="45.36223" lon="5.5513">
        <ele>368.8</ele>
        <time>2021-04-25T12:05:17Z</time>
      </trkpt>
      <trkpt lat="45.36191" lon="5.55092">
        <ele>368.32</ele>
        <time>2021-04-25T12:05:27Z</time>
      </trkpt>
      <trkpt lat="45.3617" lon="5.55061">
        <ele>369.28</ele>
        <time>2021-04-25T12:05:37Z</time>
      </trkpt>
      <trkpt lat="45.36146" lon="5.55033">
        <ele>368.32</ele>
        <time>2021-04-25T12:05:47Z</time>
      </trkpt>
      <trkpt lat="45.36124" lon="5.55004">
        <ele>366.88</ele>
        <time>2021-04-25T12:05:57Z</time>
      </trkpt>
      <trkpt lat="45.36089" lon="5.55001">
        <ele>364.96</ele>
        <time>2021-04-25T12:06:07Z</time>
      </trkpt>
      <trkpt lat="45.36049" lon="5.55017">
        <ele>364</ele>
        <time>2021-04-25T12:06:17Z</time>
      </trkpt>
      <trkpt lat="45.36039" lon="5.55057">
        <ele>365.44</ele>
        <time>2021-04-25T12:06:27Z</time>
      </trkpt>
      <trkpt lat="45.36052" lon="5.55073">
        <ele>367.36</ele>
        <time>2021-04-25T12:06:37Z</time>
      </trkpt>
      <trkpt lat="45.36062" lon="5.55096">
        <ele>367.84</ele>
        <time>2021-04-25T12:06:47Z</time>
      </trkpt>
      <trkpt lat="45.36067" lon="5.5512">
        <ele>367.84</ele>
        <time>2021-04-25T12:06:57Z</time>
      </trkpt>
      <trkpt lat="45.36068" lon="5.55121">
        <ele>368.32</ele>
        <time>2021-04-25T12:07:07Z</time>
      </trkpt>
      <trkpt lat="45.36068" lon="5.55121">
        <ele>368.32</ele>
        <time>2021-04-25T12:07:17Z</time>
      </trkpt>
      <trkpt lat="45.36068" lon="5.55121">
        <ele>368.32</ele>
        <time>2021-04-25T12:07:27Z</time>
      </trkpt>
      <trkpt lat="45.36068" lon="5.55121">
        <ele>368.32</ele>
        <time>2021-04-25T12:07:37Z</time>
      </trkpt>
      <trkpt lat="45.36068" lon="5.55121">
        <ele>368.32</ele>
        <time>2021-04-25T12:07:47Z</time>
      </trkpt>
      <trkpt lat="45.36068" lon="5.55122">
        <ele>368.32</ele>
        <time>2021-04-25T12:07:55Z</time>
      </trkpt>
    </trkseg>
  </trk>
</gpx>